<?xml version='1.0' encoding='UTF-8'?><gpx version="1.1" creator="JPX - https://github.com/jenetics/jpx" xmlns="http://www.topografix.com/GPX/1/1"><trk><trkseg><trkpt lat="42.5529033" lon="3.045035"><ele>5.999999999999999</ele><time>2026-04-05T14:56:28.914Z</time></trkpt><trkpt lat="42.5529717" lon="3.0449767"><ele>6.0</ele><time>2026-04-05T14:56:31.915Z</time></trkpt><trkpt lat="42.5530267" lon="3.0449333"><ele>6.0</ele><time>2026-04-05T14:56:38.915Z</time></trkpt><trkpt lat="42.55309" lon="3.044895"><ele>6.0</ele><time>2026-04-05T14:56:40.915Z</time></trkpt><trkpt lat="42.5531467" lon="3.044825"><ele>6.0</ele><time>2026-04-05T14:56:42.915Z</time></trkpt><trkpt lat="42.5531567" lon="3.044725"><ele>5.999999999999999</ele><time>2026-04-05T14:56:44.915Z</time></trkpt><trkpt lat="42.5531383" lon="3.04464"><ele>6.0</ele><time>2026-04-05T14:56:46.915Z</time></trkpt><trkpt lat="42.553125" lon="3.0445533"><ele>5.8</ele><time>2026-04-05T14:56:48.915Z</time></trkpt><trkpt lat="42.55313" lon="3.0444517"><ele>5.6</ele><time>2026-04-05T14:56:50.914Z</time></trkpt><trkpt lat="42.5531483" lon="3.0443467"><ele>5.4</ele><time>2026-04-05T14:56:52.914Z</time></trkpt><trkpt lat="42.55317" lon="3.0442333"><ele>5.2</ele><time>2026-04-05T14:56:54.915Z</time></trkpt><trkpt lat="42.553195" lon="3.0441033"><ele>5.0</ele><time>2026-04-05T14:56:56.915Z</time></trkpt><trkpt lat="42.5532333" lon="3.0439367"><ele>4.6</ele><time>2026-04-05T14:56:58.915Z</time></trkpt><trkpt lat="42.55326" lon="3.0438467"><ele>4.2</ele><time>2026-04-05T14:56:59.914Z</time></trkpt><trkpt lat="42.5532917" lon="3.04375"><ele>3.8</ele><time>2026-04-05T14:57:00.914Z</time></trkpt><trkpt lat="42.553335" lon="3.0436417"><ele>3.4</ele><time>2026-04-05T14:57:01.915Z</time></trkpt><trkpt lat="42.5534" lon="3.0435317"><ele>3.0</ele><time>2026-04-05T14:57:02.914Z</time></trkpt><trkpt lat="42.5534767" lon="3.04342"><ele>3.0</ele><time>2026-04-05T14:57:03.914Z</time></trkpt><trkpt lat="42.5535617" lon="3.0433217"><ele>3.0</ele><time>2026-04-05T14:57:04.915Z</time></trkpt><trkpt lat="42.5536483" lon="3.0432467"><ele>3.0</ele><time>2026-04-05T14:57:05.915Z</time></trkpt><trkpt lat="42.55374" lon="3.0431933"><ele>3.0</ele><time>2026-04-05T14:57:06.915Z</time></trkpt><trkpt lat="42.5538383" lon="3.0431517"><ele>3.0</ele><time>2026-04-05T14:57:07.915Z</time></trkpt><trkpt lat="42.5539333" lon="3.0431133"><ele>3.1666666666666665</ele><time>2026-04-05T14:57:08.915Z</time></trkpt><trkpt lat="42.5540183" lon="3.0430783"><ele>3.333333333333333</ele><time>2026-04-05T14:57:09.915Z</time></trkpt><trkpt lat="42.554095" lon="3.04305"><ele>3.5</ele><time>2026-04-05T14:57:10.915Z</time></trkpt><trkpt lat="42.55416" lon="3.0430283"><ele>3.6666666666666665</ele><time>2026-04-05T14:57:11.914Z</time></trkpt><trkpt lat="42.554265" lon="3.0430083"><ele>3.833333333333333</ele><time>2026-04-05T14:57:13.915Z</time></trkpt><trkpt lat="42.5543467" lon="3.0429883"><ele>4.0</ele><time>2026-04-05T14:57:15.915Z</time></trkpt><trkpt lat="42.5544433" lon="3.042955"><ele>3.8000000000000003</ele><time>2026-04-05T14:57:17.914Z</time></trkpt><trkpt lat="42.5545583" lon="3.0429067"><ele>3.6000000000000005</ele><time>2026-04-05T14:57:19.915Z</time></trkpt><trkpt lat="42.5546733" lon="3.0428667"><ele>3.4</ele><time>2026-04-05T14:57:21.914Z</time></trkpt><trkpt lat="42.5547483" lon="3.04284"><ele>3.2</ele><time>2026-04-05T14:57:22.915Z</time></trkpt><trkpt lat="42.5548367" lon="3.0428133"><ele>3.0</ele><time>2026-04-05T14:57:23.914Z</time></trkpt><trkpt lat="42.5549333" lon="3.0427833"><ele>3.0</ele><time>2026-04-05T14:57:24.915Z</time></trkpt><trkpt lat="42.5550317" lon="3.0427533"><ele>3.0</ele><time>2026-04-05T14:57:25.914Z</time></trkpt><trkpt lat="42.5551217" lon="3.0427267"><ele>3.0</ele><time>2026-04-05T14:57:26.914Z</time></trkpt><trkpt lat="42.5552067" lon="3.0427017"><ele>3.0</ele><time>2026-04-05T14:57:27.915Z</time></trkpt><trkpt lat="42.555285" lon="3.0426767"><ele>3.0</ele><time>2026-04-05T14:57:28.915Z</time></trkpt><trkpt lat="42.5553567" lon="3.0426583"><ele>3.0</ele><time>2026-04-05T14:57:29.915Z</time></trkpt><trkpt lat="42.5554267" lon="3.04264"><ele>2.9999999999999996</ele><time>2026-04-05T14:57:30.914Z</time></trkpt><trkpt lat="42.5555033" lon="3.042625"><ele>3.0</ele><time>2026-04-05T14:57:31.915Z</time></trkpt><trkpt lat="42.5555783" lon="3.04261"><ele>3.0</ele><time>2026-04-05T14:57:32.915Z</time></trkpt><trkpt lat="42.5556417" lon="3.0425967"><ele>3.0</ele><time>2026-04-05T14:57:33.915Z</time></trkpt><trkpt lat="42.555705" lon="3.0425817"><ele>3.0</ele><time>2026-04-05T14:57:35.914Z</time></trkpt><trkpt lat="42.5557683" lon="3.0425667"><ele>2.9999999999999996</ele><time>2026-04-05T14:57:37.915Z</time></trkpt><trkpt lat="42.55586" lon="3.0425467"><ele>3.0</ele><time>2026-04-05T14:57:39.914Z</time></trkpt><trkpt lat="42.5559733" lon="3.0425133"><ele>3.2</ele><time>2026-04-05T14:57:41.915Z</time></trkpt><trkpt lat="42.5560817" lon="3.0424583"><ele>3.4</ele><time>2026-04-05T14:57:43.915Z</time></trkpt><trkpt lat="42.5561867" lon="3.0424"><ele>3.6000000000000005</ele><time>2026-04-05T14:57:45.915Z</time></trkpt><trkpt lat="42.5562867" lon="3.04235"><ele>3.8000000000000003</ele><time>2026-04-05T14:57:47.915Z</time></trkpt><trkpt lat="42.5563783" lon="3.0423133"><ele>4.0</ele><time>2026-04-05T14:57:49.915Z</time></trkpt><trkpt lat="42.5564583" lon="3.0422783"><ele>4.2</ele><time>2026-04-05T14:57:51.915Z</time></trkpt><trkpt lat="42.5565417" lon="3.0422333"><ele>4.4</ele><time>2026-04-05T14:57:53.915Z</time></trkpt><trkpt lat="42.5566183" lon="3.0421867"><ele>4.6</ele><time>2026-04-05T14:57:55.914Z</time></trkpt><trkpt lat="42.55671" lon="3.042125"><ele>4.8</ele><time>2026-04-05T14:57:57.915Z</time></trkpt><trkpt lat="42.5568333" lon="3.0420667"><ele>5.0</ele><time>2026-04-05T14:57:59.915Z</time></trkpt><trkpt lat="42.55692" lon="3.0420367"><ele>5.0</ele><time>2026-04-05T14:58:01.915Z</time></trkpt><trkpt lat="42.5570217" lon="3.0419967"><ele>5.0</ele><time>2026-04-05T14:58:03.915Z</time></trkpt><trkpt lat="42.5571267" lon="3.0419667"><ele>5.0</ele><time>2026-04-05T14:58:05.914Z</time></trkpt><trkpt lat="42.5572267" lon="3.0419333"><ele>5.0</ele><time>2026-04-05T14:58:07.915Z</time></trkpt><trkpt lat="42.5572917" lon="3.0419167"><ele>5.0</ele><time>2026-04-05T14:58:08.915Z</time></trkpt><trkpt lat="42.5574067" lon="3.0418883"><ele>4.833333333333334</ele><time>2026-04-05T14:58:10.915Z</time></trkpt><trkpt lat="42.55751" lon="3.0418633"><ele>4.666666666666667</ele><time>2026-04-05T14:58:12.914Z</time></trkpt><trkpt lat="42.5576233" lon="3.0418283"><ele>4.5</ele><time>2026-04-05T14:58:14.915Z</time></trkpt><trkpt lat="42.557685" lon="3.0418067"><ele>4.333333333333333</ele><time>2026-04-05T14:58:15.915Z</time></trkpt><trkpt lat="42.55775" lon="3.0417833"><ele>4.166666666666666</ele><time>2026-04-05T14:58:16.915Z</time></trkpt><trkpt lat="42.5578183" lon="3.04176"><ele>4.0</ele><time>2026-04-05T14:58:17.915Z</time></trkpt><trkpt lat="42.5578817" lon="3.041735"><ele>4.0</ele><time>2026-04-05T14:58:18.915Z</time></trkpt><trkpt lat="42.557995" lon="3.0416967"><ele>4.0</ele><time>2026-04-05T14:58:20.915Z</time></trkpt><trkpt lat="42.558105" lon="3.041665"><ele>4.0</ele><time>2026-04-05T14:58:22.914Z</time></trkpt><trkpt lat="42.558205" lon="3.04165"><ele>4.0</ele><time>2026-04-05T14:58:24.915Z</time></trkpt><trkpt lat="42.5582933" lon="3.041635"><ele>4.0</ele><time>2026-04-05T14:58:26.915Z</time></trkpt><trkpt lat="42.5583933" lon="3.04162"><ele>3.6</ele><time>2026-04-05T14:58:28.915Z</time></trkpt><trkpt lat="42.5585" lon="3.0415867"><ele>3.2</ele><time>2026-04-05T14:58:30.915Z</time></trkpt><trkpt lat="42.55862" lon="3.0415617"><ele>2.8000000000000003</ele><time>2026-04-05T14:58:32.914Z</time></trkpt><trkpt lat="42.5586867" lon="3.0415483"><ele>2.4000000000000004</ele><time>2026-04-05T14:58:33.915Z</time></trkpt><trkpt lat="42.5587583" lon="3.0415317"><ele>2.0</ele><time>2026-04-05T14:58:34.915Z</time></trkpt><trkpt lat="42.5588367" lon="3.04151"><ele>2.0</ele><time>2026-04-05T14:58:35.915Z</time></trkpt><trkpt lat="42.5589233" lon="3.0414817"><ele>2.0</ele><time>2026-04-05T14:58:36.915Z</time></trkpt><trkpt lat="42.5590117" lon="3.04146"><ele>2.0</ele><time>2026-04-05T14:58:37.915Z</time></trkpt><trkpt lat="42.559115" lon="3.0414417"><ele>2.0</ele><time>2026-04-05T14:58:38.915Z</time></trkpt><trkpt lat="42.5592083" lon="3.041425"><ele>2.0</ele><time>2026-04-05T14:58:39.915Z</time></trkpt><trkpt lat="42.55929" lon="3.04141"><ele>2.0</ele><time>2026-04-05T14:58:40.915Z</time></trkpt><trkpt lat="42.559405" lon="3.0414017"><ele>2.0</ele><time>2026-04-05T14:58:42.915Z</time></trkpt><trkpt lat="42.559495" lon="3.04142"><ele>2.0</ele><time>2026-04-05T14:58:44.915Z</time></trkpt><trkpt lat="42.559575" lon="3.0413967"><ele>2.0</ele><time>2026-04-05T14:58:46.915Z</time></trkpt><trkpt lat="42.559665" lon="3.0413517"><ele>2.0</ele><time>2026-04-05T14:58:48.915Z</time></trkpt><trkpt lat="42.559785" lon="3.0413283"><ele>2.333333333333333</ele><time>2026-04-05T14:58:50.915Z</time></trkpt><trkpt lat="42.55986" lon="3.0413117"><ele>2.6666666666666665</ele><time>2026-04-05T14:58:51.914Z</time></trkpt><trkpt lat="42.55994" lon="3.0412967"><ele>3.0</ele><time>2026-04-05T14:58:52.915Z</time></trkpt><trkpt lat="42.5600167" lon="3.04128"><ele>3.333333333333333</ele><time>2026-04-05T14:58:53.915Z</time></trkpt><trkpt lat="42.5600967" lon="3.041265"><ele>3.6666666666666665</ele><time>2026-04-05T14:58:54.914Z</time></trkpt><trkpt lat="42.5601783" lon="3.04125"><ele>4.0</ele><time>2026-04-05T14:58:55.914Z</time></trkpt><trkpt lat="42.5602633" lon="3.041235"><ele>4.0</ele><time>2026-04-05T14:58:56.914Z</time></trkpt><trkpt lat="42.56035" lon="3.0412183"><ele>4.0</ele><time>2026-04-05T14:58:57.915Z</time></trkpt><trkpt lat="42.5604367" lon="3.041205"><ele>4.0</ele><time>2026-04-05T14:58:58.914Z</time></trkpt><trkpt lat="42.5605233" lon="3.0411917"><ele>4.0</ele><time>2026-04-05T14:58:59.915Z</time></trkpt><trkpt lat="42.5606183" lon="3.041175"><ele>4.0</ele><time>2026-04-05T14:59:00.914Z</time></trkpt><trkpt lat="42.5607267" lon="3.041155"><ele>4.2</ele><time>2026-04-05T14:59:01.914Z</time></trkpt><trkpt lat="42.5608383" lon="3.04113"><ele>4.4</ele><time>2026-04-05T14:59:02.915Z</time></trkpt><trkpt lat="42.56094" lon="3.0411133"><ele>4.6</ele><time>2026-04-05T14:59:03.915Z</time></trkpt><trkpt lat="42.5610433" lon="3.0411033"><ele>4.8</ele><time>2026-04-05T14:59:04.915Z</time></trkpt><trkpt lat="42.5611517" lon="3.0410883"><ele>5.0</ele><time>2026-04-05T14:59:05.914Z</time></trkpt><trkpt lat="42.5612683" lon="3.0410683"><ele>4.333333333333334</ele><time>2026-04-05T14:59:06.915Z</time></trkpt><trkpt lat="42.5613867" lon="3.0410533"><ele>3.666666666666667</ele><time>2026-04-05T14:59:07.915Z</time></trkpt><trkpt lat="42.56151" lon="3.0410417"><ele>3.0</ele><time>2026-04-05T14:59:08.915Z</time></trkpt><trkpt lat="42.5618767" lon="3.040985"><ele>3.0</ele><time>2026-04-05T14:59:11.915Z</time></trkpt><trkpt lat="42.561995" lon="3.0409633"><ele>3.0</ele><time>2026-04-05T14:59:12.915Z</time></trkpt><trkpt lat="42.5621083" lon="3.0409467"><ele>3.0</ele><time>2026-04-05T14:59:13.915Z</time></trkpt><trkpt lat="42.5622217" lon="3.040925"><ele>3.0</ele><time>2026-04-05T14:59:14.915Z</time></trkpt><trkpt lat="42.5623333" lon="3.040905"><ele>3.25</ele><time>2026-04-05T14:59:15.915Z</time></trkpt><trkpt lat="42.5624517" lon="3.0408917"><ele>3.5</ele><time>2026-04-05T14:59:16.914Z</time></trkpt><trkpt lat="42.56257" lon="3.0408933"><ele>3.75</ele><time>2026-04-05T14:59:17.915Z</time></trkpt><trkpt lat="42.562685" lon="3.0409033"><ele>4.0</ele><time>2026-04-05T14:59:18.915Z</time></trkpt><trkpt lat="42.5627917" lon="3.0409167"><ele>4.2</ele><time>2026-04-05T14:59:19.915Z</time></trkpt><trkpt lat="42.5628983" lon="3.04093"><ele>4.4</ele><time>2026-04-05T14:59:20.914Z</time></trkpt><trkpt lat="42.5630017" lon="3.0409467"><ele>4.6</ele><time>2026-04-05T14:59:21.914Z</time></trkpt><trkpt lat="42.5631017" lon="3.0409633"><ele>4.8</ele><time>2026-04-05T14:59:22.915Z</time></trkpt><trkpt lat="42.5632167" lon="3.0409717"><ele>5.0</ele><time>2026-04-05T14:59:23.915Z</time></trkpt><trkpt lat="42.56333" lon="3.0409817"><ele>5.0</ele><time>2026-04-05T14:59:24.915Z</time></trkpt><trkpt lat="42.56343" lon="3.0409983"><ele>5.0</ele><time>2026-04-05T14:59:25.914Z</time></trkpt><trkpt lat="42.563505" lon="3.0410117"><ele>5.0</ele><time>2026-04-05T14:59:26.915Z</time></trkpt><trkpt lat="42.5636117" lon="3.0410217"><ele>5.0</ele><time>2026-04-05T14:59:28.915Z</time></trkpt><trkpt lat="42.5636967" lon="3.0410467"><ele>5.0</ele><time>2026-04-05T14:59:30.914Z</time></trkpt><trkpt lat="42.563785" lon="3.0411133"><ele>4.4</ele><time>2026-04-05T14:59:32.915Z</time></trkpt><trkpt lat="42.5638717" lon="3.0411767"><ele>3.8</ele><time>2026-04-05T14:59:34.914Z</time></trkpt><trkpt lat="42.5639783" lon="3.0411783"><ele>3.2</ele><time>2026-04-05T14:59:36.915Z</time></trkpt><trkpt lat="42.5640533" lon="3.0411617"><ele>2.6</ele><time>2026-04-05T14:59:37.915Z</time></trkpt><trkpt lat="42.5641517" lon="3.041155"><ele>2.0</ele><time>2026-04-05T14:59:38.915Z</time></trkpt><trkpt lat="42.5642667" lon="3.0411667"><ele>2.0</ele><time>2026-04-05T14:59:39.915Z</time></trkpt><trkpt lat="42.5643867" lon="3.041185"><ele>2.0</ele><time>2026-04-05T14:59:40.914Z</time></trkpt><trkpt lat="42.5645117" lon="3.0412017"><ele>2.0</ele><time>2026-04-05T14:59:41.915Z</time></trkpt><trkpt lat="42.5646417" lon="3.0412233"><ele>2.0</ele><time>2026-04-05T14:59:42.914Z</time></trkpt><trkpt lat="42.5647667" lon="3.0412417"><ele>2.25</ele><time>2026-04-05T14:59:43.915Z</time></trkpt><trkpt lat="42.5648867" lon="3.0412567"><ele>2.5</ele><time>2026-04-05T14:59:44.915Z</time></trkpt><trkpt lat="42.5650033" lon="3.0412683"><ele>2.75</ele><time>2026-04-05T14:59:45.915Z</time></trkpt><trkpt lat="42.5651133" lon="3.041275"><ele>3.0</ele><time>2026-04-05T14:59:46.915Z</time></trkpt><trkpt lat="42.5652317" lon="3.0412817"><ele>3.0</ele><time>2026-04-05T14:59:47.914Z</time></trkpt><trkpt lat="42.5653617" lon="3.04129"><ele>3.0</ele><time>2026-04-05T14:59:48.915Z</time></trkpt><trkpt lat="42.5655067" lon="3.0412983"><ele>3.0</ele><time>2026-04-05T14:59:49.915Z</time></trkpt><trkpt lat="42.565655" lon="3.04131"><ele>3.0</ele><time>2026-04-05T14:59:50.915Z</time></trkpt><trkpt lat="42.5658067" lon="3.0413217"><ele>3.0</ele><time>2026-04-05T14:59:51.915Z</time></trkpt><trkpt lat="42.56595" lon="3.0413267"><ele>3.0</ele><time>2026-04-05T14:59:52.915Z</time></trkpt><trkpt lat="42.5660783" lon="3.0413317"><ele>3.0</ele><time>2026-04-05T14:59:53.915Z</time></trkpt><trkpt lat="42.5661833" lon="3.0413367"><ele>3.0</ele><time>2026-04-05T14:59:54.914Z</time></trkpt><trkpt lat="42.5662733" lon="3.04134"><ele>3.0</ele><time>2026-04-05T14:59:55.914Z</time></trkpt><trkpt lat="42.56635" lon="3.0413433"><ele>3.0</ele><time>2026-04-05T14:59:56.914Z</time></trkpt><trkpt lat="42.5664167" lon="3.0413433"><ele>3.0</ele><time>2026-04-05T14:59:57.915Z</time></trkpt><trkpt lat="42.56652" lon="3.0413417"><ele>3.0</ele><time>2026-04-05T14:59:59.915Z</time></trkpt><trkpt lat="42.5666167" lon="3.0413367"><ele>3.0</ele><time>2026-04-05T15:00:01.914Z</time></trkpt><trkpt lat="42.566745" lon="3.04134"><ele>3.0</ele><time>2026-04-05T15:00:03.915Z</time></trkpt><trkpt lat="42.566825" lon="3.0413417"><ele>3.0</ele><time>2026-04-05T15:00:04.915Z</time></trkpt><trkpt lat="42.5669183" lon="3.0413383"><ele>3.0</ele><time>2026-04-05T15:00:05.915Z</time></trkpt><trkpt lat="42.567025" lon="3.041335"><ele>3.0</ele><time>2026-04-05T15:00:06.915Z</time></trkpt><trkpt lat="42.5671417" lon="3.0413383"><ele>3.0</ele><time>2026-04-05T15:00:07.915Z</time></trkpt><trkpt lat="42.567275" lon="3.0413433"><ele>3.0</ele><time>2026-04-05T15:00:08.914Z</time></trkpt><trkpt lat="42.56742" lon="3.0413433"><ele>3.0</ele><time>2026-04-05T15:00:09.915Z</time></trkpt><trkpt lat="42.5675733" lon="3.041335"><ele>3.0</ele><time>2026-04-05T15:00:10.914Z</time></trkpt><trkpt lat="42.5677333" lon="3.0413233"><ele>2.0</ele><time>2026-04-05T15:00:11.915Z</time></trkpt><trkpt lat="42.5679" lon="3.0413167"><ele>1.0</ele><time>2026-04-05T15:00:12.915Z</time></trkpt><trkpt lat="42.5680733" lon="3.0413117"><ele>0.0</ele><time>2026-04-05T15:00:13.915Z</time></trkpt><trkpt lat="42.568255" lon="3.0413083"><ele>0.0</ele><time>2026-04-05T15:00:14.915Z</time></trkpt><trkpt lat="42.5684383" lon="3.0413"><ele>0.0</ele><time>2026-04-05T15:00:15.915Z</time></trkpt><trkpt lat="42.5689483" lon="3.04125"><ele>0.6666666666666666</ele><time>2026-04-05T15:00:18.915Z</time></trkpt><trkpt lat="42.5691067" lon="3.0412233"><ele>1.3333333333333333</ele><time>2026-04-05T15:00:19.914Z</time></trkpt><trkpt lat="42.569255" lon="3.041195"><ele>2.0</ele><time>2026-04-05T15:00:20.915Z</time></trkpt><trkpt lat="42.569395" lon="3.0411633"><ele>2.6666666666666665</ele><time>2026-04-05T15:00:21.915Z</time></trkpt><trkpt lat="42.56966" lon="3.0411117"><ele>3.333333333333333</ele><time>2026-04-05T15:00:23.914Z</time></trkpt><trkpt lat="42.5697917" lon="3.0410683"><ele>4.0</ele><time>2026-04-05T15:00:24.915Z</time></trkpt><trkpt lat="42.5699233" lon="3.0410217"><ele>4.0</ele><time>2026-04-05T15:00:25.915Z</time></trkpt><trkpt lat="42.5700533" lon="3.0409783"><ele>4.0</ele><time>2026-04-05T15:00:26.914Z</time></trkpt><trkpt lat="42.5701867" lon="3.0409283"><ele>4.0</ele><time>2026-04-05T15:00:27.915Z</time></trkpt><trkpt lat="42.5704683" lon="3.0408117"><ele>3.333333333333333</ele><time>2026-04-05T15:00:29.915Z</time></trkpt><trkpt lat="42.5706217" lon="3.04074"><ele>2.6666666666666665</ele><time>2026-04-05T15:00:30.915Z</time></trkpt><trkpt lat="42.5707783" lon="3.04066"><ele>2.0</ele><time>2026-04-05T15:00:31.915Z</time></trkpt><trkpt lat="42.57093" lon="3.040575"><ele>2.0</ele><time>2026-04-05T15:00:32.915Z</time></trkpt><trkpt lat="42.5710683" lon="3.0404933"><ele>2.0</ele><time>2026-04-05T15:00:33.915Z</time></trkpt><trkpt lat="42.5711983" lon="3.04041"><ele>2.0</ele><time>2026-04-05T15:00:34.914Z</time></trkpt><trkpt lat="42.57132" lon="3.0403283"><ele>2.0</ele><time>2026-04-05T15:00:35.915Z</time></trkpt><trkpt lat="42.5714367" lon="3.04025"><ele>2.0</ele><time>2026-04-05T15:00:36.915Z</time></trkpt><trkpt lat="42.5715433" lon="3.0401767"><ele>2.0</ele><time>2026-04-05T15:00:37.915Z</time></trkpt><trkpt lat="42.57165" lon="3.0400967"><ele>2.0</ele><time>2026-04-05T15:00:38.915Z</time></trkpt><trkpt lat="42.5717617" lon="3.0400133"><ele>2.0</ele><time>2026-04-05T15:00:39.915Z</time></trkpt><trkpt lat="42.5718767" lon="3.0399233"><ele>1.75</ele><time>2026-04-05T15:00:40.914Z</time></trkpt><trkpt lat="42.5719883" lon="3.0398333"><ele>1.5</ele><time>2026-04-05T15:00:41.915Z</time></trkpt><trkpt lat="42.5720867" lon="3.0397483"><ele>1.25</ele><time>2026-04-05T15:00:42.915Z</time></trkpt><trkpt lat="42.57218" lon="3.0396683"><ele>1.0</ele><time>2026-04-05T15:00:43.915Z</time></trkpt><trkpt lat="42.5722733" lon="3.0395867"><ele>1.0</ele><time>2026-04-05T15:00:44.915Z</time></trkpt><trkpt lat="42.5723683" lon="3.0395067"><ele>1.0</ele><time>2026-04-05T15:00:45.915Z</time></trkpt><trkpt lat="42.57247" lon="3.039415"><ele>1.0</ele><time>2026-04-05T15:00:46.915Z</time></trkpt><trkpt lat="42.5725767" lon="3.0393067"><ele>1.0</ele><time>2026-04-05T15:00:47.914Z</time></trkpt><trkpt lat="42.5726883" lon="3.0391883"><ele>1.0</ele><time>2026-04-05T15:00:48.915Z</time></trkpt><trkpt lat="42.5728033" lon="3.0390617"><ele>1.0</ele><time>2026-04-05T15:00:49.915Z</time></trkpt><trkpt lat="42.572915" lon="3.03893"><ele>1.0</ele><time>2026-04-05T15:00:50.915Z</time></trkpt><trkpt lat="42.5730233" lon="3.0387983"><ele>1.0</ele><time>2026-04-05T15:00:51.914Z</time></trkpt><trkpt lat="42.57313" lon="3.0386683"><ele>1.0</ele><time>2026-04-05T15:00:52.915Z</time></trkpt><trkpt lat="42.57323" lon="3.0385367"><ele>1.0</ele><time>2026-04-05T15:00:53.914Z</time></trkpt><trkpt lat="42.5733217" lon="3.0384033"><ele>1.0</ele><time>2026-04-05T15:00:54.915Z</time></trkpt><trkpt lat="42.5734183" lon="3.0382483"><ele>1.0</ele><time>2026-04-05T15:00:55.916Z</time></trkpt><trkpt lat="42.5735217" lon="3.0380867"><ele>1.0</ele><time>2026-04-05T15:00:56.916Z</time></trkpt><trkpt lat="42.5736333" lon="3.0379217"><ele>1.0</ele><time>2026-04-05T15:00:57.915Z</time></trkpt><trkpt lat="42.5737483" lon="3.03775"><ele>1.0</ele><time>2026-04-05T15:00:58.916Z</time></trkpt><trkpt lat="42.5738617" lon="3.037565"><ele>1.0</ele><time>2026-04-05T15:00:59.916Z</time></trkpt><trkpt lat="42.5739633" lon="3.0373883"><ele>1.0</ele><time>2026-04-05T15:01:00.915Z</time></trkpt><trkpt lat="42.5740567" lon="3.0372167"><ele>1.0</ele><time>2026-04-05T15:01:01.915Z</time></trkpt><trkpt lat="42.5741433" lon="3.037055"><ele>1.0</ele><time>2026-04-05T15:01:02.916Z</time></trkpt><trkpt lat="42.5742267" lon="3.036895"><ele>1.0</ele><time>2026-04-05T15:01:03.916Z</time></trkpt><trkpt lat="42.5743117" lon="3.0367367"><ele>1.0</ele><time>2026-04-05T15:01:04.916Z</time></trkpt><trkpt lat="42.5743983" lon="3.03657"><ele>1.0</ele><time>2026-04-05T15:01:05.915Z</time></trkpt><trkpt lat="42.57449" lon="3.0363983"><ele>1.3333333333333333</ele><time>2026-04-05T15:01:06.916Z</time></trkpt><trkpt lat="42.574585" lon="3.0362133"><ele>1.6666666666666665</ele><time>2026-04-05T15:01:07.916Z</time></trkpt><trkpt lat="42.574685" lon="3.036035"><ele>2.0</ele><time>2026-04-05T15:01:08.916Z</time></trkpt><trkpt lat="42.5747833" lon="3.03587"><ele>2.25</ele><time>2026-04-05T15:01:09.916Z</time></trkpt><trkpt lat="42.5748733" lon="3.0357317"><ele>2.5</ele><time>2026-04-05T15:01:10.916Z</time></trkpt><trkpt lat="42.5749567" lon="3.0356167"><ele>2.75</ele><time>2026-04-05T15:01:11.916Z</time></trkpt><trkpt lat="42.5750333" lon="3.0355183"><ele>3.0</ele><time>2026-04-05T15:01:12.916Z</time></trkpt><trkpt lat="42.5751117" lon="3.03543"><ele>3.0</ele><time>2026-04-05T15:01:13.915Z</time></trkpt><trkpt lat="42.575185" lon="3.0353467"><ele>3.0</ele><time>2026-04-05T15:01:14.916Z</time></trkpt><trkpt lat="42.5752533" lon="3.0352683"><ele>3.0</ele><time>2026-04-05T15:01:15.916Z</time></trkpt><trkpt lat="42.57544" lon="3.0350733"><ele>3.0</ele><time>2026-04-05T15:01:18.916Z</time></trkpt><trkpt lat="42.5754917" lon="3.0350233"><ele>2.6</ele><time>2026-04-05T15:01:19.916Z</time></trkpt><trkpt lat="42.5755683" lon="3.0349467"><ele>2.1999999999999997</ele><time>2026-04-05T15:01:21.916Z</time></trkpt><trkpt lat="42.575635" lon="3.0348883"><ele>1.8</ele><time>2026-04-05T15:01:24.916Z</time></trkpt><trkpt lat="42.5757317" lon="3.0348683"><ele>1.4</ele><time>2026-04-05T15:01:27.916Z</time></trkpt><trkpt lat="42.5758433" lon="3.03486"><ele>1.0</ele><time>2026-04-05T15:01:29.915Z</time></trkpt><trkpt lat="42.5759567" lon="3.03479"><ele>1.0</ele><time>2026-04-05T15:01:31.916Z</time></trkpt><trkpt lat="42.5760267" lon="3.0346517"><ele>1.0</ele><time>2026-04-05T15:01:33.916Z</time></trkpt><trkpt lat="42.5760583" lon="3.0345683"><ele>1.0</ele><time>2026-04-05T15:01:34.916Z</time></trkpt><trkpt lat="42.5761033" lon="3.0344817"><ele>1.0</ele><time>2026-04-05T15:01:35.916Z</time></trkpt><trkpt lat="42.5761717" lon="3.0344"><ele>1.0</ele><time>2026-04-05T15:01:36.916Z</time></trkpt><trkpt lat="42.5762567" lon="3.0343167"><ele>1.0</ele><time>2026-04-05T15:01:37.915Z</time></trkpt><trkpt lat="42.5763567" lon="3.0342283"><ele>1.0</ele><time>2026-04-05T15:01:38.916Z</time></trkpt><trkpt lat="42.5764683" lon="3.034135"><ele>1.0</ele><time>2026-04-05T15:01:39.916Z</time></trkpt><trkpt lat="42.5765967" lon="3.0340417"><ele>1.0</ele><time>2026-04-05T15:01:40.916Z</time></trkpt><trkpt lat="42.576735" lon="3.0339583"><ele>1.0</ele><time>2026-04-05T15:01:41.915Z</time></trkpt><trkpt lat="42.5768867" lon="3.0338867"><ele>1.0</ele><time>2026-04-05T15:01:42.915Z</time></trkpt><trkpt lat="42.5770433" lon="3.0338183"><ele>1.0</ele><time>2026-04-05T15:01:43.916Z</time></trkpt><trkpt lat="42.5771983" lon="3.033755"><ele>0.6666666666666666</ele><time>2026-04-05T15:01:44.916Z</time></trkpt><trkpt lat="42.57735" lon="3.0336917"><ele>0.3333333333333333</ele><time>2026-04-05T15:01:45.916Z</time></trkpt><trkpt lat="42.577505" lon="3.033625"><ele>0.0</ele><time>2026-04-05T15:01:46.915Z</time></trkpt><trkpt lat="42.5776667" lon="3.033555"><ele>0.0</ele><time>2026-04-05T15:01:47.916Z</time></trkpt><trkpt lat="42.5778367" lon="3.03349"><ele>0.0</ele><time>2026-04-05T15:01:48.915Z</time></trkpt><trkpt lat="42.5780133" lon="3.0334217"><ele>0.0</ele><time>2026-04-05T15:01:49.916Z</time></trkpt><trkpt lat="42.5781917" lon="3.033355"><ele>0.3333333333333333</ele><time>2026-04-05T15:01:50.916Z</time></trkpt><trkpt lat="42.578375" lon="3.03329"><ele>0.6666666666666666</ele><time>2026-04-05T15:01:51.916Z</time></trkpt><trkpt lat="42.578565" lon="3.03322"><ele>1.0</ele><time>2026-04-05T15:01:52.916Z</time></trkpt><trkpt lat="42.5787583" lon="3.0331483"><ele>1.6666666666666665</ele><time>2026-04-05T15:01:53.915Z</time></trkpt><trkpt lat="42.5789533" lon="3.033075"><ele>2.3333333333333335</ele><time>2026-04-05T15:01:54.916Z</time></trkpt><trkpt lat="42.5791533" lon="3.0330017"><ele>3.0</ele><time>2026-04-05T15:01:55.916Z</time></trkpt><trkpt lat="42.5793583" lon="3.0329283"><ele>3.0</ele><time>2026-04-05T15:01:56.916Z</time></trkpt><trkpt lat="42.5795667" lon="3.0328617"><ele>3.0</ele><time>2026-04-05T15:01:57.916Z</time></trkpt><trkpt lat="42.5797817" lon="3.032805"><ele>3.0</ele><time>2026-04-05T15:01:58.916Z</time></trkpt><trkpt lat="42.5799967" lon="3.0327633"><ele>3.0</ele><time>2026-04-05T15:01:59.916Z</time></trkpt><trkpt lat="42.5802033" lon="3.0327367"><ele>3.0</ele><time>2026-04-05T15:02:00.916Z</time></trkpt><trkpt lat="42.580405" lon="3.03272"><ele>3.0</ele><time>2026-04-05T15:02:01.916Z</time></trkpt><trkpt lat="42.5806033" lon="3.03271"><ele>3.0</ele><time>2026-04-05T15:02:02.916Z</time></trkpt><trkpt lat="42.5808" lon="3.0327"><ele>3.0</ele><time>2026-04-05T15:02:03.915Z</time></trkpt><trkpt lat="42.5809983" lon="3.0326867"><ele>3.0</ele><time>2026-04-05T15:02:04.916Z</time></trkpt><trkpt lat="42.581195" lon="3.0326733"><ele>3.0</ele><time>2026-04-05T15:02:05.916Z</time></trkpt><trkpt lat="42.58139" lon="3.032655"><ele>3.0</ele><time>2026-04-05T15:02:06.916Z</time></trkpt><trkpt lat="42.5815833" lon="3.03263"><ele>3.0</ele><time>2026-04-05T15:02:07.916Z</time></trkpt><trkpt lat="42.5817717" lon="3.0326017"><ele>3.0</ele><time>2026-04-05T15:02:08.916Z</time></trkpt><trkpt lat="42.58195" lon="3.0325583"><ele>3.0</ele><time>2026-04-05T15:02:09.915Z</time></trkpt><trkpt lat="42.5821183" lon="3.0325033"><ele>3.0</ele><time>2026-04-05T15:02:10.916Z</time></trkpt><trkpt lat="42.582285" lon="3.03244"><ele>2.6666666666666665</ele><time>2026-04-05T15:02:11.916Z</time></trkpt><trkpt lat="42.582445" lon="3.0323633"><ele>2.333333333333333</ele><time>2026-04-05T15:02:12.916Z</time></trkpt><trkpt lat="42.582605" lon="3.03228"><ele>2.0</ele><time>2026-04-05T15:02:13.916Z</time></trkpt><trkpt lat="42.5827617" lon="3.0321883"><ele>2.0</ele><time>2026-04-05T15:02:14.916Z</time></trkpt><trkpt lat="42.5829183" lon="3.0320933"><ele>2.0</ele><time>2026-04-05T15:02:15.916Z</time></trkpt><trkpt lat="42.58308" lon="3.0319917"><ele>2.0</ele><time>2026-04-05T15:02:16.916Z</time></trkpt><trkpt lat="42.5832433" lon="3.0318867"><ele>2.0</ele><time>2026-04-05T15:02:17.916Z</time></trkpt><trkpt lat="42.5834083" lon="3.03178"><ele>2.0</ele><time>2026-04-05T15:02:18.916Z</time></trkpt><trkpt lat="42.583575" lon="3.0316733"><ele>2.0</ele><time>2026-04-05T15:02:19.916Z</time></trkpt><trkpt lat="42.5837433" lon="3.031565"><ele>2.0</ele><time>2026-04-05T15:02:20.916Z</time></trkpt><trkpt lat="42.583915" lon="3.0314567"><ele>2.0</ele><time>2026-04-05T15:02:21.916Z</time></trkpt><trkpt lat="42.584085" lon="3.0313467"><ele>2.0</ele><time>2026-04-05T15:02:22.916Z</time></trkpt><trkpt lat="42.5842583" lon="3.0312367"><ele>2.0</ele><time>2026-04-05T15:02:23.916Z</time></trkpt><trkpt lat="42.5844317" lon="3.0311283"><ele>2.0</ele><time>2026-04-05T15:02:24.916Z</time></trkpt><trkpt lat="42.5846067" lon="3.0310183"><ele>2.0</ele><time>2026-04-05T15:02:25.916Z</time></trkpt><trkpt lat="42.5847833" lon="3.0309117"><ele>2.0</ele><time>2026-04-05T15:02:26.916Z</time></trkpt><trkpt lat="42.5849617" lon="3.0308017"><ele>2.0</ele><time>2026-04-05T15:02:27.916Z</time></trkpt><trkpt lat="42.5851417" lon="3.0306833"><ele>2.0</ele><time>2026-04-05T15:02:28.916Z</time></trkpt><trkpt lat="42.5853233" lon="3.03056"><ele>2.0</ele><time>2026-04-05T15:02:29.916Z</time></trkpt><trkpt lat="42.5855083" lon="3.0304367"><ele>2.0</ele><time>2026-04-05T15:02:30.916Z</time></trkpt><trkpt lat="42.5856967" lon="3.0303133"><ele>2.0</ele><time>2026-04-05T15:02:31.916Z</time></trkpt><trkpt lat="42.5858867" lon="3.03019"><ele>2.0</ele><time>2026-04-05T15:02:32.916Z</time></trkpt><trkpt lat="42.58608" lon="3.0300633"><ele>2.0</ele><time>2026-04-05T15:02:33.915Z</time></trkpt><trkpt lat="42.586275" lon="3.0299383"><ele>2.0</ele><time>2026-04-05T15:02:34.916Z</time></trkpt><trkpt lat="42.5864717" lon="3.029815"><ele>2.333333333333333</ele><time>2026-04-05T15:02:35.916Z</time></trkpt><trkpt lat="42.5866667" lon="3.0296933"><ele>2.6666666666666665</ele><time>2026-04-05T15:02:36.916Z</time></trkpt><trkpt lat="42.586855" lon="3.029575"><ele>3.0</ele><time>2026-04-05T15:02:37.916Z</time></trkpt><trkpt lat="42.5870383" lon="3.0294567"><ele>3.0</ele><time>2026-04-05T15:02:38.916Z</time></trkpt><trkpt lat="42.58722" lon="3.0293417"><ele>3.0</ele><time>2026-04-05T15:02:39.916Z</time></trkpt><trkpt lat="42.5873917" lon="3.0292283"><ele>3.0</ele><time>2026-04-05T15:02:40.916Z</time></trkpt><trkpt lat="42.58756" lon="3.02912"><ele>3.0</ele><time>2026-04-05T15:02:41.915Z</time></trkpt><trkpt lat="42.5877267" lon="3.0290133"><ele>3.0</ele><time>2026-04-05T15:02:42.915Z</time></trkpt><trkpt lat="42.5878933" lon="3.0289033"><ele>3.0</ele><time>2026-04-05T15:02:43.916Z</time></trkpt><trkpt lat="42.5880583" lon="3.0287883"><ele>2.6666666666666665</ele><time>2026-04-05T15:02:44.916Z</time></trkpt><trkpt lat="42.5882183" lon="3.028665"><ele>2.333333333333333</ele><time>2026-04-05T15:02:45.916Z</time></trkpt><trkpt lat="42.5883767" lon="3.0285333"><ele>2.0</ele><time>2026-04-05T15:02:46.916Z</time></trkpt><trkpt lat="42.5885267" lon="3.0283867"><ele>2.0</ele><time>2026-04-05T15:02:47.916Z</time></trkpt><trkpt lat="42.58867" lon="3.0282383"><ele>2.0</ele><time>2026-04-05T15:02:48.916Z</time></trkpt><trkpt lat="42.5888083" lon="3.0280917"><ele>2.0</ele><time>2026-04-05T15:02:49.915Z</time></trkpt><trkpt lat="42.588965" lon="3.0279733"><ele>2.333333333333333</ele><time>2026-04-05T15:02:50.916Z</time></trkpt><trkpt lat="42.5890967" lon="3.0278333"><ele>2.6666666666666665</ele><time>2026-04-05T15:02:51.916Z</time></trkpt><trkpt lat="42.5892233" lon="3.0276983"><ele>3.0</ele><time>2026-04-05T15:02:52.916Z</time></trkpt><trkpt lat="42.5893517" lon="3.0275633"><ele>3.0</ele><time>2026-04-05T15:02:53.916Z</time></trkpt><trkpt lat="42.5894783" lon="3.0274317"><ele>3.0</ele><time>2026-04-05T15:02:54.916Z</time></trkpt><trkpt lat="42.5896083" lon="3.0272983"><ele>3.0</ele><time>2026-04-05T15:02:55.915Z</time></trkpt><trkpt lat="42.5897383" lon="3.02716"><ele>2.6666666666666665</ele><time>2026-04-05T15:02:56.915Z</time></trkpt><trkpt lat="42.58987" lon="3.02702"><ele>2.333333333333333</ele><time>2026-04-05T15:02:57.916Z</time></trkpt><trkpt lat="42.5900083" lon="3.0268767"><ele>2.0</ele><time>2026-04-05T15:02:58.915Z</time></trkpt><trkpt lat="42.59015" lon="3.0267317"><ele>2.0</ele><time>2026-04-05T15:02:59.916Z</time></trkpt><trkpt lat="42.5902967" lon="3.02659"><ele>2.0</ele><time>2026-04-05T15:03:00.916Z</time></trkpt><trkpt lat="42.590445" lon="3.0264533"><ele>2.0</ele><time>2026-04-05T15:03:01.915Z</time></trkpt><trkpt lat="42.5905967" lon="3.0263233"><ele>2.0</ele><time>2026-04-05T15:03:02.916Z</time></trkpt><trkpt lat="42.590755" lon="3.0261967"><ele>2.0</ele><time>2026-04-05T15:03:03.916Z</time></trkpt><trkpt lat="42.5909183" lon="3.0260767"><ele>2.0</ele><time>2026-04-05T15:03:04.916Z</time></trkpt><trkpt lat="42.59109" lon="3.0259683"><ele>2.333333333333333</ele><time>2026-04-05T15:03:05.916Z</time></trkpt><trkpt lat="42.5912667" lon="3.0258667"><ele>2.6666666666666665</ele><time>2026-04-05T15:03:06.916Z</time></trkpt><trkpt lat="42.59145" lon="3.025775"><ele>3.0</ele><time>2026-04-05T15:03:07.915Z</time></trkpt><trkpt lat="42.59164" lon="3.02569"><ele>3.0</ele><time>2026-04-05T15:03:08.915Z</time></trkpt><trkpt lat="42.591835" lon="3.0256133"><ele>3.0</ele><time>2026-04-05T15:03:09.916Z</time></trkpt><trkpt lat="42.592035" lon="3.0255517"><ele>3.0</ele><time>2026-04-05T15:03:10.916Z</time></trkpt><trkpt lat="42.59224" lon="3.025505"><ele>3.0</ele><time>2026-04-05T15:03:11.916Z</time></trkpt><trkpt lat="42.5924517" lon="3.0254683"><ele>3.0</ele><time>2026-04-05T15:03:12.916Z</time></trkpt><trkpt lat="42.592665" lon="3.025435"><ele>3.0</ele><time>2026-04-05T15:03:13.916Z</time></trkpt><trkpt lat="42.5928817" lon="3.0254"><ele>4.0</ele><time>2026-04-05T15:03:14.916Z</time></trkpt><trkpt lat="42.5931017" lon="3.025365"><ele>5.0</ele><time>2026-04-05T15:03:15.916Z</time></trkpt><trkpt lat="42.5935483" lon="3.0252933"><ele>5.0</ele><time>2026-04-05T15:03:17.916Z</time></trkpt><trkpt lat="42.5937733" lon="3.0252583"><ele>5.0</ele><time>2026-04-05T15:03:18.916Z</time></trkpt><trkpt lat="42.5939917" lon="3.025225"><ele>5.0</ele><time>2026-04-05T15:03:19.915Z</time></trkpt><trkpt lat="42.5942083" lon="3.0251917"><ele>5.0</ele><time>2026-04-05T15:03:20.915Z</time></trkpt><trkpt lat="42.5944183" lon="3.0251617"><ele>5.0</ele><time>2026-04-05T15:03:21.916Z</time></trkpt><trkpt lat="42.5946183" lon="3.025135"><ele>5.0</ele><time>2026-04-05T15:03:22.916Z</time></trkpt><trkpt lat="42.5948033" lon="3.0251117"><ele>4.333333333333334</ele><time>2026-04-05T15:03:23.916Z</time></trkpt><trkpt lat="42.594975" lon="3.0250883"><ele>3.666666666666667</ele><time>2026-04-05T15:03:24.916Z</time></trkpt><trkpt lat="42.5951283" lon="3.025065"><ele>3.0</ele><time>2026-04-05T15:03:25.915Z</time></trkpt><trkpt lat="42.59526" lon="3.025045"><ele>2.8</ele><time>2026-04-05T15:03:26.916Z</time></trkpt><trkpt lat="42.595375" lon="3.0250317"><ele>2.5999999999999996</ele><time>2026-04-05T15:03:27.916Z</time></trkpt><trkpt lat="42.595475" lon="3.0250267"><ele>2.4000000000000004</ele><time>2026-04-05T15:03:28.916Z</time></trkpt><trkpt lat="42.595575" lon="3.02504"><ele>2.2</ele><time>2026-04-05T15:03:29.916Z</time></trkpt><trkpt lat="42.59566" lon="3.0250417"><ele>2.0</ele><time>2026-04-05T15:03:30.916Z</time></trkpt><trkpt lat="42.5957367" lon="3.0250483"><ele>2.0</ele><time>2026-04-05T15:03:31.915Z</time></trkpt><trkpt lat="42.5958067" lon="3.0250617"><ele>1.9999999999999998</ele><time>2026-04-05T15:03:32.915Z</time></trkpt><trkpt lat="42.59587" lon="3.025085"><ele>2.0</ele><time>2026-04-05T15:03:33.916Z</time></trkpt><trkpt lat="42.5959333" lon="3.0251267"><ele>2.0</ele><time>2026-04-05T15:03:34.915Z</time></trkpt><trkpt lat="42.5959933" lon="3.0251933"><ele>1.9999999999999998</ele><time>2026-04-05T15:03:35.916Z</time></trkpt><trkpt lat="42.5960583" lon="3.0252583"><ele>2.0</ele><time>2026-04-05T15:03:36.916Z</time></trkpt><trkpt lat="42.5961267" lon="3.025305"><ele>2.0</ele><time>2026-04-05T15:03:37.916Z</time></trkpt><trkpt lat="42.596195" lon="3.0253233"><ele>1.9999999999999998</ele><time>2026-04-05T15:03:38.916Z</time></trkpt><trkpt lat="42.5962683" lon="3.0253117"><ele>2.0</ele><time>2026-04-05T15:03:39.916Z</time></trkpt><trkpt lat="42.5963417" lon="3.0252617"><ele>2.0</ele><time>2026-04-05T15:03:40.915Z</time></trkpt><trkpt lat="42.5964017" lon="3.0251883"><ele>2.0</ele><time>2026-04-05T15:03:41.916Z</time></trkpt><trkpt lat="42.5964633" lon="3.0251"><ele>1.9999999999999998</ele><time>2026-04-05T15:03:42.915Z</time></trkpt><trkpt lat="42.5965417" lon="3.02501"><ele>2.0</ele><time>2026-04-05T15:03:43.916Z</time></trkpt><trkpt lat="42.596645" lon="3.0249433"><ele>2.5</ele><time>2026-04-05T15:03:44.916Z</time></trkpt><trkpt lat="42.5967667" lon="3.024895"><ele>3.0</ele><time>2026-04-05T15:03:45.916Z</time></trkpt><trkpt lat="42.5969033" lon="3.0248567"><ele>3.5</ele><time>2026-04-05T15:03:46.916Z</time></trkpt><trkpt lat="42.5970517" lon="3.024825"><ele>4.0</ele><time>2026-04-05T15:03:47.916Z</time></trkpt><trkpt lat="42.5972117" lon="3.0247983"><ele>4.333333333333333</ele><time>2026-04-05T15:03:48.916Z</time></trkpt><trkpt lat="42.59738" lon="3.0247733"><ele>4.666666666666667</ele><time>2026-04-05T15:03:49.916Z</time></trkpt><trkpt lat="42.5975567" lon="3.0247483"><ele>5.0</ele><time>2026-04-05T15:03:50.916Z</time></trkpt><trkpt lat="42.59774" lon="3.02472"><ele>4.666666666666667</ele><time>2026-04-05T15:03:51.916Z</time></trkpt><trkpt lat="42.5979317" lon="3.02469"><ele>4.333333333333333</ele><time>2026-04-05T15:03:52.915Z</time></trkpt><trkpt lat="42.5981267" lon="3.0246617"><ele>4.0</ele><time>2026-04-05T15:03:53.916Z</time></trkpt><trkpt lat="42.5983283" lon="3.0246367"><ele>4.0</ele><time>2026-04-05T15:03:54.915Z</time></trkpt><trkpt lat="42.5985333" lon="3.0246133"><ele>4.0</ele><time>2026-04-05T15:03:55.916Z</time></trkpt><trkpt lat="42.5987417" lon="3.024585"><ele>4.0</ele><time>2026-04-05T15:03:56.916Z</time></trkpt><trkpt lat="42.5989533" lon="3.0245533"><ele>4.0</ele><time>2026-04-05T15:03:57.916Z</time></trkpt><trkpt lat="42.5991683" lon="3.0245233"><ele>4.0</ele><time>2026-04-05T15:03:58.916Z</time></trkpt><trkpt lat="42.5993867" lon="3.0244917"><ele>4.0</ele><time>2026-04-05T15:03:59.916Z</time></trkpt><trkpt lat="42.5996083" lon="3.0244583"><ele>4.0</ele><time>2026-04-05T15:04:00.916Z</time></trkpt><trkpt lat="42.5998317" lon="3.024425"><ele>4.0</ele><time>2026-04-05T15:04:01.916Z</time></trkpt><trkpt lat="42.60006" lon="3.0243933"><ele>4.0</ele><time>2026-04-05T15:04:02.916Z</time></trkpt><trkpt lat="42.6002867" lon="3.02436"><ele>4.0</ele><time>2026-04-05T15:04:03.915Z</time></trkpt><trkpt lat="42.600505" lon="3.0243283"><ele>4.0</ele><time>2026-04-05T15:04:04.916Z</time></trkpt><trkpt lat="42.60072" lon="3.0243017"><ele>4.0</ele><time>2026-04-05T15:04:05.915Z</time></trkpt><trkpt lat="42.6009367" lon="3.024275"><ele>4.0</ele><time>2026-04-05T15:04:06.914Z</time></trkpt><trkpt lat="42.6011567" lon="3.0242483"><ele>4.0</ele><time>2026-04-05T15:04:07.915Z</time></trkpt><trkpt lat="42.6013817" lon="3.0242167"><ele>3.5</ele><time>2026-04-05T15:04:08.915Z</time></trkpt><trkpt lat="42.6016083" lon="3.0241883"><ele>3.0</ele><time>2026-04-05T15:04:09.915Z</time></trkpt><trkpt lat="42.6018383" lon="3.0241683"><ele>3.0</ele><time>2026-04-05T15:04:10.914Z</time></trkpt><trkpt lat="42.6020733" lon="3.0241583"><ele>3.0</ele><time>2026-04-05T15:04:11.914Z</time></trkpt><trkpt lat="42.6023133" lon="3.0241683"><ele>3.0</ele><time>2026-04-05T15:04:12.915Z</time></trkpt><trkpt lat="42.6025533" lon="3.0241817"><ele>3.0</ele><time>2026-04-05T15:04:13.915Z</time></trkpt><trkpt lat="42.6027983" lon="3.0241983"><ele>3.0</ele><time>2026-04-05T15:04:14.915Z</time></trkpt><trkpt lat="42.6030417" lon="3.0242167"><ele>3.0</ele><time>2026-04-05T15:04:15.915Z</time></trkpt><trkpt lat="42.6032867" lon="3.0242367"><ele>3.0</ele><time>2026-04-05T15:04:16.914Z</time></trkpt><trkpt lat="42.6035333" lon="3.0242583"><ele>3.0</ele><time>2026-04-05T15:04:17.915Z</time></trkpt><trkpt lat="42.6037767" lon="3.0242767"><ele>2.5</ele><time>2026-04-05T15:04:18.915Z</time></trkpt><trkpt lat="42.60402" lon="3.0242967"><ele>2.0</ele><time>2026-04-05T15:04:19.914Z</time></trkpt><trkpt lat="42.6042617" lon="3.0243117"><ele>2.0</ele><time>2026-04-05T15:04:20.915Z</time></trkpt><trkpt lat="42.604505" lon="3.024325"><ele>2.0</ele><time>2026-04-05T15:04:21.914Z</time></trkpt><trkpt lat="42.6047467" lon="3.0243417"><ele>2.0</ele><time>2026-04-05T15:04:22.915Z</time></trkpt><trkpt lat="42.6049867" lon="3.02436"><ele>2.0</ele><time>2026-04-05T15:04:23.914Z</time></trkpt><trkpt lat="42.6052183" lon="3.02438"><ele>2.333333333333333</ele><time>2026-04-05T15:04:24.914Z</time></trkpt><trkpt lat="42.60544" lon="3.0244033"><ele>2.6666666666666665</ele><time>2026-04-05T15:04:25.915Z</time></trkpt><trkpt lat="42.6056533" lon="3.0244283"><ele>3.0</ele><time>2026-04-05T15:04:26.915Z</time></trkpt><trkpt lat="42.6058583" lon="3.0244533"><ele>3.0</ele><time>2026-04-05T15:04:27.914Z</time></trkpt><trkpt lat="42.6060583" lon="3.024475"><ele>3.0</ele><time>2026-04-05T15:04:28.915Z</time></trkpt><trkpt lat="42.6062533" lon="3.0244967"><ele>3.0</ele><time>2026-04-05T15:04:29.915Z</time></trkpt><trkpt lat="42.6064283" lon="3.024515"><ele>3.25</ele><time>2026-04-05T15:04:30.915Z</time></trkpt><trkpt lat="42.6065883" lon="3.0245333"><ele>3.5</ele><time>2026-04-05T15:04:31.914Z</time></trkpt><trkpt lat="42.6067383" lon="3.0245517"><ele>3.75</ele><time>2026-04-05T15:04:32.915Z</time></trkpt><trkpt lat="42.6068667" lon="3.02457"><ele>4.0</ele><time>2026-04-05T15:04:33.914Z</time></trkpt><trkpt lat="42.606975" lon="3.0245833"><ele>3.833333333333333</ele><time>2026-04-05T15:04:34.914Z</time></trkpt><trkpt lat="42.60707" lon="3.0245983"><ele>3.6666666666666665</ele><time>2026-04-05T15:04:35.915Z</time></trkpt><trkpt lat="42.6071533" lon="3.0246117"><ele>3.5</ele><time>2026-04-05T15:04:36.914Z</time></trkpt><trkpt lat="42.6072233" lon="3.0246283"><ele>3.333333333333333</ele><time>2026-04-05T15:04:37.915Z</time></trkpt><trkpt lat="42.6072867" lon="3.0246467"><ele>3.1666666666666665</ele><time>2026-04-05T15:04:38.915Z</time></trkpt><trkpt lat="42.6073517" lon="3.024685"><ele>3.0</ele><time>2026-04-05T15:04:39.915Z</time></trkpt><trkpt lat="42.607415" lon="3.0247383"><ele>3.0</ele><time>2026-04-05T15:04:40.915Z</time></trkpt><trkpt lat="42.6074767" lon="3.024795"><ele>3.0</ele><time>2026-04-05T15:04:41.914Z</time></trkpt><trkpt lat="42.607545" lon="3.0248317"><ele>3.0</ele><time>2026-04-05T15:04:42.914Z</time></trkpt><trkpt lat="42.60762" lon="3.02483"><ele>3.0</ele><time>2026-04-05T15:04:43.915Z</time></trkpt><trkpt lat="42.6077" lon="3.0247983"><ele>3.0</ele><time>2026-04-05T15:04:44.915Z</time></trkpt><trkpt lat="42.607795" lon="3.024745"><ele>3.0</ele><time>2026-04-05T15:04:45.915Z</time></trkpt><trkpt lat="42.6079083" lon="3.0247083"><ele>3.0</ele><time>2026-04-05T15:04:46.915Z</time></trkpt><trkpt lat="42.6080333" lon="3.02469"><ele>3.0</ele><time>2026-04-05T15:04:47.915Z</time></trkpt><trkpt lat="42.60817" lon="3.024685"><ele>3.0</ele><time>2026-04-05T15:04:48.914Z</time></trkpt><trkpt lat="42.608315" lon="3.0246883"><ele>3.0</ele><time>2026-04-05T15:04:49.915Z</time></trkpt><trkpt lat="42.6084683" lon="3.024695"><ele>3.0</ele><time>2026-04-05T15:04:50.915Z</time></trkpt><trkpt lat="42.6086317" lon="3.0247017"><ele>3.0</ele><time>2026-04-05T15:04:51.915Z</time></trkpt><trkpt lat="42.6088" lon="3.024705"><ele>3.0</ele><time>2026-04-05T15:04:52.915Z</time></trkpt><trkpt lat="42.6089767" lon="3.0247067"><ele>2.3333333333333335</ele><time>2026-04-05T15:04:53.915Z</time></trkpt><trkpt lat="42.60916" lon="3.024715"><ele>1.6666666666666665</ele><time>2026-04-05T15:04:54.915Z</time></trkpt><trkpt lat="42.60935" lon="3.02473"><ele>1.0</ele><time>2026-04-05T15:04:55.914Z</time></trkpt><trkpt lat="42.609545" lon="3.0247483"><ele>1.0</ele><time>2026-04-05T15:04:56.915Z</time></trkpt><trkpt lat="42.609745" lon="3.0247667"><ele>1.0</ele><time>2026-04-05T15:04:57.914Z</time></trkpt><trkpt lat="42.60995" lon="3.0247833"><ele>1.0</ele><time>2026-04-05T15:04:58.915Z</time></trkpt><trkpt lat="42.6101567" lon="3.0247983"><ele>1.0</ele><time>2026-04-05T15:04:59.915Z</time></trkpt><trkpt lat="42.6103683" lon="3.0248117"><ele>1.0</ele><time>2026-04-05T15:05:00.914Z</time></trkpt><trkpt lat="42.6105833" lon="3.0248267"><ele>1.0</ele><time>2026-04-05T15:05:01.914Z</time></trkpt><trkpt lat="42.6108" lon="3.024845"><ele>1.0</ele><time>2026-04-05T15:05:02.914Z</time></trkpt><trkpt lat="42.61102" lon="3.0248633"><ele>1.0</ele><time>2026-04-05T15:05:03.915Z</time></trkpt><trkpt lat="42.6112433" lon="3.0248833"><ele>1.0</ele><time>2026-04-05T15:05:04.915Z</time></trkpt><trkpt lat="42.611465" lon="3.0249"><ele>1.0</ele><time>2026-04-05T15:05:05.915Z</time></trkpt><trkpt lat="42.6116767" lon="3.0249183"><ele>1.0</ele><time>2026-04-05T15:05:06.914Z</time></trkpt><trkpt lat="42.6118667" lon="3.0249367"><ele>1.0</ele><time>2026-04-05T15:05:07.915Z</time></trkpt><trkpt lat="42.6120383" lon="3.0249517"><ele>1.0</ele><time>2026-04-05T15:05:08.914Z</time></trkpt><trkpt lat="42.6122017" lon="3.0249767"><ele>1.0</ele><time>2026-04-05T15:05:09.915Z</time></trkpt><trkpt lat="42.6123483" lon="3.0249883"><ele>1.0</ele><time>2026-04-05T15:05:10.915Z</time></trkpt><trkpt lat="42.6124833" lon="3.025"><ele>1.0</ele><time>2026-04-05T15:05:11.915Z</time></trkpt><trkpt lat="42.6126067" lon="3.02501"><ele>1.25</ele><time>2026-04-05T15:05:12.915Z</time></trkpt><trkpt lat="42.6127283" lon="3.0250217"><ele>1.5</ele><time>2026-04-05T15:05:13.915Z</time></trkpt><trkpt lat="42.6128433" lon="3.0250317"><ele>1.75</ele><time>2026-04-05T15:05:14.915Z</time></trkpt><trkpt lat="42.612955" lon="3.02504"><ele>2.0</ele><time>2026-04-05T15:05:15.915Z</time></trkpt><trkpt lat="42.6130667" lon="3.02505"><ele>2.0</ele><time>2026-04-05T15:05:16.915Z</time></trkpt><trkpt lat="42.6131833" lon="3.02506"><ele>2.0</ele><time>2026-04-05T15:05:17.914Z</time></trkpt><trkpt lat="42.6132983" lon="3.0250717"><ele>2.0</ele><time>2026-04-05T15:05:18.914Z</time></trkpt><trkpt lat="42.6134117" lon="3.025085"><ele>2.0</ele><time>2026-04-05T15:05:19.915Z</time></trkpt><trkpt lat="42.6135183" lon="3.0251017"><ele>2.0</ele><time>2026-04-05T15:05:20.915Z</time></trkpt><trkpt lat="42.6136233" lon="3.0251233"><ele>2.0</ele><time>2026-04-05T15:05:21.915Z</time></trkpt><trkpt lat="42.6137217" lon="3.0251467"><ele>2.0</ele><time>2026-04-05T15:05:22.915Z</time></trkpt><trkpt lat="42.6138217" lon="3.0251717"><ele>2.0</ele><time>2026-04-05T15:05:23.915Z</time></trkpt><trkpt lat="42.613925" lon="3.0252"><ele>2.0</ele><time>2026-04-05T15:05:24.915Z</time></trkpt><trkpt lat="42.6140267" lon="3.0252217"><ele>1.8</ele><time>2026-04-05T15:05:25.915Z</time></trkpt><trkpt lat="42.614125" lon="3.025235"><ele>1.6</ele><time>2026-04-05T15:05:26.915Z</time></trkpt><trkpt lat="42.6142233" lon="3.02525"><ele>1.4000000000000001</ele><time>2026-04-05T15:05:27.915Z</time></trkpt><trkpt lat="42.6143133" lon="3.0252783"><ele>1.2000000000000002</ele><time>2026-04-05T15:05:28.915Z</time></trkpt><trkpt lat="42.61439" lon="3.0253067"><ele>1.0</ele><time>2026-04-05T15:05:29.915Z</time></trkpt><trkpt lat="42.61449" lon="3.0253517"><ele>0.9999999999999999</ele><time>2026-04-05T15:05:31.915Z</time></trkpt><trkpt lat="42.61456" lon="3.0253967"><ele>1.0</ele><time>2026-04-05T15:05:36.915Z</time></trkpt><trkpt lat="42.6146133" lon="3.0254483"><ele>1.0</ele><time>2026-04-05T15:05:42.915Z</time></trkpt><trkpt lat="42.6146633" lon="3.02551"><ele>1.0</ele><time>2026-04-05T15:05:43.915Z</time></trkpt><trkpt lat="42.6147283" lon="3.0255733"><ele>0.9999999999999999</ele><time>2026-04-05T15:05:44.915Z</time></trkpt><trkpt lat="42.6148017" lon="3.0256183"><ele>1.0</ele><time>2026-04-05T15:05:45.915Z</time></trkpt><trkpt lat="42.6148867" lon="3.025615"><ele>1.0</ele><time>2026-04-05T15:05:46.915Z</time></trkpt><trkpt lat="42.6149717" lon="3.0255817"><ele>1.0</ele><time>2026-04-05T15:05:47.915Z</time></trkpt><trkpt lat="42.6150433" lon="3.0255133"><ele>1.0</ele><time>2026-04-05T15:05:48.915Z</time></trkpt><trkpt lat="42.6151233" lon="3.0254467"><ele>1.0</ele><time>2026-04-05T15:05:49.915Z</time></trkpt><trkpt lat="42.6152233" lon="3.025395"><ele>1.0</ele><time>2026-04-05T15:05:50.914Z</time></trkpt><trkpt lat="42.6153433" lon="3.0253683"><ele>1.25</ele><time>2026-04-05T15:05:51.915Z</time></trkpt><trkpt lat="42.6154783" lon="3.02535"><ele>1.5</ele><time>2026-04-05T15:05:52.915Z</time></trkpt><trkpt lat="42.615625" lon="3.0253367"><ele>1.75</ele><time>2026-04-05T15:05:53.915Z</time></trkpt><trkpt lat="42.6157817" lon="3.0253283"><ele>2.0</ele><time>2026-04-05T15:05:54.915Z</time></trkpt><trkpt lat="42.6159483" lon="3.025325"><ele>2.0</ele><time>2026-04-05T15:05:55.915Z</time></trkpt><trkpt lat="42.6161183" lon="3.0253267"><ele>2.0</ele><time>2026-04-05T15:05:56.915Z</time></trkpt><trkpt lat="42.61629" lon="3.025335"><ele>2.0</ele><time>2026-04-05T15:05:57.915Z</time></trkpt><trkpt lat="42.61646" lon="3.0253417"><ele>2.333333333333333</ele><time>2026-04-05T15:05:58.915Z</time></trkpt><trkpt lat="42.61664" lon="3.025345"><ele>2.6666666666666665</ele><time>2026-04-05T15:05:59.915Z</time></trkpt><trkpt lat="42.616825" lon="3.0253567"><ele>3.0</ele><time>2026-04-05T15:06:00.915Z</time></trkpt><trkpt lat="42.6170167" lon="3.0253817"><ele>2.0</ele><time>2026-04-05T15:06:01.915Z</time></trkpt><trkpt lat="42.6172167" lon="3.0254083"><ele>1.0</ele><time>2026-04-05T15:06:02.915Z</time></trkpt><trkpt lat="42.6174117" lon="3.0254267"><ele>0.0</ele><time>2026-04-05T15:06:03.915Z</time></trkpt><trkpt lat="42.6175967" lon="3.0254417"><ele>0.0</ele><time>2026-04-05T15:06:04.914Z</time></trkpt><trkpt lat="42.617775" lon="3.0254517"><ele>0.0</ele><time>2026-04-05T15:06:05.915Z</time></trkpt><trkpt lat="42.6179417" lon="3.025455"><ele>0.0</ele><time>2026-04-05T15:06:06.915Z</time></trkpt><trkpt lat="42.6181017" lon="3.025455"><ele>0.6666666666666666</ele><time>2026-04-05T15:06:07.915Z</time></trkpt><trkpt lat="42.618255" lon="3.0254517"><ele>1.3333333333333333</ele><time>2026-04-05T15:06:08.915Z</time></trkpt><trkpt lat="42.6184117" lon="3.0254483"><ele>2.0</ele><time>2026-04-05T15:06:09.915Z</time></trkpt><trkpt lat="42.6185733" lon="3.025435"><ele>2.6666666666666665</ele><time>2026-04-05T15:06:10.915Z</time></trkpt><trkpt lat="42.6187417" lon="3.0254133"><ele>3.333333333333333</ele><time>2026-04-05T15:06:11.915Z</time></trkpt><trkpt lat="42.6189133" lon="3.0253867"><ele>4.0</ele><time>2026-04-05T15:06:12.914Z</time></trkpt><trkpt lat="42.6190867" lon="3.0253533"><ele>4.0</ele><time>2026-04-05T15:06:13.915Z</time></trkpt><trkpt lat="42.619265" lon="3.02532"><ele>4.0</ele><time>2026-04-05T15:06:14.914Z</time></trkpt><trkpt lat="42.61945" lon="3.025275"><ele>4.0</ele><time>2026-04-05T15:06:15.914Z</time></trkpt><trkpt lat="42.61964" lon="3.0252233"><ele>4.0</ele><time>2026-04-05T15:06:16.915Z</time></trkpt><trkpt lat="42.6198367" lon="3.0251733"><ele>4.0</ele><time>2026-04-05T15:06:17.915Z</time></trkpt><trkpt lat="42.6200367" lon="3.0251167"><ele>4.0</ele><time>2026-04-05T15:06:18.915Z</time></trkpt><trkpt lat="42.620235" lon="3.0250517"><ele>4.666666666666666</ele><time>2026-04-05T15:06:19.915Z</time></trkpt><trkpt lat="42.6204117" lon="3.024985"><ele>5.333333333333333</ele><time>2026-04-05T15:06:20.915Z</time></trkpt><trkpt lat="42.6205567" lon="3.0249283"><ele>6.0</ele><time>2026-04-05T15:06:21.915Z</time></trkpt><trkpt lat="42.6206817" lon="3.0248817"><ele>4.75</ele><time>2026-04-05T15:06:22.915Z</time></trkpt><trkpt lat="42.6208067" lon="3.0248367"><ele>3.5</ele><time>2026-04-05T15:06:23.915Z</time></trkpt><trkpt lat="42.6209433" lon="3.02478"><ele>2.25</ele><time>2026-04-05T15:06:24.914Z</time></trkpt><trkpt lat="42.621085" lon="3.0247083"><ele>1.0</ele><time>2026-04-05T15:06:25.914Z</time></trkpt><trkpt lat="42.6212333" lon="3.0246233"><ele>1.0</ele><time>2026-04-05T15:06:26.914Z</time></trkpt><trkpt lat="42.6213883" lon="3.0245317"><ele>1.0</ele><time>2026-04-05T15:06:27.915Z</time></trkpt><trkpt lat="42.62155" lon="3.024435"><ele>1.0</ele><time>2026-04-05T15:06:28.915Z</time></trkpt><trkpt lat="42.6217133" lon="3.0243367"><ele>0.5</ele><time>2026-04-05T15:06:29.915Z</time></trkpt><trkpt lat="42.62203" lon="3.02413"><ele>0.0</ele><time>2026-04-05T15:06:31.915Z</time></trkpt><trkpt lat="42.622195" lon="3.024015"><ele>0.0</ele><time>2026-04-05T15:06:32.915Z</time></trkpt><trkpt lat="42.6223683" lon="3.0238967"><ele>0.0</ele><time>2026-04-05T15:06:33.914Z</time></trkpt><trkpt lat="42.6225467" lon="3.0237733"><ele>0.0</ele><time>2026-04-05T15:06:34.915Z</time></trkpt><trkpt lat="42.62273" lon="3.0236483"><ele>0.0</ele><time>2026-04-05T15:06:35.915Z</time></trkpt><trkpt lat="42.6230983" lon="3.0233983"><ele>0.0</ele><time>2026-04-05T15:06:37.914Z</time></trkpt><trkpt lat="42.6232767" lon="3.0232817"><ele>0.3333333333333333</ele><time>2026-04-05T15:06:38.914Z</time></trkpt><trkpt lat="42.6234467" lon="3.0231767"><ele>0.6666666666666666</ele><time>2026-04-05T15:06:39.915Z</time></trkpt><trkpt lat="42.6236067" lon="3.023085"><ele>1.0</ele><time>2026-04-05T15:06:40.915Z</time></trkpt><trkpt lat="42.6237567" lon="3.0230117"><ele>0.5</ele><time>2026-04-05T15:06:41.915Z</time></trkpt><trkpt lat="42.6238983" lon="3.022955"><ele>0.0</ele><time>2026-04-05T15:06:42.914Z</time></trkpt><trkpt lat="42.6240333" lon="3.0229133"><ele>-0.5</ele><time>2026-04-05T15:06:43.915Z</time></trkpt><trkpt lat="42.6241617" lon="3.02288"><ele>-1.0</ele><time>2026-04-05T15:06:44.915Z</time></trkpt><trkpt lat="42.6242817" lon="3.022855"><ele>-1.0</ele><time>2026-04-05T15:06:45.914Z</time></trkpt><trkpt lat="42.6243933" lon="3.0228417"><ele>-1.0</ele><time>2026-04-05T15:06:46.914Z</time></trkpt><trkpt lat="42.6244983" lon="3.0228317"><ele>-1.0</ele><time>2026-04-05T15:06:47.915Z</time></trkpt><trkpt lat="42.6248" lon="3.022885"><ele>-0.8</ele><time>2026-04-05T15:06:50.915Z</time></trkpt><trkpt lat="42.6249033" lon="3.0228983"><ele>-0.6000000000000001</ele><time>2026-04-05T15:06:51.915Z</time></trkpt><trkpt lat="42.6250017" lon="3.0228733"><ele>-0.4</ele><time>2026-04-05T15:06:52.914Z</time></trkpt><trkpt lat="42.6250917" lon="3.0228017"><ele>-0.2</ele><time>2026-04-05T15:06:53.915Z</time></trkpt><trkpt lat="42.6251533" lon="3.0226883"><ele>0.0</ele><time>2026-04-05T15:06:54.915Z</time></trkpt><trkpt lat="42.625175" lon="3.0225583"><ele>-0.5</ele><time>2026-04-05T15:06:55.915Z</time></trkpt><trkpt lat="42.62516" lon="3.0224167"><ele>-1.0</ele><time>2026-04-05T15:06:56.915Z</time></trkpt><trkpt lat="42.6251517" lon="3.0222683"><ele>-1.5</ele><time>2026-04-05T15:06:57.914Z</time></trkpt><trkpt lat="42.62517" lon="3.0221"><ele>-2.0</ele><time>2026-04-05T15:06:58.915Z</time></trkpt><trkpt lat="42.625205" lon="3.0219167"><ele>-2.0</ele><time>2026-04-05T15:06:59.915Z</time></trkpt><trkpt lat="42.6252467" lon="3.0217217"><ele>-2.0</ele><time>2026-04-05T15:07:00.915Z</time></trkpt><trkpt lat="42.6252867" lon="3.0215133"><ele>-2.0</ele><time>2026-04-05T15:07:01.915Z</time></trkpt><trkpt lat="42.625325" lon="3.02129"><ele>-1.3333333333333333</ele><time>2026-04-05T15:07:02.915Z</time></trkpt><trkpt lat="42.6253667" lon="3.0210583"><ele>-0.6666666666666666</ele><time>2026-04-05T15:07:03.915Z</time></trkpt><trkpt lat="42.6254083" lon="3.0208183"><ele>0.0</ele><time>2026-04-05T15:07:04.915Z</time></trkpt><trkpt lat="42.6254467" lon="3.0205783"><ele>0.0</ele><time>2026-04-05T15:07:05.915Z</time></trkpt><trkpt lat="42.6254833" lon="3.0203367"><ele>0.0</ele><time>2026-04-05T15:07:06.914Z</time></trkpt><trkpt lat="42.6255067" lon="3.0200967"><ele>0.0</ele><time>2026-04-05T15:07:07.915Z</time></trkpt><trkpt lat="42.6255117" lon="3.0198533"><ele>0.0</ele><time>2026-04-05T15:07:08.914Z</time></trkpt><trkpt lat="42.6254933" lon="3.0196133"><ele>0.0</ele><time>2026-04-05T15:07:09.915Z</time></trkpt><trkpt lat="42.6254533" lon="3.01937"><ele>0.0</ele><time>2026-04-05T15:07:10.915Z</time></trkpt><trkpt lat="42.6253983" lon="3.019125"><ele>0.3333333333333333</ele><time>2026-04-05T15:07:11.914Z</time></trkpt><trkpt lat="42.6253333" lon="3.01888"><ele>0.6666666666666666</ele><time>2026-04-05T15:07:12.914Z</time></trkpt><trkpt lat="42.6252633" lon="3.0186333"><ele>1.0</ele><time>2026-04-05T15:07:13.915Z</time></trkpt><trkpt lat="42.6251917" lon="3.0183783"><ele>1.0</ele><time>2026-04-05T15:07:14.915Z</time></trkpt><trkpt lat="42.6251217" lon="3.018125"><ele>1.0</ele><time>2026-04-05T15:07:15.915Z</time></trkpt><trkpt lat="42.6250533" lon="3.0178733"><ele>1.0</ele><time>2026-04-05T15:07:16.915Z</time></trkpt><trkpt lat="42.6249867" lon="3.0176333"><ele>0.6666666666666666</ele><time>2026-04-05T15:07:17.914Z</time></trkpt><trkpt lat="42.62492" lon="3.0174033"><ele>0.3333333333333333</ele><time>2026-04-05T15:07:18.914Z</time></trkpt><trkpt lat="42.6248517" lon="3.0171817"><ele>0.0</ele><time>2026-04-05T15:07:19.915Z</time></trkpt><trkpt lat="42.6247733" lon="3.01697"><ele>0.0</ele><time>2026-04-05T15:07:20.914Z</time></trkpt><trkpt lat="42.6246833" lon="3.0167683"><ele>0.0</ele><time>2026-04-05T15:07:21.915Z</time></trkpt><trkpt lat="42.6245833" lon="3.0165717"><ele>0.0</ele><time>2026-04-05T15:07:22.915Z</time></trkpt><trkpt lat="42.6244733" lon="3.01638"><ele>0.0</ele><time>2026-04-05T15:07:23.915Z</time></trkpt><trkpt lat="42.6243533" lon="3.01619"><ele>0.0</ele><time>2026-04-05T15:07:24.915Z</time></trkpt><trkpt lat="42.6239917" lon="3.0156333"><ele>-0.3333333333333333</ele><time>2026-04-05T15:07:27.915Z</time></trkpt><trkpt lat="42.6238817" lon="3.0154617"><ele>-0.6666666666666666</ele><time>2026-04-05T15:07:28.915Z</time></trkpt><trkpt lat="42.623775" lon="3.0152867"><ele>-1.0</ele><time>2026-04-05T15:07:29.915Z</time></trkpt><trkpt lat="42.6236767" lon="3.0151017"><ele>-1.0</ele><time>2026-04-05T15:07:30.915Z</time></trkpt><trkpt lat="42.6235833" lon="3.0149033"><ele>-1.0</ele><time>2026-04-05T15:07:31.915Z</time></trkpt><trkpt lat="42.6235" lon="3.0147017"><ele>-1.0</ele><time>2026-04-05T15:07:32.915Z</time></trkpt><trkpt lat="42.62343" lon="3.0145017"><ele>-1.0</ele><time>2026-04-05T15:07:33.915Z</time></trkpt><trkpt lat="42.62337" lon="3.0143033"><ele>-1.0</ele><time>2026-04-05T15:07:34.915Z</time></trkpt><trkpt lat="42.623315" lon="3.01411"><ele>-1.0</ele><time>2026-04-05T15:07:35.915Z</time></trkpt><trkpt lat="42.6232617" lon="3.0139183"><ele>0.0</ele><time>2026-04-05T15:07:36.915Z</time></trkpt><trkpt lat="42.623105" lon="3.0133717"><ele>1.0</ele><time>2026-04-05T15:07:39.915Z</time></trkpt><trkpt lat="42.62306" lon="3.0132117"><ele>1.0</ele><time>2026-04-05T15:07:40.915Z</time></trkpt><trkpt lat="42.6230233" lon="3.0130717"><ele>1.0</ele><time>2026-04-05T15:07:41.915Z</time></trkpt><trkpt lat="42.6230033" lon="3.01295"><ele>1.0</ele><time>2026-04-05T15:07:42.915Z</time></trkpt><trkpt lat="42.6230017" lon="3.012605"><ele>0.9999999999999999</ele><time>2026-04-05T15:07:45.915Z</time></trkpt><trkpt lat="42.6229867" lon="3.0125067"><ele>1.0</ele><time>2026-04-05T15:07:46.915Z</time></trkpt><trkpt lat="42.62295" lon="3.0124217"><ele>1.0</ele><time>2026-04-05T15:07:47.915Z</time></trkpt><trkpt lat="42.6228867" lon="3.0123433"><ele>1.0</ele><time>2026-04-05T15:07:48.915Z</time></trkpt><trkpt lat="42.6228233" lon="3.0122533"><ele>0.9999999999999999</ele><time>2026-04-05T15:07:49.915Z</time></trkpt><trkpt lat="42.6227717" lon="3.0121383"><ele>1.0</ele><time>2026-04-05T15:07:50.915Z</time></trkpt><trkpt lat="42.62273" lon="3.0120033"><ele>1.25</ele><time>2026-04-05T15:07:51.914Z</time></trkpt><trkpt lat="42.6226883" lon="3.01186"><ele>1.5</ele><time>2026-04-05T15:07:52.915Z</time></trkpt><trkpt lat="42.6226433" lon="3.0117117"><ele>1.75</ele><time>2026-04-05T15:07:53.915Z</time></trkpt><trkpt lat="42.6225983" lon="3.0115633"><ele>2.0</ele><time>2026-04-05T15:07:54.915Z</time></trkpt><trkpt lat="42.6225567" lon="3.01142"><ele>2.0</ele><time>2026-04-05T15:07:55.915Z</time></trkpt><trkpt lat="42.6225167" lon="3.0112833"><ele>2.0</ele><time>2026-04-05T15:07:56.915Z</time></trkpt><trkpt lat="42.6224767" lon="3.0111517"><ele>2.0</ele><time>2026-04-05T15:07:57.914Z</time></trkpt><trkpt lat="42.62244" lon="3.0110283"><ele>2.0</ele><time>2026-04-05T15:07:58.915Z</time></trkpt><trkpt lat="42.6224083" lon="3.0109183"><ele>2.0</ele><time>2026-04-05T15:07:59.915Z</time></trkpt><trkpt lat="42.622385" lon="3.0108283"><ele>1.8333333333333333</ele><time>2026-04-05T15:08:00.915Z</time></trkpt><trkpt lat="42.6223717" lon="3.0107433"><ele>1.6666666666666665</ele><time>2026-04-05T15:08:01.915Z</time></trkpt><trkpt lat="42.622365" lon="3.0106467"><ele>1.5</ele><time>2026-04-05T15:08:02.915Z</time></trkpt><trkpt lat="42.6223633" lon="3.0105467"><ele>1.3333333333333333</ele><time>2026-04-05T15:08:03.915Z</time></trkpt><trkpt lat="42.62236" lon="3.0104483"><ele>1.1666666666666665</ele><time>2026-04-05T15:08:04.915Z</time></trkpt><trkpt lat="42.6223217" lon="3.010295"><ele>1.0</ele><time>2026-04-05T15:08:06.915Z</time></trkpt><trkpt lat="42.6222633" lon="3.0101983"><ele>0.9999999999999999</ele><time>2026-04-05T15:08:08.914Z</time></trkpt><trkpt lat="42.62221" lon="3.0101267"><ele>1.0</ele><time>2026-04-05T15:08:11.915Z</time></trkpt><trkpt lat="42.6221583" lon="3.0100333"><ele>1.0</ele><time>2026-04-05T15:08:14.914Z</time></trkpt><trkpt lat="42.6221233" lon="3.0099583"><ele>1.0</ele><time>2026-04-05T15:08:15.915Z</time></trkpt><trkpt lat="42.622085" lon="3.0098617"><ele>0.9999999999999999</ele><time>2026-04-05T15:08:16.915Z</time></trkpt><trkpt lat="42.6220483" lon="3.0097417"><ele>1.0</ele><time>2026-04-05T15:08:17.915Z</time></trkpt><trkpt lat="42.62202" lon="3.0096017"><ele>1.25</ele><time>2026-04-05T15:08:18.915Z</time></trkpt><trkpt lat="42.6220017" lon="3.0094417"><ele>1.5</ele><time>2026-04-05T15:08:19.915Z</time></trkpt><trkpt lat="42.62199" lon="3.009265"><ele>1.75</ele><time>2026-04-05T15:08:20.915Z</time></trkpt><trkpt lat="42.6219767" lon="3.0090767"><ele>2.0</ele><time>2026-04-05T15:08:21.914Z</time></trkpt><trkpt lat="42.6219617" lon="3.0088817"><ele>2.0</ele><time>2026-04-05T15:08:22.915Z</time></trkpt><trkpt lat="42.6219483" lon="3.0086767"><ele>2.0</ele><time>2026-04-05T15:08:23.915Z</time></trkpt><trkpt lat="42.621935" lon="3.0084583"><ele>2.0</ele><time>2026-04-05T15:08:24.915Z</time></trkpt><trkpt lat="42.62192" lon="3.00823"><ele>2.0</ele><time>2026-04-05T15:08:25.915Z</time></trkpt><trkpt lat="42.6219033" lon="3.007995"><ele>2.0</ele><time>2026-04-05T15:08:26.915Z</time></trkpt><trkpt lat="42.6218867" lon="3.0077517"><ele>2.0</ele><time>2026-04-05T15:08:27.915Z</time></trkpt><trkpt lat="42.62187" lon="3.0075017"><ele>2.333333333333333</ele><time>2026-04-05T15:08:28.914Z</time></trkpt><trkpt lat="42.6218533" lon="3.0072467"><ele>2.6666666666666665</ele><time>2026-04-05T15:08:29.915Z</time></trkpt><trkpt lat="42.6218383" lon="3.0069933"><ele>3.0</ele><time>2026-04-05T15:08:30.914Z</time></trkpt><trkpt lat="42.62182" lon="3.0067583"><ele>3.0</ele><time>2026-04-05T15:08:31.915Z</time></trkpt><trkpt lat="42.621785" lon="3.0065467"><ele>3.0</ele><time>2026-04-05T15:08:32.915Z</time></trkpt><trkpt lat="42.621725" lon="3.0063517"><ele>3.0</ele><time>2026-04-05T15:08:33.915Z</time></trkpt><trkpt lat="42.6216267" lon="3.0061683"><ele>3.0</ele><time>2026-04-05T15:08:34.915Z</time></trkpt><trkpt lat="42.6215117" lon="3.0059983"><ele>3.0</ele><time>2026-04-05T15:08:35.915Z</time></trkpt><trkpt lat="42.621405" lon="3.0058233"><ele>3.0</ele><time>2026-04-05T15:08:36.915Z</time></trkpt><trkpt lat="42.6213267" lon="3.0056217"><ele>2.6666666666666665</ele><time>2026-04-05T15:08:37.914Z</time></trkpt><trkpt lat="42.6212767" lon="3.0053917"><ele>2.333333333333333</ele><time>2026-04-05T15:08:38.915Z</time></trkpt><trkpt lat="42.6212567" lon="3.00514"><ele>2.0</ele><time>2026-04-05T15:08:39.915Z</time></trkpt><trkpt lat="42.62125" lon="3.00488"><ele>2.0</ele><time>2026-04-05T15:08:40.914Z</time></trkpt><trkpt lat="42.6212483" lon="3.0046267"><ele>2.0</ele><time>2026-04-05T15:08:41.915Z</time></trkpt><trkpt lat="42.6212383" lon="3.0043767"><ele>2.0</ele><time>2026-04-05T15:08:42.914Z</time></trkpt><trkpt lat="42.6212267" lon="3.0041333"><ele>2.333333333333333</ele><time>2026-04-05T15:08:43.915Z</time></trkpt><trkpt lat="42.6212183" lon="3.0039033"><ele>2.6666666666666665</ele><time>2026-04-05T15:08:44.915Z</time></trkpt><trkpt lat="42.6212083" lon="3.00369"><ele>3.0</ele><time>2026-04-05T15:08:45.915Z</time></trkpt><trkpt lat="42.6211883" lon="3.003505"><ele>3.0</ele><time>2026-04-05T15:08:46.914Z</time></trkpt><trkpt lat="42.6211533" lon="3.003345"><ele>3.0</ele><time>2026-04-05T15:08:47.915Z</time></trkpt><trkpt lat="42.6210933" lon="3.0032183"><ele>3.0</ele><time>2026-04-05T15:08:48.915Z</time></trkpt><trkpt lat="42.6210167" lon="3.003115"><ele>3.0</ele><time>2026-04-05T15:08:49.915Z</time></trkpt><trkpt lat="42.6209367" lon="3.0030233"><ele>3.0</ele><time>2026-04-05T15:08:50.915Z</time></trkpt><trkpt lat="42.6208617" lon="3.00293"><ele>3.5999999999999996</ele><time>2026-04-05T15:08:51.915Z</time></trkpt><trkpt lat="42.62078" lon="3.002835"><ele>4.199999999999999</ele><time>2026-04-05T15:08:52.914Z</time></trkpt><trkpt lat="42.62069" lon="3.0027617"><ele>4.8</ele><time>2026-04-05T15:08:53.915Z</time></trkpt><trkpt lat="42.6205983" lon="3.0027167"><ele>5.3999999999999995</ele><time>2026-04-05T15:08:54.915Z</time></trkpt><trkpt lat="42.6205133" lon="3.0026533"><ele>6.0</ele><time>2026-04-05T15:08:55.915Z</time></trkpt><trkpt lat="42.62044" lon="3.0025467"><ele>5.75</ele><time>2026-04-05T15:08:56.915Z</time></trkpt><trkpt lat="42.6203933" lon="3.0024033"><ele>5.5</ele><time>2026-04-05T15:08:57.915Z</time></trkpt><trkpt lat="42.62037" lon="3.00223"><ele>5.25</ele><time>2026-04-05T15:08:58.915Z</time></trkpt><trkpt lat="42.6203617" lon="3.002035"><ele>5.0</ele><time>2026-04-05T15:08:59.914Z</time></trkpt><trkpt lat="42.6203583" lon="3.0018383"><ele>4.5</ele><time>2026-04-05T15:09:00.915Z</time></trkpt><trkpt lat="42.6203583" lon="3.00165"><ele>4.0</ele><time>2026-04-05T15:09:01.915Z</time></trkpt><trkpt lat="42.6203533" lon="3.00147"><ele>3.5</ele><time>2026-04-05T15:09:02.915Z</time></trkpt><trkpt lat="42.6203483" lon="3.0013033"><ele>3.0</ele><time>2026-04-05T15:09:03.915Z</time></trkpt><trkpt lat="42.620345" lon="3.00116"><ele>3.0</ele><time>2026-04-05T15:09:04.915Z</time></trkpt><trkpt lat="42.62035" lon="3.001045"><ele>3.0</ele><time>2026-04-05T15:09:05.915Z</time></trkpt><trkpt lat="42.62036" lon="3.000945"><ele>3.0</ele><time>2026-04-05T15:09:06.915Z</time></trkpt><trkpt lat="42.62035" lon="3.000845"><ele>3.0</ele><time>2026-04-05T15:09:07.915Z</time></trkpt><trkpt lat="42.620315" lon="3.0007367"><ele>3.0</ele><time>2026-04-05T15:09:08.915Z</time></trkpt><trkpt lat="42.620265" lon="3.0006133"><ele>3.0</ele><time>2026-04-05T15:09:09.915Z</time></trkpt><trkpt lat="42.6202067" lon="3.0004767"><ele>3.5</ele><time>2026-04-05T15:09:10.915Z</time></trkpt><trkpt lat="42.6201433" lon="3.0003283"><ele>4.0</ele><time>2026-04-05T15:09:11.915Z</time></trkpt><trkpt lat="42.6200783" lon="3.00018"><ele>4.5</ele><time>2026-04-05T15:09:12.914Z</time></trkpt><trkpt lat="42.6200217" lon="3.0000417"><ele>5.0</ele><time>2026-04-05T15:09:13.914Z</time></trkpt><trkpt lat="42.61997" lon="2.9999117"><ele>5.0</ele><time>2026-04-05T15:09:14.914Z</time></trkpt><trkpt lat="42.61992" lon="2.9997917"><ele>5.0</ele><time>2026-04-05T15:09:15.915Z</time></trkpt><trkpt lat="42.619875" lon="2.9996667"><ele>5.0</ele><time>2026-04-05T15:09:16.914Z</time></trkpt><trkpt lat="42.6198417" lon="2.9995367"><ele>5.0</ele><time>2026-04-05T15:09:17.915Z</time></trkpt><trkpt lat="42.6198283" lon="2.9994067"><ele>5.0</ele><time>2026-04-05T15:09:18.915Z</time></trkpt><trkpt lat="42.6198383" lon="2.9992783"><ele>4.75</ele><time>2026-04-05T15:09:19.914Z</time></trkpt><trkpt lat="42.6198717" lon="2.9991483"><ele>4.5</ele><time>2026-04-05T15:09:20.914Z</time></trkpt><trkpt lat="42.6199283" lon="2.99902"><ele>4.25</ele><time>2026-04-05T15:09:21.915Z</time></trkpt><trkpt lat="42.6200033" lon="2.9988933"><ele>4.0</ele><time>2026-04-05T15:09:22.915Z</time></trkpt><trkpt lat="42.6200867" lon="2.9987683"><ele>4.0</ele><time>2026-04-05T15:09:23.915Z</time></trkpt><trkpt lat="42.6201683" lon="2.998655"><ele>4.0</ele><time>2026-04-05T15:09:24.915Z</time></trkpt><trkpt lat="42.6202417" lon="2.9985617"><ele>4.0</ele><time>2026-04-05T15:09:25.914Z</time></trkpt><trkpt lat="42.6203083" lon="2.998485"><ele>4.0</ele><time>2026-04-05T15:09:26.915Z</time></trkpt><trkpt lat="42.6203683" lon="2.99842"><ele>4.0</ele><time>2026-04-05T15:09:27.914Z</time></trkpt><trkpt lat="42.620425" lon="2.9983617"><ele>3.8571428571428568</ele><time>2026-04-05T15:09:28.914Z</time></trkpt><trkpt lat="42.62048" lon="2.9983067"><ele>3.714285714285714</ele><time>2026-04-05T15:09:29.915Z</time></trkpt><trkpt lat="42.6205367" lon="2.9982483"><ele>3.571428571428571</ele><time>2026-04-05T15:09:30.915Z</time></trkpt><trkpt lat="42.620595" lon="2.99819"><ele>3.4285714285714284</ele><time>2026-04-05T15:09:31.915Z</time></trkpt><trkpt lat="42.6206517" lon="2.9981317"><ele>3.2857142857142856</ele><time>2026-04-05T15:09:32.915Z</time></trkpt><trkpt lat="42.6207083" lon="2.99807"><ele>3.1428571428571423</ele><time>2026-04-05T15:09:33.915Z</time></trkpt><trkpt lat="42.6207667" lon="2.998005"><ele>3.0</ele><time>2026-04-05T15:09:34.915Z</time></trkpt><trkpt lat="42.6208317" lon="2.9979367"><ele>3.0</ele><time>2026-04-05T15:09:35.915Z</time></trkpt><trkpt lat="42.6209017" lon="2.9978683"><ele>3.0</ele><time>2026-04-05T15:09:36.915Z</time></trkpt><trkpt lat="42.620975" lon="2.9977933"><ele>3.0</ele><time>2026-04-05T15:09:37.915Z</time></trkpt><trkpt lat="42.6210517" lon="2.9977183"><ele>3.0</ele><time>2026-04-05T15:09:38.914Z</time></trkpt><trkpt lat="42.62113" lon="2.99764"><ele>3.0</ele><time>2026-04-05T15:09:39.915Z</time></trkpt><trkpt lat="42.62121" lon="2.997565"><ele>3.2</ele><time>2026-04-05T15:09:40.915Z</time></trkpt><trkpt lat="42.621285" lon="2.99748"><ele>3.4</ele><time>2026-04-05T15:09:41.915Z</time></trkpt><trkpt lat="42.6213617" lon="2.9973917"><ele>3.6000000000000005</ele><time>2026-04-05T15:09:42.915Z</time></trkpt><trkpt lat="42.621445" lon="2.9973067"><ele>3.8000000000000003</ele><time>2026-04-05T15:09:43.914Z</time></trkpt><trkpt lat="42.6215283" lon="2.9972133"><ele>4.0</ele><time>2026-04-05T15:09:44.915Z</time></trkpt><trkpt lat="42.6216183" lon="2.9971267"><ele>4.0</ele><time>2026-04-05T15:09:45.915Z</time></trkpt><trkpt lat="42.6217133" lon="2.9970417"><ele>4.0</ele><time>2026-04-05T15:09:46.915Z</time></trkpt><trkpt lat="42.6218067" lon="2.9969583"><ele>4.0</ele><time>2026-04-05T15:09:47.915Z</time></trkpt><trkpt lat="42.6218933" lon="2.99688"><ele>4.0</ele><time>2026-04-05T15:09:48.915Z</time></trkpt><trkpt lat="42.6219733" lon="2.9968133"><ele>4.0</ele><time>2026-04-05T15:09:49.914Z</time></trkpt><trkpt lat="42.62205" lon="2.996755"><ele>3.9999999999999996</ele><time>2026-04-05T15:09:50.914Z</time></trkpt><trkpt lat="42.6221267" lon="2.9967"><ele>4.0</ele><time>2026-04-05T15:09:51.914Z</time></trkpt><trkpt lat="42.6222067" lon="2.9966517"><ele>4.0</ele><time>2026-04-05T15:09:52.914Z</time></trkpt><trkpt lat="42.62229" lon="2.99661"><ele>4.0</ele><time>2026-04-05T15:09:53.914Z</time></trkpt><trkpt lat="42.6223767" lon="2.99657"><ele>3.9999999999999996</ele><time>2026-04-05T15:09:54.915Z</time></trkpt><trkpt lat="42.6224667" lon="2.9965317"><ele>4.0</ele><time>2026-04-05T15:09:55.915Z</time></trkpt><trkpt lat="42.6225617" lon="2.9964883"><ele>4.2</ele><time>2026-04-05T15:09:56.914Z</time></trkpt><trkpt lat="42.62266" lon="2.99644"><ele>4.4</ele><time>2026-04-05T15:09:57.915Z</time></trkpt><trkpt lat="42.6227617" lon="2.9963867"><ele>4.6</ele><time>2026-04-05T15:09:58.915Z</time></trkpt><trkpt lat="42.6228633" lon="2.9963283"><ele>4.8</ele><time>2026-04-05T15:09:59.914Z</time></trkpt><trkpt lat="42.6229617" lon="2.99627"><ele>5.0</ele><time>2026-04-05T15:10:00.915Z</time></trkpt><trkpt lat="42.623055" lon="2.9962033"><ele>5.0</ele><time>2026-04-05T15:10:01.915Z</time></trkpt><trkpt lat="42.6231383" lon="2.9961267"><ele>5.0</ele><time>2026-04-05T15:10:02.915Z</time></trkpt><trkpt lat="42.6232117" lon="2.9960583"><ele>5.0</ele><time>2026-04-05T15:10:03.915Z</time></trkpt><trkpt lat="42.6232717" lon="2.996005"><ele>5.0</ele><time>2026-04-05T15:10:04.915Z</time></trkpt><trkpt lat="42.62334" lon="2.995955"><ele>5.0</ele><time>2026-04-05T15:10:06.915Z</time></trkpt><trkpt lat="42.62341" lon="2.9959133"><ele>5.0</ele><time>2026-04-05T15:10:09.915Z</time></trkpt><trkpt lat="42.6234933" lon="2.9958933"><ele>5.0</ele><time>2026-04-05T15:10:11.915Z</time></trkpt><trkpt lat="42.623595" lon="2.9958483"><ele>5.0</ele><time>2026-04-05T15:10:13.915Z</time></trkpt><trkpt lat="42.623675" lon="2.9957533"><ele>5.0</ele><time>2026-04-05T15:10:15.915Z</time></trkpt><trkpt lat="42.623775" lon="2.9956517"><ele>5.0</ele><time>2026-04-05T15:10:17.915Z</time></trkpt><trkpt lat="42.6238417" lon="2.9956033"><ele>5.0</ele><time>2026-04-05T15:10:18.915Z</time></trkpt><trkpt lat="42.6239183" lon="2.9955583"><ele>4.8</ele><time>2026-04-05T15:10:19.914Z</time></trkpt><trkpt lat="42.6240017" lon="2.9955083"><ele>4.6</ele><time>2026-04-05T15:10:20.915Z</time></trkpt><trkpt lat="42.6240917" lon="2.9954533"><ele>4.4</ele><time>2026-04-05T15:10:21.915Z</time></trkpt><trkpt lat="42.6241833" lon="2.995385"><ele>4.2</ele><time>2026-04-05T15:10:22.915Z</time></trkpt><trkpt lat="42.62428" lon="2.995305"><ele>4.0</ele><time>2026-04-05T15:10:23.915Z</time></trkpt><trkpt lat="42.6243817" lon="2.9952133"><ele>4.25</ele><time>2026-04-05T15:10:24.915Z</time></trkpt><trkpt lat="42.62449" lon="2.9951167"><ele>4.5</ele><time>2026-04-05T15:10:25.914Z</time></trkpt><trkpt lat="42.6246017" lon="2.9950117"><ele>4.75</ele><time>2026-04-05T15:10:26.915Z</time></trkpt><trkpt lat="42.6247133" lon="2.994905"><ele>5.0</ele><time>2026-04-05T15:10:27.915Z</time></trkpt><trkpt lat="42.62482" lon="2.994805"><ele>5.25</ele><time>2026-04-05T15:10:28.915Z</time></trkpt><trkpt lat="42.6249267" lon="2.9947083"><ele>5.5</ele><time>2026-04-05T15:10:29.915Z</time></trkpt><trkpt lat="42.6250317" lon="2.9946117"><ele>5.75</ele><time>2026-04-05T15:10:30.915Z</time></trkpt><trkpt lat="42.625135" lon="2.9945133"><ele>6.0</ele><time>2026-04-05T15:10:31.915Z</time></trkpt><trkpt lat="42.6252333" lon="2.9944233"><ele>5.8</ele><time>2026-04-05T15:10:32.915Z</time></trkpt><trkpt lat="42.62532" lon="2.99434"><ele>5.6</ele><time>2026-04-05T15:10:33.914Z</time></trkpt><trkpt lat="42.6254017" lon="2.994265"><ele>5.4</ele><time>2026-04-05T15:10:34.915Z</time></trkpt><trkpt lat="42.6254717" lon="2.994195"><ele>5.2</ele><time>2026-04-05T15:10:35.914Z</time></trkpt><trkpt lat="42.6255333" lon="2.9941333"><ele>5.0</ele><time>2026-04-05T15:10:36.915Z</time></trkpt><trkpt lat="42.625705" lon="2.9939983"><ele>5.0</ele><time>2026-04-05T15:10:39.914Z</time></trkpt><trkpt lat="42.6257717" lon="2.9939867"><ele>5.0</ele><time>2026-04-05T15:10:40.915Z</time></trkpt><trkpt lat="42.6258467" lon="2.9940033"><ele>5.0</ele><time>2026-04-05T15:10:41.915Z</time></trkpt><trkpt lat="42.6259283" lon="2.9940067"><ele>5.0</ele><time>2026-04-05T15:10:42.915Z</time></trkpt><trkpt lat="42.62601" lon="2.993985"><ele>5.0</ele><time>2026-04-05T15:10:43.915Z</time></trkpt><trkpt lat="42.6260883" lon="2.9939367"><ele>5.0</ele><time>2026-04-05T15:10:44.915Z</time></trkpt><trkpt lat="42.6261533" lon="2.9938583"><ele>5.0</ele><time>2026-04-05T15:10:45.914Z</time></trkpt><trkpt lat="42.6262" lon="2.9937583"><ele>5.0</ele><time>2026-04-05T15:10:46.915Z</time></trkpt><trkpt lat="42.6262283" lon="2.9936467"><ele>5.0</ele><time>2026-04-05T15:10:47.915Z</time></trkpt><trkpt lat="42.6262433" lon="2.9935167"><ele>5.0</ele><time>2026-04-05T15:10:48.915Z</time></trkpt><trkpt lat="42.6262733" lon="2.9933817"><ele>5.0</ele><time>2026-04-05T15:10:49.915Z</time></trkpt><trkpt lat="42.6263283" lon="2.99324"><ele>4.75</ele><time>2026-04-05T15:10:50.915Z</time></trkpt><trkpt lat="42.626405" lon="2.993095"><ele>4.5</ele><time>2026-04-05T15:10:51.915Z</time></trkpt><trkpt lat="42.626495" lon="2.9929483"><ele>4.25</ele><time>2026-04-05T15:10:52.915Z</time></trkpt><trkpt lat="42.626595" lon="2.9928"><ele>4.0</ele><time>2026-04-05T15:10:53.915Z</time></trkpt><trkpt lat="42.626705" lon="2.99265"><ele>4.0</ele><time>2026-04-05T15:10:54.915Z</time></trkpt><trkpt lat="42.6270783" lon="2.9921733"><ele>4.0</ele><time>2026-04-05T15:10:57.915Z</time></trkpt><trkpt lat="42.62723" lon="2.9920283"><ele>4.0</ele><time>2026-04-05T15:10:58.915Z</time></trkpt><trkpt lat="42.6273967" lon="2.9918983"><ele>4.0</ele><time>2026-04-05T15:10:59.915Z</time></trkpt><trkpt lat="42.627575" lon="2.991785"><ele>4.0</ele><time>2026-04-05T15:11:00.915Z</time></trkpt><trkpt lat="42.6277617" lon="2.99168"><ele>4.0</ele><time>2026-04-05T15:11:01.915Z</time></trkpt><trkpt lat="42.6279533" lon="2.99158"><ele>4.0</ele><time>2026-04-05T15:11:02.915Z</time></trkpt><trkpt lat="42.62815" lon="2.9914833"><ele>3.6666666666666665</ele><time>2026-04-05T15:11:03.914Z</time></trkpt><trkpt lat="42.62835" lon="2.9913917"><ele>3.333333333333333</ele><time>2026-04-05T15:11:04.915Z</time></trkpt><trkpt lat="42.6285533" lon="2.9912967"><ele>3.0</ele><time>2026-04-05T15:11:05.915Z</time></trkpt><trkpt lat="42.6287583" lon="2.991205"><ele>3.0</ele><time>2026-04-05T15:11:06.915Z</time></trkpt><trkpt lat="42.6289667" lon="2.99111"><ele>3.0</ele><time>2026-04-05T15:11:07.914Z</time></trkpt><trkpt lat="42.629175" lon="2.991015"><ele>3.0</ele><time>2026-04-05T15:11:08.915Z</time></trkpt><trkpt lat="42.629385" lon="2.9909167"><ele>3.5</ele><time>2026-04-05T15:11:09.914Z</time></trkpt><trkpt lat="42.6295967" lon="2.9908167"><ele>4.0</ele><time>2026-04-05T15:11:10.914Z</time></trkpt><trkpt lat="42.6298117" lon="2.9907167"><ele>4.0</ele><time>2026-04-05T15:11:11.915Z</time></trkpt><trkpt lat="42.6300267" lon="2.9906117"><ele>4.0</ele><time>2026-04-05T15:11:12.915Z</time></trkpt><trkpt lat="42.63024" lon="2.9905083"><ele>4.0</ele><time>2026-04-05T15:11:13.915Z</time></trkpt><trkpt lat="42.6304517" lon="2.9904033"><ele>4.0</ele><time>2026-04-05T15:11:14.915Z</time></trkpt><trkpt lat="42.6306633" lon="2.9902967"><ele>4.0</ele><time>2026-04-05T15:11:15.915Z</time></trkpt><trkpt lat="42.6308733" lon="2.9901983"><ele>4.0</ele><time>2026-04-05T15:11:16.915Z</time></trkpt><trkpt lat="42.6310833" lon="2.990105"><ele>4.0</ele><time>2026-04-05T15:11:17.915Z</time></trkpt><trkpt lat="42.6312933" lon="2.9900067"><ele>4.0</ele><time>2026-04-05T15:11:18.915Z</time></trkpt><trkpt lat="42.6314983" lon="2.9899083"><ele>4.0</ele><time>2026-04-05T15:11:19.915Z</time></trkpt><trkpt lat="42.631705" lon="2.989815"><ele>4.0</ele><time>2026-04-05T15:11:20.915Z</time></trkpt><trkpt lat="42.6319067" lon="2.9897233"><ele>4.0</ele><time>2026-04-05T15:11:21.914Z</time></trkpt><trkpt lat="42.6321067" lon="2.989625"><ele>4.0</ele><time>2026-04-05T15:11:22.915Z</time></trkpt><trkpt lat="42.6323017" lon="2.98953"><ele>4.0</ele><time>2026-04-05T15:11:23.915Z</time></trkpt><trkpt lat="42.6324867" lon="2.9894433"><ele>4.0</ele><time>2026-04-05T15:11:24.915Z</time></trkpt><trkpt lat="42.6326583" lon="2.98936"><ele>4.0</ele><time>2026-04-05T15:11:25.915Z</time></trkpt><trkpt lat="42.6328367" lon="2.9892817"><ele>4.0</ele><time>2026-04-05T15:11:26.915Z</time></trkpt><trkpt lat="42.63299" lon="2.9892017"><ele>3.333333333333333</ele><time>2026-04-05T15:11:27.915Z</time></trkpt><trkpt lat="42.6331333" lon="2.9891133"><ele>2.6666666666666665</ele><time>2026-04-05T15:11:28.915Z</time></trkpt><trkpt lat="42.6332717" lon="2.9890133"><ele>2.0</ele><time>2026-04-05T15:11:29.915Z</time></trkpt><trkpt lat="42.6334017" lon="2.9888967"><ele>3.0</ele><time>2026-04-05T15:11:30.915Z</time></trkpt><trkpt lat="42.63376" lon="2.9884667"><ele>2.8</ele><time>2026-04-05T15:11:33.915Z</time></trkpt><trkpt lat="42.6338617" lon="2.9883333"><ele>2.5999999999999996</ele><time>2026-04-05T15:11:34.915Z</time></trkpt><trkpt lat="42.63395" lon="2.98823"><ele>2.4000000000000004</ele><time>2026-04-05T15:11:35.914Z</time></trkpt><trkpt lat="42.6340183" lon="2.9881533"><ele>2.2</ele><time>2026-04-05T15:11:36.914Z</time></trkpt><trkpt lat="42.6340733" lon="2.9880917"><ele>2.0</ele><time>2026-04-05T15:11:37.915Z</time></trkpt><trkpt lat="42.6341767" lon="2.9880167"><ele>1.9999999999999998</ele><time>2026-04-05T15:11:39.915Z</time></trkpt><trkpt lat="42.6342483" lon="2.9879983"><ele>2.0</ele><time>2026-04-05T15:11:40.915Z</time></trkpt><trkpt lat="42.6343233" lon="2.9879767"><ele>2.0</ele><time>2026-04-05T15:11:41.914Z</time></trkpt><trkpt lat="42.6343933" lon="2.9879367"><ele>2.0</ele><time>2026-04-05T15:11:42.915Z</time></trkpt><trkpt lat="42.63444" lon="2.9878617"><ele>1.9999999999999998</ele><time>2026-04-05T15:11:43.915Z</time></trkpt><trkpt lat="42.6344533" lon="2.9877633"><ele>2.0</ele><time>2026-04-05T15:11:44.914Z</time></trkpt><trkpt lat="42.6344317" lon="2.9876583"><ele>2.0</ele><time>2026-04-05T15:11:45.915Z</time></trkpt><trkpt lat="42.6343717" lon="2.9875667"><ele>2.0</ele><time>2026-04-05T15:11:46.915Z</time></trkpt><trkpt lat="42.63429" lon="2.9875167"><ele>2.0</ele><time>2026-04-05T15:11:47.914Z</time></trkpt><trkpt lat="42.6342" lon="2.9874567"><ele>2.0</ele><time>2026-04-05T15:11:48.915Z</time></trkpt><trkpt lat="42.634105" lon="2.987365"><ele>2.0</ele><time>2026-04-05T15:11:49.915Z</time></trkpt><trkpt lat="42.6340183" lon="2.9872417"><ele>2.5</ele><time>2026-04-05T15:11:50.915Z</time></trkpt><trkpt lat="42.6339333" lon="2.9870883"><ele>3.0</ele><time>2026-04-05T15:11:51.914Z</time></trkpt><trkpt lat="42.6338567" lon="2.9869183"><ele>3.5</ele><time>2026-04-05T15:11:52.915Z</time></trkpt><trkpt lat="42.6337883" lon="2.9867283"><ele>4.0</ele><time>2026-04-05T15:11:53.914Z</time></trkpt><trkpt lat="42.6337283" lon="2.9865217"><ele>4.0</ele><time>2026-04-05T15:11:54.915Z</time></trkpt><trkpt lat="42.6336883" lon="2.9862983"><ele>4.0</ele><time>2026-04-05T15:11:55.914Z</time></trkpt><trkpt lat="42.63367" lon="2.9860583"><ele>4.0</ele><time>2026-04-05T15:11:56.915Z</time></trkpt><trkpt lat="42.6336583" lon="2.9858133"><ele>4.0</ele><time>2026-04-05T15:11:57.915Z</time></trkpt><trkpt lat="42.6336517" lon="2.9855633"><ele>4.0</ele><time>2026-04-05T15:11:58.915Z</time></trkpt><trkpt lat="42.6336433" lon="2.985305"><ele>4.0</ele><time>2026-04-05T15:11:59.915Z</time></trkpt><trkpt lat="42.633635" lon="2.98504"><ele>4.333333333333333</ele><time>2026-04-05T15:12:00.915Z</time></trkpt><trkpt lat="42.6336333" lon="2.9847683"><ele>4.666666666666667</ele><time>2026-04-05T15:12:01.915Z</time></trkpt><trkpt lat="42.6336333" lon="2.9844933"><ele>5.0</ele><time>2026-04-05T15:12:02.915Z</time></trkpt><trkpt lat="42.6336367" lon="2.9842117"><ele>5.0</ele><time>2026-04-05T15:12:03.915Z</time></trkpt><trkpt lat="42.6336483" lon="2.9839267"><ele>5.0</ele><time>2026-04-05T15:12:04.915Z</time></trkpt><trkpt lat="42.6336633" lon="2.98364"><ele>5.0</ele><time>2026-04-05T15:12:05.915Z</time></trkpt><trkpt lat="42.6336817" lon="2.9833617"><ele>5.0</ele><time>2026-04-05T15:12:06.914Z</time></trkpt><trkpt lat="42.6337" lon="2.9831"><ele>5.0</ele><time>2026-04-05T15:12:07.914Z</time></trkpt><trkpt lat="42.6337167" lon="2.9828483"><ele>5.0</ele><time>2026-04-05T15:12:08.915Z</time></trkpt><trkpt lat="42.6337317" lon="2.9826067"><ele>4.666666666666667</ele><time>2026-04-05T15:12:09.914Z</time></trkpt><trkpt lat="42.6337483" lon="2.9823767"><ele>4.333333333333333</ele><time>2026-04-05T15:12:10.915Z</time></trkpt><trkpt lat="42.633765" lon="2.98216"><ele>4.0</ele><time>2026-04-05T15:12:11.915Z</time></trkpt><trkpt lat="42.6337817" lon="2.9819567"><ele>4.0</ele><time>2026-04-05T15:12:12.915Z</time></trkpt><trkpt lat="42.6338" lon="2.981765"><ele>4.0</ele><time>2026-04-05T15:12:13.915Z</time></trkpt><trkpt lat="42.633825" lon="2.9815967"><ele>4.0</ele><time>2026-04-05T15:12:14.914Z</time></trkpt><trkpt lat="42.6338317" lon="2.9814533"><ele>4.0</ele><time>2026-04-05T15:12:15.915Z</time></trkpt><trkpt lat="42.6338617" lon="2.9813317"><ele>4.166666666666666</ele><time>2026-04-05T15:12:16.915Z</time></trkpt><trkpt lat="42.6339017" lon="2.9812367"><ele>4.333333333333333</ele><time>2026-04-05T15:12:17.914Z</time></trkpt><trkpt lat="42.6339533" lon="2.9811583"><ele>4.5</ele><time>2026-04-05T15:12:18.914Z</time></trkpt><trkpt lat="42.634" lon="2.981075"><ele>4.666666666666667</ele><time>2026-04-05T15:12:19.915Z</time></trkpt><trkpt lat="42.63403" lon="2.9809683"><ele>4.833333333333334</ele><time>2026-04-05T15:12:20.915Z</time></trkpt><trkpt lat="42.634025" lon="2.9808317"><ele>5.0</ele><time>2026-04-05T15:12:21.915Z</time></trkpt><trkpt lat="42.6340017" lon="2.980675"><ele>5.25</ele><time>2026-04-05T15:12:22.915Z</time></trkpt><trkpt lat="42.63399" lon="2.9805033"><ele>5.5</ele><time>2026-04-05T15:12:23.914Z</time></trkpt><trkpt lat="42.634" lon="2.9803167"><ele>5.75</ele><time>2026-04-05T15:12:24.915Z</time></trkpt><trkpt lat="42.634025" lon="2.98012"><ele>6.0</ele><time>2026-04-05T15:12:25.915Z</time></trkpt><trkpt lat="42.634055" lon="2.9799117"><ele>6.0</ele><time>2026-04-05T15:12:26.915Z</time></trkpt><trkpt lat="42.6340833" lon="2.9796917"><ele>6.0</ele><time>2026-04-05T15:12:27.915Z</time></trkpt><trkpt lat="42.6341117" lon="2.9794617"><ele>6.0</ele><time>2026-04-05T15:12:28.914Z</time></trkpt><trkpt lat="42.634145" lon="2.9792233"><ele>5.333333333333333</ele><time>2026-04-05T15:12:29.915Z</time></trkpt><trkpt lat="42.6341783" lon="2.9789733"><ele>4.666666666666666</ele><time>2026-04-05T15:12:30.915Z</time></trkpt><trkpt lat="42.6342117" lon="2.9787183"><ele>4.0</ele><time>2026-04-05T15:12:31.915Z</time></trkpt><trkpt lat="42.63425" lon="2.9784567"><ele>4.666666666666666</ele><time>2026-04-05T15:12:32.915Z</time></trkpt><trkpt lat="42.634295" lon="2.9781917"><ele>5.333333333333333</ele><time>2026-04-05T15:12:33.915Z</time></trkpt><trkpt lat="42.6343467" lon="2.9779233"><ele>6.0</ele><time>2026-04-05T15:12:34.915Z</time></trkpt><trkpt lat="42.6344067" lon="2.97765"><ele>5.666666666666667</ele><time>2026-04-05T15:12:35.915Z</time></trkpt><trkpt lat="42.6344783" lon="2.97738"><ele>5.333333333333334</ele><time>2026-04-05T15:12:36.915Z</time></trkpt><trkpt lat="42.634565" lon="2.97711"><ele>5.0</ele><time>2026-04-05T15:12:37.915Z</time></trkpt><trkpt lat="42.634665" lon="2.9768417"><ele>4.666666666666667</ele><time>2026-04-05T15:12:38.915Z</time></trkpt><trkpt lat="42.6347817" lon="2.976585"><ele>4.333333333333333</ele><time>2026-04-05T15:12:39.915Z</time></trkpt><trkpt lat="42.6349217" lon="2.9763433"><ele>4.0</ele><time>2026-04-05T15:12:40.915Z</time></trkpt><trkpt lat="42.6350817" lon="2.9761183"><ele>4.0</ele><time>2026-04-05T15:12:41.915Z</time></trkpt><trkpt lat="42.6352583" lon="2.9759183"><ele>4.0</ele><time>2026-04-05T15:12:42.915Z</time></trkpt><trkpt lat="42.6358733" lon="2.9754883"><ele>6.5</ele><time>2026-04-05T15:12:45.914Z</time></trkpt><trkpt lat="42.6361017" lon="2.9754083"><ele>9.0</ele><time>2026-04-05T15:12:46.915Z</time></trkpt><trkpt lat="42.63633" lon="2.9753333"><ele>9.0</ele><time>2026-04-05T15:12:47.915Z</time></trkpt><trkpt lat="42.6365517" lon="2.9752383"><ele>9.0</ele><time>2026-04-05T15:12:48.914Z</time></trkpt><trkpt lat="42.637175" lon="2.974805"><ele>9.5</ele><time>2026-04-05T15:12:51.914Z</time></trkpt><trkpt lat="42.6373767" lon="2.9746383"><ele>10.0</ele><time>2026-04-05T15:12:52.915Z</time></trkpt><trkpt lat="42.6375817" lon="2.97447"><ele>10.0</ele><time>2026-04-05T15:12:53.915Z</time></trkpt><trkpt lat="42.637785" lon="2.9743033"><ele>10.0</ele><time>2026-04-05T15:12:54.915Z</time></trkpt><trkpt lat="42.6379967" lon="2.9741567"><ele>9.666666666666668</ele><time>2026-04-05T15:12:55.915Z</time></trkpt><trkpt lat="42.63821" lon="2.974045"><ele>9.333333333333334</ele><time>2026-04-05T15:12:56.914Z</time></trkpt><trkpt lat="42.638415" lon="2.9739583"><ele>9.0</ele><time>2026-04-05T15:12:57.915Z</time></trkpt><trkpt lat="42.6386083" lon="2.9738833"><ele>9.333333333333334</ele><time>2026-04-05T15:12:58.915Z</time></trkpt><trkpt lat="42.63878" lon="2.9738167"><ele>9.666666666666668</ele><time>2026-04-05T15:12:59.915Z</time></trkpt><trkpt lat="42.63894" lon="2.973755"><ele>10.0</ele><time>2026-04-05T15:13:00.915Z</time></trkpt><trkpt lat="42.6393233" lon="2.973605"><ele>10.0</ele><time>2026-04-05T15:13:03.915Z</time></trkpt><trkpt lat="42.6394183" lon="2.9735717"><ele>10.0</ele><time>2026-04-05T15:13:04.914Z</time></trkpt><trkpt lat="42.639505" lon="2.973555"><ele>10.0</ele><time>2026-04-05T15:13:05.915Z</time></trkpt><trkpt lat="42.6395883" lon="2.9735683"><ele>10.0</ele><time>2026-04-05T15:13:06.915Z</time></trkpt><trkpt lat="42.63966" lon="2.9736167"><ele>10.0</ele><time>2026-04-05T15:13:07.915Z</time></trkpt><trkpt lat="42.6397267" lon="2.973655"><ele>10.0</ele><time>2026-04-05T15:13:08.915Z</time></trkpt><trkpt lat="42.6397983" lon="2.9736833"><ele>9.8</ele><time>2026-04-05T15:13:09.915Z</time></trkpt><trkpt lat="42.6398617" lon="2.9736767"><ele>9.6</ele><time>2026-04-05T15:13:10.915Z</time></trkpt><trkpt lat="42.6399483" lon="2.9735417"><ele>9.4</ele><time>2026-04-05T15:13:12.915Z</time></trkpt><trkpt lat="42.6399867" lon="2.9734233"><ele>9.2</ele><time>2026-04-05T15:13:13.915Z</time></trkpt><trkpt lat="42.6400333" lon="2.9732867"><ele>9.0</ele><time>2026-04-05T15:13:14.915Z</time></trkpt><trkpt lat="42.6400867" lon="2.9731417"><ele>9.0</ele><time>2026-04-05T15:13:15.914Z</time></trkpt><trkpt lat="42.6401383" lon="2.972985"><ele>9.0</ele><time>2026-04-05T15:13:16.915Z</time></trkpt><trkpt lat="42.64019" lon="2.9728183"><ele>9.0</ele><time>2026-04-05T15:13:17.915Z</time></trkpt><trkpt lat="42.6402467" lon="2.9726433"><ele>9.0</ele><time>2026-04-05T15:13:18.914Z</time></trkpt><trkpt lat="42.6404967" lon="2.9721183"><ele>9.333333333333334</ele><time>2026-04-05T15:13:21.915Z</time></trkpt><trkpt lat="42.6406133" lon="2.9719517"><ele>9.666666666666668</ele><time>2026-04-05T15:13:22.915Z</time></trkpt><trkpt lat="42.640735" lon="2.9717817"><ele>10.0</ele><time>2026-04-05T15:13:23.915Z</time></trkpt><trkpt lat="42.6408617" lon="2.9716067"><ele>10.0</ele><time>2026-04-05T15:13:24.915Z</time></trkpt><trkpt lat="42.641245" lon="2.97104"><ele>10.0</ele><time>2026-04-05T15:13:27.914Z</time></trkpt><trkpt lat="42.6413783" lon="2.970845"><ele>10.0</ele><time>2026-04-05T15:13:28.914Z</time></trkpt><trkpt lat="42.641515" lon="2.9706483"><ele>10.0</ele><time>2026-04-05T15:13:29.915Z</time></trkpt><trkpt lat="42.6416583" lon="2.9704483"><ele>10.0</ele><time>2026-04-05T15:13:30.915Z</time></trkpt><trkpt lat="42.6418033" lon="2.97025"><ele>10.0</ele><time>2026-04-05T15:13:31.914Z</time></trkpt><trkpt lat="42.641955" lon="2.9700533"><ele>10.0</ele><time>2026-04-05T15:13:32.915Z</time></trkpt><trkpt lat="42.6421067" lon="2.96985"><ele>10.333333333333334</ele><time>2026-04-05T15:13:33.915Z</time></trkpt><trkpt lat="42.6422567" lon="2.9696417"><ele>10.666666666666666</ele><time>2026-04-05T15:13:34.915Z</time></trkpt><trkpt lat="42.6424083" lon="2.96943"><ele>11.0</ele><time>2026-04-05T15:13:35.915Z</time></trkpt><trkpt lat="42.6425583" lon="2.9692233"><ele>11.0</ele><time>2026-04-05T15:13:36.915Z</time></trkpt><trkpt lat="42.642705" lon="2.96903"><ele>11.0</ele><time>2026-04-05T15:13:37.915Z</time></trkpt><trkpt lat="42.6428517" lon="2.96885"><ele>11.0</ele><time>2026-04-05T15:13:38.915Z</time></trkpt><trkpt lat="42.6430133" lon="2.96869"><ele>11.0</ele><time>2026-04-05T15:13:39.914Z</time></trkpt><trkpt lat="42.6431917" lon="2.9685617"><ele>11.0</ele><time>2026-04-05T15:13:40.915Z</time></trkpt><trkpt lat="42.643385" lon="2.9684583"><ele>11.0</ele><time>2026-04-05T15:13:41.915Z</time></trkpt><trkpt lat="42.6435833" lon="2.968365"><ele>10.333333333333332</ele><time>2026-04-05T15:13:42.915Z</time></trkpt><trkpt lat="42.64378" lon="2.96827"><ele>9.666666666666666</ele><time>2026-04-05T15:13:43.914Z</time></trkpt><trkpt lat="42.6439733" lon="2.968175"><ele>9.0</ele><time>2026-04-05T15:13:44.915Z</time></trkpt><trkpt lat="42.6441617" lon="2.9680833"><ele>9.0</ele><time>2026-04-05T15:13:45.915Z</time></trkpt><trkpt lat="42.6443467" lon="2.9679983"><ele>9.0</ele><time>2026-04-05T15:13:46.915Z</time></trkpt><trkpt lat="42.644525" lon="2.9679167"><ele>9.0</ele><time>2026-04-05T15:13:47.915Z</time></trkpt><trkpt lat="42.644685" lon="2.9678483"><ele>9.666666666666666</ele><time>2026-04-05T15:13:48.915Z</time></trkpt><trkpt lat="42.6448433" lon="2.9677767"><ele>10.333333333333332</ele><time>2026-04-05T15:13:49.914Z</time></trkpt><trkpt lat="42.644995" lon="2.96771"><ele>11.0</ele><time>2026-04-05T15:13:50.915Z</time></trkpt><trkpt lat="42.64514" lon="2.96765"><ele>11.0</ele><time>2026-04-05T15:13:51.915Z</time></trkpt><trkpt lat="42.645275" lon="2.9676"><ele>11.0</ele><time>2026-04-05T15:13:52.914Z</time></trkpt><trkpt lat="42.6453917" lon="2.9675583"><ele>11.0</ele><time>2026-04-05T15:13:53.915Z</time></trkpt><trkpt lat="42.6454867" lon="2.9675233"><ele>11.0</ele><time>2026-04-05T15:13:54.915Z</time></trkpt><trkpt lat="42.64557" lon="2.9674967"><ele>11.0</ele><time>2026-04-05T15:13:55.914Z</time></trkpt><trkpt lat="42.645645" lon="2.9674833"><ele>11.0</ele><time>2026-04-05T15:13:56.915Z</time></trkpt><trkpt lat="42.6457167" lon="2.967495"><ele>11.0</ele><time>2026-04-05T15:13:57.915Z</time></trkpt><trkpt lat="42.6457817" lon="2.9675283"><ele>11.0</ele><time>2026-04-05T15:13:58.915Z</time></trkpt><trkpt lat="42.64585" lon="2.9675633"><ele>11.0</ele><time>2026-04-05T15:13:59.915Z</time></trkpt><trkpt lat="42.6459233" lon="2.967575"><ele>11.0</ele><time>2026-04-05T15:14:00.915Z</time></trkpt><trkpt lat="42.646" lon="2.967525"><ele>11.0</ele><time>2026-04-05T15:14:01.915Z</time></trkpt><trkpt lat="42.64606" lon="2.9674417"><ele>11.0</ele><time>2026-04-05T15:14:02.915Z</time></trkpt><trkpt lat="42.6461033" lon="2.9673167"><ele>11.0</ele><time>2026-04-05T15:14:03.915Z</time></trkpt><trkpt lat="42.6461567" lon="2.9671617"><ele>11.0</ele><time>2026-04-05T15:14:04.914Z</time></trkpt><trkpt lat="42.6462383" lon="2.9670133"><ele>11.0</ele><time>2026-04-05T15:14:05.915Z</time></trkpt><trkpt lat="42.6463433" lon="2.9668733"><ele>11.0</ele><time>2026-04-05T15:14:06.915Z</time></trkpt><trkpt lat="42.6464567" lon="2.9667283"><ele>11.0</ele><time>2026-04-05T15:14:07.915Z</time></trkpt><trkpt lat="42.6465733" lon="2.9665783"><ele>11.0</ele><time>2026-04-05T15:14:08.915Z</time></trkpt><trkpt lat="42.646695" lon="2.9664217"><ele>11.0</ele><time>2026-04-05T15:14:09.915Z</time></trkpt><trkpt lat="42.6468233" lon="2.9662617"><ele>11.0</ele><time>2026-04-05T15:14:10.915Z</time></trkpt><trkpt lat="42.6469583" lon="2.9661"><ele>11.0</ele><time>2026-04-05T15:14:11.915Z</time></trkpt><trkpt lat="42.6470983" lon="2.965935"><ele>10.333333333333332</ele><time>2026-04-05T15:14:12.915Z</time></trkpt><trkpt lat="42.6472433" lon="2.965765"><ele>9.666666666666666</ele><time>2026-04-05T15:14:13.915Z</time></trkpt><trkpt lat="42.64739" lon="2.9655933"><ele>9.0</ele><time>2026-04-05T15:14:14.915Z</time></trkpt><trkpt lat="42.64754" lon="2.965415"><ele>9.0</ele><time>2026-04-05T15:14:15.915Z</time></trkpt><trkpt lat="42.6476917" lon="2.9652333"><ele>9.0</ele><time>2026-04-05T15:14:16.915Z</time></trkpt><trkpt lat="42.6478467" lon="2.9650467"><ele>9.0</ele><time>2026-04-05T15:14:17.915Z</time></trkpt><trkpt lat="42.6480067" lon="2.9648617"><ele>10.0</ele><time>2026-04-05T15:14:18.914Z</time></trkpt><trkpt lat="42.6481733" lon="2.9646783"><ele>11.0</ele><time>2026-04-05T15:14:19.915Z</time></trkpt><trkpt lat="42.648345" lon="2.9644967"><ele>12.0</ele><time>2026-04-05T15:14:20.915Z</time></trkpt><trkpt lat="42.6485233" lon="2.964315"><ele>10.5</ele><time>2026-04-05T15:14:21.914Z</time></trkpt><trkpt lat="42.6487083" lon="2.9641367"><ele>9.0</ele><time>2026-04-05T15:14:22.915Z</time></trkpt><trkpt lat="42.6488967" lon="2.96396"><ele>9.0</ele><time>2026-04-05T15:14:23.915Z</time></trkpt><trkpt lat="42.6490883" lon="2.96378"><ele>9.0</ele><time>2026-04-05T15:14:24.915Z</time></trkpt><trkpt lat="42.6492817" lon="2.9635983"><ele>9.0</ele><time>2026-04-05T15:14:25.915Z</time></trkpt><trkpt lat="42.649475" lon="2.9634183"><ele>9.0</ele><time>2026-04-05T15:14:26.915Z</time></trkpt><trkpt lat="42.6496667" lon="2.9632317"><ele>9.5</ele><time>2026-04-05T15:14:27.915Z</time></trkpt><trkpt lat="42.64986" lon="2.9630433"><ele>10.0</ele><time>2026-04-05T15:14:28.915Z</time></trkpt><trkpt lat="42.6500583" lon="2.96286"><ele>10.0</ele><time>2026-04-05T15:14:29.915Z</time></trkpt><trkpt lat="42.65026" lon="2.9626817"><ele>10.0</ele><time>2026-04-05T15:14:30.915Z</time></trkpt><trkpt lat="42.6504683" lon="2.9625117"><ele>11.0</ele><time>2026-04-05T15:14:31.914Z</time></trkpt><trkpt lat="42.6506783" lon="2.962345"><ele>12.0</ele><time>2026-04-05T15:14:32.915Z</time></trkpt><trkpt lat="42.6508867" lon="2.9621917"><ele>12.0</ele><time>2026-04-05T15:14:33.915Z</time></trkpt><trkpt lat="42.6510883" lon="2.96205"><ele>12.0</ele><time>2026-04-05T15:14:34.915Z</time></trkpt><trkpt lat="42.6512783" lon="2.9619167"><ele>12.0</ele><time>2026-04-05T15:14:35.915Z</time></trkpt><trkpt lat="42.651455" lon="2.961795"><ele>12.333333333333332</ele><time>2026-04-05T15:14:36.915Z</time></trkpt><trkpt lat="42.6516167" lon="2.9616783"><ele>12.666666666666666</ele><time>2026-04-05T15:14:37.915Z</time></trkpt><trkpt lat="42.6517667" lon="2.961565"><ele>13.0</ele><time>2026-04-05T15:14:38.914Z</time></trkpt><trkpt lat="42.6519133" lon="2.9614417"><ele>12.666666666666666</ele><time>2026-04-05T15:14:39.914Z</time></trkpt><trkpt lat="42.6520633" lon="2.96131"><ele>12.333333333333332</ele><time>2026-04-05T15:14:40.915Z</time></trkpt><trkpt lat="42.6522183" lon="2.9611783"><ele>12.0</ele><time>2026-04-05T15:14:41.914Z</time></trkpt><trkpt lat="42.6523767" lon="2.961045"><ele>12.0</ele><time>2026-04-05T15:14:42.915Z</time></trkpt><trkpt lat="42.6525371" lon="2.9609061"><ele>12.0</ele><time>2026-04-05T15:14:43.915Z</time></trkpt><trkpt lat="42.6527007" lon="2.9607621"><ele>12.0</ele><time>2026-04-05T15:14:44.915Z</time></trkpt><trkpt lat="42.6528656" lon="2.9606082"><ele>12.0</ele><time>2026-04-05T15:14:45.915Z</time></trkpt><trkpt lat="42.6530334" lon="2.9604503"><ele>12.0</ele><time>2026-04-05T15:14:46.915Z</time></trkpt><trkpt lat="42.6532098" lon="2.9602964"><ele>12.0</ele><time>2026-04-05T15:14:47.915Z</time></trkpt><trkpt lat="42.6533949" lon="2.9601437"><ele>12.0</ele><time>2026-04-05T15:14:48.915Z</time></trkpt><trkpt lat="42.6535806" lon="2.9599839"><ele>12.0</ele><time>2026-04-05T15:14:49.915Z</time></trkpt><trkpt lat="42.6537602" lon="2.9598268"><ele>12.0</ele><time>2026-04-05T15:14:50.914Z</time></trkpt><trkpt lat="42.6539337" lon="2.9596775"><ele>12.0</ele><time>2026-04-05T15:14:51.915Z</time></trkpt><trkpt lat="42.6540983" lon="2.9595367"><ele>12.0</ele><time>2026-04-05T15:14:52.914Z</time></trkpt><trkpt lat="42.6542522" lon="2.9594073"><ele>12.0</ele><time>2026-04-05T15:14:53.915Z</time></trkpt><trkpt lat="42.6543985" lon="2.9592871"><ele>11.666666666666666</ele><time>2026-04-05T15:14:54.915Z</time></trkpt><trkpt lat="42.6545439" lon="2.9591712"><ele>11.333333333333332</ele><time>2026-04-05T15:14:55.915Z</time></trkpt><trkpt lat="42.6546944" lon="2.959051"><ele>11.0</ele><time>2026-04-05T15:14:56.914Z</time></trkpt><trkpt lat="42.6548478" lon="2.958924"><ele>11.0</ele><time>2026-04-05T15:14:57.915Z</time></trkpt><trkpt lat="42.6550014" lon="2.9587825"><ele>11.0</ele><time>2026-04-05T15:14:58.915Z</time></trkpt><trkpt lat="42.6551454" lon="2.9586329"><ele>11.0</ele><time>2026-04-05T15:14:59.914Z</time></trkpt><trkpt lat="42.655274" lon="2.9584867"><ele>11.0</ele><time>2026-04-05T15:15:00.915Z</time></trkpt><trkpt lat="42.6553846" lon="2.9583535"><ele>11.0</ele><time>2026-04-05T15:15:01.914Z</time></trkpt><trkpt lat="42.6554919" lon="2.95823"><ele>11.0</ele><time>2026-04-05T15:15:02.915Z</time></trkpt><trkpt lat="42.6555887" lon="2.9581372"><ele>11.0</ele><time>2026-04-05T15:15:03.915Z</time></trkpt><trkpt lat="42.6556742" lon="2.9580717"><ele>11.0</ele><time>2026-04-05T15:15:04.914Z</time></trkpt><trkpt lat="42.6557479" lon="2.958013"><ele>11.0</ele><time>2026-04-05T15:15:05.914Z</time></trkpt><trkpt lat="42.6558072" lon="2.9579361"><ele>11.0</ele><time>2026-04-05T15:15:06.915Z</time></trkpt><trkpt lat="42.6558445" lon="2.9578313"><ele>11.0</ele><time>2026-04-05T15:15:07.915Z</time></trkpt><trkpt lat="42.6558612" lon="2.9576969"><ele>11.0</ele><time>2026-04-05T15:15:08.915Z</time></trkpt><trkpt lat="42.6558752" lon="2.9575406"><ele>11.0</ele><time>2026-04-05T15:15:09.915Z</time></trkpt><trkpt lat="42.6559103" lon="2.9573717"><ele>11.0</ele><time>2026-04-05T15:15:10.915Z</time></trkpt><trkpt lat="42.6559656" lon="2.9571937"><ele>11.0</ele><time>2026-04-05T15:15:11.915Z</time></trkpt><trkpt lat="42.6560317" lon="2.9570067"><ele>11.0</ele><time>2026-04-05T15:15:12.915Z</time></trkpt><trkpt lat="42.6561067" lon="2.9568167"><ele>12.0</ele><time>2026-04-05T15:15:13.915Z</time></trkpt><trkpt lat="42.6561917" lon="2.956625"><ele>13.0</ele><time>2026-04-05T15:15:14.915Z</time></trkpt><trkpt lat="42.6562767" lon="2.9564283"><ele>14.0</ele><time>2026-04-05T15:15:15.915Z</time></trkpt><trkpt lat="42.6563617" lon="2.95623"><ele>14.0</ele><time>2026-04-05T15:15:16.915Z</time></trkpt><trkpt lat="42.6564467" lon="2.9560467"><ele>14.0</ele><time>2026-04-05T15:15:17.915Z</time></trkpt><trkpt lat="42.6565283" lon="2.955875"><ele>14.0</ele><time>2026-04-05T15:15:18.915Z</time></trkpt><trkpt lat="42.6566067" lon="2.95572"><ele>14.0</ele><time>2026-04-05T15:15:19.915Z</time></trkpt><trkpt lat="42.6566833" lon="2.9555867"><ele>14.0</ele><time>2026-04-05T15:15:20.915Z</time></trkpt><trkpt lat="42.65675" lon="2.9554767"><ele>13.999999999999998</ele><time>2026-04-05T15:15:21.915Z</time></trkpt><trkpt lat="42.6568133" lon="2.95538"><ele>13.999999999999998</ele><time>2026-04-05T15:15:22.915Z</time></trkpt><trkpt lat="42.6568767" lon="2.9553"><ele>14.0</ele><time>2026-04-05T15:15:23.914Z</time></trkpt><trkpt lat="42.6569467" lon="2.9552383"><ele>14.0</ele><time>2026-04-05T15:15:24.915Z</time></trkpt><trkpt lat="42.6570167" lon="2.9551867"><ele>14.0</ele><time>2026-04-05T15:15:25.915Z</time></trkpt><trkpt lat="42.6570817" lon="2.9551217"><ele>13.999999999999998</ele><time>2026-04-05T15:15:26.914Z</time></trkpt><trkpt lat="42.6571183" lon="2.9550083"><ele>13.999999999999998</ele><time>2026-04-05T15:15:27.914Z</time></trkpt><trkpt lat="42.6571617" lon="2.9548767"><ele>14.0</ele><time>2026-04-05T15:15:28.915Z</time></trkpt><trkpt lat="42.657225" lon="2.9547417"><ele>14.0</ele><time>2026-04-05T15:15:29.915Z</time></trkpt><trkpt lat="42.6573083" lon="2.954605"><ele>14.0</ele><time>2026-04-05T15:15:30.915Z</time></trkpt><trkpt lat="42.6574033" lon="2.9544683"><ele>14.0</ele><time>2026-04-05T15:15:31.914Z</time></trkpt><trkpt lat="42.657505" lon="2.9543283"><ele>14.0</ele><time>2026-04-05T15:15:32.915Z</time></trkpt><trkpt lat="42.6576133" lon="2.9541867"><ele>14.0</ele><time>2026-04-05T15:15:33.914Z</time></trkpt><trkpt lat="42.6577283" lon="2.954045"><ele>14.666666666666668</ele><time>2026-04-05T15:15:34.915Z</time></trkpt><trkpt lat="42.65785" lon="2.9538967"><ele>15.333333333333332</ele><time>2026-04-05T15:15:35.915Z</time></trkpt><trkpt lat="42.657975" lon="2.9537433"><ele>16.0</ele><time>2026-04-05T15:15:36.915Z</time></trkpt><trkpt lat="42.6581017" lon="2.953585"><ele>16.0</ele><time>2026-04-05T15:15:37.914Z</time></trkpt><trkpt lat="42.6582317" lon="2.953425"><ele>16.0</ele><time>2026-04-05T15:15:38.914Z</time></trkpt><trkpt lat="42.6583633" lon="2.9532617"><ele>16.0</ele><time>2026-04-05T15:15:39.915Z</time></trkpt><trkpt lat="42.6584917" lon="2.953105"><ele>16.333333333333332</ele><time>2026-04-05T15:15:40.915Z</time></trkpt><trkpt lat="42.658615" lon="2.9529583"><ele>16.666666666666668</ele><time>2026-04-05T15:15:41.914Z</time></trkpt><trkpt lat="42.6587317" lon="2.9528267"><ele>17.0</ele><time>2026-04-05T15:15:42.915Z</time></trkpt><trkpt lat="42.6588433" lon="2.9527033"><ele>17.5</ele><time>2026-04-05T15:15:43.915Z</time></trkpt><trkpt lat="42.6589517" lon="2.9526017"><ele>18.0</ele><time>2026-04-05T15:15:44.915Z</time></trkpt><trkpt lat="42.659055" lon="2.9525167"><ele>18.5</ele><time>2026-04-05T15:15:45.914Z</time></trkpt><trkpt lat="42.6591517" lon="2.9524433"><ele>19.0</ele><time>2026-04-05T15:15:46.915Z</time></trkpt><trkpt lat="42.6592333" lon="2.9523833"><ele>19.0</ele><time>2026-04-05T15:15:47.915Z</time></trkpt><trkpt lat="42.6593" lon="2.952335"><ele>19.0</ele><time>2026-04-05T15:15:48.915Z</time></trkpt><trkpt lat="42.65936" lon="2.9522883"><ele>19.0</ele><time>2026-04-05T15:15:49.914Z</time></trkpt><trkpt lat="42.6594167" lon="2.95224"><ele>19.0</ele><time>2026-04-05T15:15:50.915Z</time></trkpt><trkpt lat="42.6594783" lon="2.9521967"><ele>19.0</ele><time>2026-04-05T15:15:51.914Z</time></trkpt><trkpt lat="42.6595517" lon="2.95215"><ele>19.0</ele><time>2026-04-05T15:15:52.915Z</time></trkpt><trkpt lat="42.6596367" lon="2.9520967"><ele>19.0</ele><time>2026-04-05T15:15:53.915Z</time></trkpt><trkpt lat="42.659725" lon="2.9520417"><ele>19.0</ele><time>2026-04-05T15:15:54.915Z</time></trkpt><trkpt lat="42.6598117" lon="2.9519933"><ele>19.0</ele><time>2026-04-05T15:15:55.915Z</time></trkpt><trkpt lat="42.6598933" lon="2.9519517"><ele>19.0</ele><time>2026-04-05T15:15:56.915Z</time></trkpt><trkpt lat="42.6599717" lon="2.9519233"><ele>19.0</ele><time>2026-04-05T15:15:57.914Z</time></trkpt><trkpt lat="42.66005" lon="2.9519067"><ele>19.0</ele><time>2026-04-05T15:15:58.915Z</time></trkpt><trkpt lat="42.660125" lon="2.9519067"><ele>19.0</ele><time>2026-04-05T15:15:59.915Z</time></trkpt><trkpt lat="42.6601983" lon="2.95192"><ele>19.0</ele><time>2026-04-05T15:16:00.915Z</time></trkpt><trkpt lat="42.6602717" lon="2.9519267"><ele>19.0</ele><time>2026-04-05T15:16:01.915Z</time></trkpt><trkpt lat="42.66035" lon="2.9519"><ele>19.0</ele><time>2026-04-05T15:16:02.915Z</time></trkpt><trkpt lat="42.660425" lon="2.9518467"><ele>19.0</ele><time>2026-04-05T15:16:03.915Z</time></trkpt><trkpt lat="42.6605067" lon="2.951755"><ele>19.0</ele><time>2026-04-05T15:16:04.915Z</time></trkpt><trkpt lat="42.6606067" lon="2.951655"><ele>18.75</ele><time>2026-04-05T15:16:05.915Z</time></trkpt><trkpt lat="42.6607233" lon="2.9515767"><ele>18.5</ele><time>2026-04-05T15:16:06.915Z</time></trkpt><trkpt lat="42.6608533" lon="2.9515083"><ele>18.25</ele><time>2026-04-05T15:16:07.915Z</time></trkpt><trkpt lat="42.6609933" lon="2.951445"><ele>18.0</ele><time>2026-04-05T15:16:08.914Z</time></trkpt><trkpt lat="42.6611417" lon="2.9513833"><ele>17.0</ele><time>2026-04-05T15:16:09.915Z</time></trkpt><trkpt lat="42.6612967" lon="2.9513183"><ele>16.0</ele><time>2026-04-05T15:16:10.915Z</time></trkpt><trkpt lat="42.6614567" lon="2.9512483"><ele>15.0</ele><time>2026-04-05T15:16:11.915Z</time></trkpt><trkpt lat="42.6616217" lon="2.9511667"><ele>16.0</ele><time>2026-04-05T15:16:12.915Z</time></trkpt><trkpt lat="42.6621183" lon="2.9508417"><ele>16.0</ele><time>2026-04-05T15:16:15.915Z</time></trkpt><trkpt lat="42.66228" lon="2.9507067"><ele>16.0</ele><time>2026-04-05T15:16:16.915Z</time></trkpt><trkpt lat="42.6624383" lon="2.9505567"><ele>16.0</ele><time>2026-04-05T15:16:17.915Z</time></trkpt><trkpt lat="42.6625933" lon="2.9503967"><ele>16.0</ele><time>2026-04-05T15:16:18.915Z</time></trkpt><trkpt lat="42.6627483" lon="2.95023"><ele>16.0</ele><time>2026-04-05T15:16:19.915Z</time></trkpt><trkpt lat="42.6629" lon="2.9500583"><ele>16.0</ele><time>2026-04-05T15:16:20.915Z</time></trkpt><trkpt lat="42.6630567" lon="2.9498883"><ele>15.666666666666666</ele><time>2026-04-05T15:16:21.915Z</time></trkpt><trkpt lat="42.66322" lon="2.94973"><ele>15.333333333333332</ele><time>2026-04-05T15:16:22.915Z</time></trkpt><trkpt lat="42.66339" lon="2.9495833"><ele>15.0</ele><time>2026-04-05T15:16:23.915Z</time></trkpt><trkpt lat="42.6635583" lon="2.9494533"><ele>15.0</ele><time>2026-04-05T15:16:24.915Z</time></trkpt><trkpt lat="42.66388" lon="2.9492367"><ele>15.0</ele><time>2026-04-05T15:16:26.915Z</time></trkpt><trkpt lat="42.6640283" lon="2.9491467"><ele>15.0</ele><time>2026-04-05T15:16:27.915Z</time></trkpt><trkpt lat="42.66417" lon="2.9490567"><ele>15.0</ele><time>2026-04-05T15:16:28.914Z</time></trkpt><trkpt lat="42.6643133" lon="2.9489617"><ele>15.0</ele><time>2026-04-05T15:16:29.914Z</time></trkpt><trkpt lat="42.6644533" lon="2.948855"><ele>15.0</ele><time>2026-04-05T15:16:30.915Z</time></trkpt><trkpt lat="42.6645917" lon="2.94873"><ele>15.0</ele><time>2026-04-05T15:16:31.915Z</time></trkpt><trkpt lat="42.66473" lon="2.9485917"><ele>15.0</ele><time>2026-04-05T15:16:32.915Z</time></trkpt><trkpt lat="42.664865" lon="2.94844"><ele>15.333333333333332</ele><time>2026-04-05T15:16:33.914Z</time></trkpt><trkpt lat="42.665" lon="2.9482683"><ele>15.666666666666666</ele><time>2026-04-05T15:16:34.915Z</time></trkpt><trkpt lat="42.665135" lon="2.9480883"><ele>16.0</ele><time>2026-04-05T15:16:35.915Z</time></trkpt><trkpt lat="42.6652767" lon="2.947905"><ele>16.333333333333332</ele><time>2026-04-05T15:16:36.915Z</time></trkpt><trkpt lat="42.6654233" lon="2.94772"><ele>16.666666666666668</ele><time>2026-04-05T15:16:37.914Z</time></trkpt><trkpt lat="42.6655733" lon="2.9475467"><ele>17.0</ele><time>2026-04-05T15:16:38.915Z</time></trkpt><trkpt lat="42.6657267" lon="2.9474017"><ele>17.0</ele><time>2026-04-05T15:16:39.915Z</time></trkpt><trkpt lat="42.6658733" lon="2.9472833"><ele>17.0</ele><time>2026-04-05T15:16:40.915Z</time></trkpt><trkpt lat="42.666015" lon="2.9471717"><ele>17.0</ele><time>2026-04-05T15:16:41.915Z</time></trkpt><trkpt lat="42.6661533" lon="2.94707"><ele>16.333333333333336</ele><time>2026-04-05T15:16:42.914Z</time></trkpt><trkpt lat="42.6662967" lon="2.9469767"><ele>15.666666666666668</ele><time>2026-04-05T15:16:43.915Z</time></trkpt><trkpt lat="42.66645" lon="2.9468833"><ele>15.0</ele><time>2026-04-05T15:16:44.915Z</time></trkpt><trkpt lat="42.66661" lon="2.94679"><ele>15.0</ele><time>2026-04-05T15:16:45.915Z</time></trkpt><trkpt lat="42.6667833" lon="2.9467083"><ele>15.0</ele><time>2026-04-05T15:16:46.915Z</time></trkpt><trkpt lat="42.666965" lon="2.9466433"><ele>15.0</ele><time>2026-04-05T15:16:47.915Z</time></trkpt><trkpt lat="42.66715" lon="2.9465867"><ele>15.333333333333332</ele><time>2026-04-05T15:16:48.915Z</time></trkpt><trkpt lat="42.6673433" lon="2.9465333"><ele>15.666666666666666</ele><time>2026-04-05T15:16:49.915Z</time></trkpt><trkpt lat="42.6675383" lon="2.94648"><ele>16.0</ele><time>2026-04-05T15:16:50.915Z</time></trkpt><trkpt lat="42.6677367" lon="2.94642"><ele>16.0</ele><time>2026-04-05T15:16:51.914Z</time></trkpt><trkpt lat="42.6679367" lon="2.9463517"><ele>16.0</ele><time>2026-04-05T15:16:52.914Z</time></trkpt><trkpt lat="42.66814" lon="2.94628"><ele>16.0</ele><time>2026-04-05T15:16:53.915Z</time></trkpt><trkpt lat="42.6683433" lon="2.9462"><ele>16.0</ele><time>2026-04-05T15:16:54.915Z</time></trkpt><trkpt lat="42.6685433" lon="2.9461067"><ele>16.0</ele><time>2026-04-05T15:16:55.915Z</time></trkpt><trkpt lat="42.6687333" lon="2.946"><ele>16.0</ele><time>2026-04-05T15:16:56.915Z</time></trkpt><trkpt lat="42.6689117" lon="2.9458917"><ele>16.333333333333332</ele><time>2026-04-05T15:16:57.915Z</time></trkpt><trkpt lat="42.669085" lon="2.9457917"><ele>16.666666666666668</ele><time>2026-04-05T15:16:58.915Z</time></trkpt><trkpt lat="42.6692583" lon="2.9457"><ele>17.0</ele><time>2026-04-05T15:16:59.914Z</time></trkpt><trkpt lat="42.6694367" lon="2.9456083"><ele>17.333333333333336</ele><time>2026-04-05T15:17:00.915Z</time></trkpt><trkpt lat="42.6696167" lon="2.9455167"><ele>17.666666666666668</ele><time>2026-04-05T15:17:01.915Z</time></trkpt><trkpt lat="42.6697883" lon="2.9454267"><ele>18.0</ele><time>2026-04-05T15:17:02.915Z</time></trkpt><trkpt lat="42.6699533" lon="2.9453433"><ele>18.0</ele><time>2026-04-05T15:17:03.915Z</time></trkpt><trkpt lat="42.6701133" lon="2.945265"><ele>18.0</ele><time>2026-04-05T15:17:04.915Z</time></trkpt><trkpt lat="42.6702767" lon="2.945195"><ele>18.0</ele><time>2026-04-05T15:17:05.914Z</time></trkpt><trkpt lat="42.6704433" lon="2.9451333"><ele>18.0</ele><time>2026-04-05T15:17:06.914Z</time></trkpt><trkpt lat="42.6706117" lon="2.9450833"><ele>18.0</ele><time>2026-04-05T15:17:07.915Z</time></trkpt><trkpt lat="42.6707867" lon="2.9450433"><ele>18.0</ele><time>2026-04-05T15:17:08.915Z</time></trkpt><trkpt lat="42.670965" lon="2.9450083"><ele>18.666666666666668</ele><time>2026-04-05T15:17:09.914Z</time></trkpt><trkpt lat="42.6711467" lon="2.9449767"><ele>19.333333333333336</ele><time>2026-04-05T15:17:10.915Z</time></trkpt><trkpt lat="42.6713283" lon="2.944945"><ele>20.0</ele><time>2026-04-05T15:17:11.915Z</time></trkpt><trkpt lat="42.671505" lon="2.9449183"><ele>22.0</ele><time>2026-04-05T15:17:12.915Z</time></trkpt><trkpt lat="42.6719433" lon="2.944845"><ele>24.0</ele><time>2026-04-05T15:17:15.915Z</time></trkpt><trkpt lat="42.6720567" lon="2.944825"><ele>24.0</ele><time>2026-04-05T15:17:16.915Z</time></trkpt><trkpt lat="42.672155" lon="2.944805"><ele>24.0</ele><time>2026-04-05T15:17:17.915Z</time></trkpt><trkpt lat="42.67224" lon="2.9447917"><ele>24.0</ele><time>2026-04-05T15:17:18.915Z</time></trkpt><trkpt lat="42.672385" lon="2.9448133"><ele>24.0</ele><time>2026-04-05T15:17:20.915Z</time></trkpt><trkpt lat="42.672445" lon="2.9448517"><ele>24.0</ele><time>2026-04-05T15:17:21.914Z</time></trkpt><trkpt lat="42.6725567" lon="2.9448817"><ele>24.0</ele><time>2026-04-05T15:17:23.915Z</time></trkpt><trkpt lat="42.6726683" lon="2.9448067"><ele>24.0</ele><time>2026-04-05T15:17:25.915Z</time></trkpt><trkpt lat="42.67274" lon="2.9447683"><ele>24.0</ele><time>2026-04-05T15:17:26.915Z</time></trkpt><trkpt lat="42.6728233" lon="2.9447317"><ele>24.0</ele><time>2026-04-05T15:17:27.915Z</time></trkpt><trkpt lat="42.6729083" lon="2.9446967"><ele>24.0</ele><time>2026-04-05T15:17:28.914Z</time></trkpt><trkpt lat="42.67298" lon="2.9446683"><ele>24.0</ele><time>2026-04-05T15:17:29.915Z</time></trkpt><trkpt lat="42.6730383" lon="2.9446233"><ele>24.0</ele><time>2026-04-05T15:17:30.915Z</time></trkpt><trkpt lat="42.6730883" lon="2.9445483"><ele>24.0</ele><time>2026-04-05T15:17:31.915Z</time></trkpt><trkpt lat="42.6731183" lon="2.9444433"><ele>24.0</ele><time>2026-04-05T15:17:32.915Z</time></trkpt><trkpt lat="42.6731467" lon="2.944335"><ele>24.0</ele><time>2026-04-05T15:17:33.914Z</time></trkpt><trkpt lat="42.6731867" lon="2.9442417"><ele>24.0</ele><time>2026-04-05T15:17:34.915Z</time></trkpt><trkpt lat="42.67325" lon="2.9441583"><ele>24.5</ele><time>2026-04-05T15:17:35.915Z</time></trkpt><trkpt lat="42.6733367" lon="2.9440833"><ele>25.0</ele><time>2026-04-05T15:17:36.914Z</time></trkpt><trkpt lat="42.6734317" lon="2.944"><ele>25.5</ele><time>2026-04-05T15:17:37.915Z</time></trkpt><trkpt lat="42.673535" lon="2.94391"><ele>26.0</ele><time>2026-04-05T15:17:38.915Z</time></trkpt><trkpt lat="42.6736417" lon="2.9438133"><ele>26.25</ele><time>2026-04-05T15:17:39.915Z</time></trkpt><trkpt lat="42.67375" lon="2.9437117"><ele>26.5</ele><time>2026-04-05T15:17:40.914Z</time></trkpt><trkpt lat="42.6738567" lon="2.9435967"><ele>26.75</ele><time>2026-04-05T15:17:41.915Z</time></trkpt><trkpt lat="42.67396" lon="2.9434717"><ele>27.0</ele><time>2026-04-05T15:17:42.915Z</time></trkpt><trkpt lat="42.6740567" lon="2.943355"><ele>27.75</ele><time>2026-04-05T15:17:43.915Z</time></trkpt><trkpt lat="42.6741467" lon="2.9432417"><ele>28.5</ele><time>2026-04-05T15:17:44.915Z</time></trkpt><trkpt lat="42.6742317" lon="2.9431317"><ele>29.25</ele><time>2026-04-05T15:17:45.915Z</time></trkpt><trkpt lat="42.6743133" lon="2.94302"><ele>30.0</ele><time>2026-04-05T15:17:46.915Z</time></trkpt><trkpt lat="42.6743933" lon="2.9429117"><ele>29.833333333333332</ele><time>2026-04-05T15:17:47.915Z</time></trkpt><trkpt lat="42.6744683" lon="2.942815"><ele>29.666666666666664</ele><time>2026-04-05T15:17:48.915Z</time></trkpt><trkpt lat="42.6745333" lon="2.94273"><ele>29.5</ele><time>2026-04-05T15:17:49.915Z</time></trkpt><trkpt lat="42.6745883" lon="2.9426567"><ele>29.333333333333332</ele><time>2026-04-05T15:17:50.915Z</time></trkpt><trkpt lat="42.67464" lon="2.9426017"><ele>29.166666666666664</ele><time>2026-04-05T15:17:51.915Z</time></trkpt><trkpt lat="42.674725" lon="2.9425033"><ele>29.0</ele><time>2026-04-05T15:17:53.915Z</time></trkpt><trkpt lat="42.6747917" lon="2.94238"><ele>29.000000000000004</ele><time>2026-04-05T15:17:55.915Z</time></trkpt><trkpt lat="42.67481" lon="2.9422967"><ele>29.0</ele><time>2026-04-05T15:17:56.915Z</time></trkpt><trkpt lat="42.67481" lon="2.9422083"><ele>29.000000000000004</ele><time>2026-04-05T15:17:57.915Z</time></trkpt><trkpt lat="42.6747817" lon="2.9421283"><ele>29.000000000000004</ele><time>2026-04-05T15:17:58.914Z</time></trkpt><trkpt lat="42.6747183" lon="2.9420667"><ele>29.0</ele><time>2026-04-05T15:17:59.914Z</time></trkpt><trkpt lat="42.6746583" lon="2.9419967"><ele>29.000000000000004</ele><time>2026-04-05T15:18:00.915Z</time></trkpt><trkpt lat="42.6746133" lon="2.941905"><ele>29.000000000000004</ele><time>2026-04-05T15:18:01.915Z</time></trkpt><trkpt lat="42.6745883" lon="2.9417883"><ele>28.833333333333332</ele><time>2026-04-05T15:18:02.915Z</time></trkpt><trkpt lat="42.67459" lon="2.941645"><ele>28.666666666666664</ele><time>2026-04-05T15:18:03.915Z</time></trkpt><trkpt lat="42.6746067" lon="2.9414967"><ele>28.5</ele><time>2026-04-05T15:18:04.915Z</time></trkpt><trkpt lat="42.67463" lon="2.94137"><ele>28.333333333333336</ele><time>2026-04-05T15:18:05.915Z</time></trkpt><trkpt lat="42.674645" lon="2.9412783"><ele>28.166666666666668</ele><time>2026-04-05T15:18:06.915Z</time></trkpt><trkpt lat="42.6746583" lon="2.9411917"><ele>28.0</ele><time>2026-04-05T15:18:08.915Z</time></trkpt><trkpt lat="42.67468" lon="2.9410867"><ele>28.000000000000004</ele><time>2026-04-05T15:18:14.915Z</time></trkpt><trkpt lat="42.674695" lon="2.9409917"><ele>28.0</ele><time>2026-04-05T15:18:15.915Z</time></trkpt><trkpt lat="42.6747133" lon="2.9408817"><ele>28.0</ele><time>2026-04-05T15:18:16.915Z</time></trkpt><trkpt lat="42.6747333" lon="2.940765"><ele>28.0</ele><time>2026-04-05T15:18:17.915Z</time></trkpt><trkpt lat="42.6747533" lon="2.9406483"><ele>28.000000000000004</ele><time>2026-04-05T15:18:18.915Z</time></trkpt><trkpt lat="42.6747717" lon="2.94053"><ele>28.0</ele><time>2026-04-05T15:18:19.915Z</time></trkpt><trkpt lat="42.67478" lon="2.94041"><ele>28.0</ele><time>2026-04-05T15:18:20.914Z</time></trkpt><trkpt lat="42.674785" lon="2.9402867"><ele>28.0</ele><time>2026-04-05T15:18:21.915Z</time></trkpt><trkpt lat="42.6747867" lon="2.9401617"><ele>28.0</ele><time>2026-04-05T15:18:22.915Z</time></trkpt><trkpt lat="42.674795" lon="2.94004"><ele>28.0</ele><time>2026-04-05T15:18:23.915Z</time></trkpt><trkpt lat="42.67485" lon="2.9397183"><ele>28.2</ele><time>2026-04-05T15:18:26.915Z</time></trkpt><trkpt lat="42.6748717" lon="2.9396367"><ele>28.4</ele><time>2026-04-05T15:18:27.914Z</time></trkpt><trkpt lat="42.6748967" lon="2.939535"><ele>28.599999999999998</ele><time>2026-04-05T15:18:29.914Z</time></trkpt><trkpt lat="42.674925" lon="2.93942"><ele>28.799999999999997</ele><time>2026-04-05T15:18:33.915Z</time></trkpt><trkpt lat="42.6749533" lon="2.9392517"><ele>29.0</ele><time>2026-04-05T15:18:35.915Z</time></trkpt><trkpt lat="42.6750117" lon="2.9389217"><ele>28.999999999999996</ele><time>2026-04-05T15:18:38.915Z</time></trkpt><trkpt lat="42.6750283" lon="2.9388117"><ele>29.0</ele><time>2026-04-05T15:18:39.915Z</time></trkpt><trkpt lat="42.6750317" lon="2.9387033"><ele>29.0</ele><time>2026-04-05T15:18:40.915Z</time></trkpt><trkpt lat="42.67502" lon="2.938605"><ele>29.0</ele><time>2026-04-05T15:18:41.915Z</time></trkpt><trkpt lat="42.6750133" lon="2.9385083"><ele>28.999999999999996</ele><time>2026-04-05T15:18:42.915Z</time></trkpt><trkpt lat="42.6750183" lon="2.9384083"><ele>29.0</ele><time>2026-04-05T15:18:43.915Z</time></trkpt><trkpt lat="42.6750467" lon="2.9383017"><ele>29.4</ele><time>2026-04-05T15:18:44.915Z</time></trkpt><trkpt lat="42.675095" lon="2.9381883"><ele>29.799999999999997</ele><time>2026-04-05T15:18:45.915Z</time></trkpt><trkpt lat="42.6751483" lon="2.938065"><ele>30.200000000000003</ele><time>2026-04-05T15:18:46.914Z</time></trkpt><trkpt lat="42.675205" lon="2.937945"><ele>30.6</ele><time>2026-04-05T15:18:47.915Z</time></trkpt><trkpt lat="42.675255" lon="2.9378367"><ele>31.0</ele><time>2026-04-05T15:18:48.914Z</time></trkpt><trkpt lat="42.675305" lon="2.9377317"><ele>30.6</ele><time>2026-04-05T15:18:49.915Z</time></trkpt><trkpt lat="42.6753683" lon="2.93764"><ele>30.200000000000003</ele><time>2026-04-05T15:18:50.915Z</time></trkpt><trkpt lat="42.6754417" lon="2.937555"><ele>29.799999999999997</ele><time>2026-04-05T15:18:51.915Z</time></trkpt><trkpt lat="42.67552" lon="2.93747"><ele>29.4</ele><time>2026-04-05T15:18:52.915Z</time></trkpt><trkpt lat="42.6756" lon="2.937385"><ele>29.0</ele><time>2026-04-05T15:18:53.915Z</time></trkpt><trkpt lat="42.6756733" lon="2.9373067"><ele>29.0</ele><time>2026-04-05T15:18:54.915Z</time></trkpt><trkpt lat="42.67574" lon="2.9372317"><ele>29.0</ele><time>2026-04-05T15:18:55.915Z</time></trkpt><trkpt lat="42.675795" lon="2.9371583"><ele>29.0</ele><time>2026-04-05T15:18:56.915Z</time></trkpt><trkpt lat="42.675835" lon="2.93708"><ele>29.0</ele><time>2026-04-05T15:18:57.915Z</time></trkpt><trkpt lat="42.675885" lon="2.93694"><ele>29.0</ele><time>2026-04-05T15:18:59.914Z</time></trkpt><trkpt lat="42.676" lon="2.9367767"><ele>29.333333333333332</ele><time>2026-04-05T15:19:02.915Z</time></trkpt><trkpt lat="42.67605" lon="2.9367083"><ele>29.666666666666664</ele><time>2026-04-05T15:19:03.915Z</time></trkpt><trkpt lat="42.67608" lon="2.9366133"><ele>30.0</ele><time>2026-04-05T15:19:04.915Z</time></trkpt><trkpt lat="42.67608" lon="2.9364983"><ele>30.333333333333336</ele><time>2026-04-05T15:19:05.915Z</time></trkpt><trkpt lat="42.6760717" lon="2.936375"><ele>30.666666666666668</ele><time>2026-04-05T15:19:06.915Z</time></trkpt><trkpt lat="42.6760733" lon="2.9362433"><ele>31.0</ele><time>2026-04-05T15:19:07.915Z</time></trkpt><trkpt lat="42.6760933" lon="2.9361033"><ele>30.75</ele><time>2026-04-05T15:19:08.915Z</time></trkpt><trkpt lat="42.67613" lon="2.93596"><ele>30.5</ele><time>2026-04-05T15:19:09.915Z</time></trkpt><trkpt lat="42.6761717" lon="2.9358183"><ele>30.25</ele><time>2026-04-05T15:19:10.914Z</time></trkpt><trkpt lat="42.67621" lon="2.93568"><ele>30.0</ele><time>2026-04-05T15:19:11.915Z</time></trkpt><trkpt lat="42.6763267" lon="2.935295"><ele>30.0</ele><time>2026-04-05T15:19:14.914Z</time></trkpt><trkpt lat="42.676355" lon="2.93516"><ele>30.0</ele><time>2026-04-05T15:19:15.915Z</time></trkpt><trkpt lat="42.676385" lon="2.935025"><ele>30.0</ele><time>2026-04-05T15:19:16.915Z</time></trkpt><trkpt lat="42.6764183" lon="2.9348967"><ele>30.0</ele><time>2026-04-05T15:19:17.915Z</time></trkpt><trkpt lat="42.6764483" lon="2.9347767"><ele>30.0</ele><time>2026-04-05T15:19:18.915Z</time></trkpt><trkpt lat="42.6764783" lon="2.9346617"><ele>30.4</ele><time>2026-04-05T15:19:19.915Z</time></trkpt><trkpt lat="42.6765033" lon="2.93455"><ele>30.8</ele><time>2026-04-05T15:19:20.915Z</time></trkpt><trkpt lat="42.6765283" lon="2.934445"><ele>31.200000000000003</ele><time>2026-04-05T15:19:21.915Z</time></trkpt><trkpt lat="42.676555" lon="2.9343517"><ele>31.6</ele><time>2026-04-05T15:19:22.915Z</time></trkpt><trkpt lat="42.6766067" lon="2.9342167"><ele>32.0</ele><time>2026-04-05T15:19:24.915Z</time></trkpt><trkpt lat="42.676685" lon="2.934135"><ele>31.999999999999996</ele><time>2026-04-05T15:19:26.915Z</time></trkpt><trkpt lat="42.67681" lon="2.93412"><ele>32.0</ele><time>2026-04-05T15:19:28.915Z</time></trkpt><trkpt lat="42.6768833" lon="2.9341517"><ele>32.0</ele><time>2026-04-05T15:19:29.914Z</time></trkpt><trkpt lat="42.6769533" lon="2.934195"><ele>32.0</ele><time>2026-04-05T15:19:30.915Z</time></trkpt><trkpt lat="42.6770167" lon="2.93424"><ele>31.999999999999996</ele><time>2026-04-05T15:19:31.915Z</time></trkpt><trkpt lat="42.677085" lon="2.9342883"><ele>32.0</ele><time>2026-04-05T15:19:32.915Z</time></trkpt><trkpt lat="42.67716" lon="2.93434"><ele>31.333333333333332</ele><time>2026-04-05T15:19:33.915Z</time></trkpt><trkpt lat="42.6772467" lon="2.934395"><ele>30.666666666666664</ele><time>2026-04-05T15:19:34.914Z</time></trkpt><trkpt lat="42.6773383" lon="2.934455"><ele>30.0</ele><time>2026-04-05T15:19:35.914Z</time></trkpt><trkpt lat="42.6776413" lon="2.9346507"><ele>30.0</ele><time>2026-04-05T15:19:38.915Z</time></trkpt><trkpt lat="42.6777507" lon="2.9347208"><ele>30.0</ele><time>2026-04-05T15:19:39.915Z</time></trkpt><trkpt lat="42.6778613" lon="2.9347972"><ele>30.0</ele><time>2026-04-05T15:19:40.914Z</time></trkpt><trkpt lat="42.6779643" lon="2.9348813"><ele>30.0</ele><time>2026-04-05T15:19:41.915Z</time></trkpt><trkpt lat="42.6780751" lon="2.9349768"><ele>30.25</ele><time>2026-04-05T15:19:43.075Z</time></trkpt><trkpt lat="42.6782278" lon="2.9351476"><ele>30.5</ele><time>2026-04-05T15:19:44.915Z</time></trkpt><trkpt lat="42.6783088" lon="2.9352328"><ele>30.75</ele><time>2026-04-05T15:19:45.915Z</time></trkpt><trkpt lat="42.6783923" lon="2.935315"><ele>31.0</ele><time>2026-04-05T15:19:46.915Z</time></trkpt><trkpt lat="42.6784825" lon="2.935399"><ele>31.0</ele><time>2026-04-05T15:19:47.915Z</time></trkpt><trkpt lat="42.6785766" lon="2.9354887"><ele>31.0</ele><time>2026-04-05T15:19:48.964Z</time></trkpt><trkpt lat="42.6786774" lon="2.9355711"><ele>31.0</ele><time>2026-04-05T15:19:49.915Z</time></trkpt><trkpt lat="42.6787763" lon="2.9356466"><ele>31.0</ele><time>2026-04-05T15:19:50.915Z</time></trkpt><trkpt lat="42.6788707" lon="2.9357092"><ele>31.166666666666668</ele><time>2026-04-05T15:19:51.915Z</time></trkpt><trkpt lat="42.6789618" lon="2.9357622"><ele>31.333333333333336</ele><time>2026-04-05T15:19:52.915Z</time></trkpt><trkpt lat="42.6790474" lon="2.9358096"><ele>31.5</ele><time>2026-04-05T15:19:53.914Z</time></trkpt><trkpt lat="42.679123" lon="2.9358512"><ele>31.666666666666664</ele><time>2026-04-05T15:19:54.852Z</time></trkpt><trkpt lat="42.679197" lon="2.9358971"><ele>31.833333333333332</ele><time>2026-04-05T15:19:55.915Z</time></trkpt><trkpt lat="42.6792615" lon="2.9359354"><ele>32.0</ele><time>2026-04-05T15:19:56.914Z</time></trkpt><trkpt lat="42.6793685" lon="2.9360025"><ele>32.2</ele><time>2026-04-05T15:19:58.915Z</time></trkpt><trkpt lat="42.6794737" lon="2.9360213"><ele>32.400000000000006</ele><time>2026-04-05T15:20:00.915Z</time></trkpt><trkpt lat="42.6795707" lon="2.9359447"><ele>32.599999999999994</ele><time>2026-04-05T15:20:02.915Z</time></trkpt><trkpt lat="42.6795922" lon="2.9358496"><ele>32.8</ele><time>2026-04-05T15:20:03.914Z</time></trkpt><trkpt lat="42.6795896" lon="2.9357219"><ele>33.0</ele><time>2026-04-05T15:20:04.915Z</time></trkpt><trkpt lat="42.67958" lon="2.9355733"><ele>33.199999999999996</ele><time>2026-04-05T15:20:05.915Z</time></trkpt><trkpt lat="42.6795883" lon="2.9354417"><ele>33.4</ele><time>2026-04-05T15:20:06.915Z</time></trkpt><trkpt lat="42.679605" lon="2.93531"><ele>33.599999999999994</ele><time>2026-04-05T15:20:07.915Z</time></trkpt><trkpt lat="42.6796433" lon="2.9351917"><ele>33.8</ele><time>2026-04-05T15:20:08.915Z</time></trkpt><trkpt lat="42.6797" lon="2.9350767"><ele>34.0</ele><time>2026-04-05T15:20:09.915Z</time></trkpt><trkpt lat="42.67978" lon="2.9349817"><ele>34.0</ele><time>2026-04-05T15:20:10.915Z</time></trkpt><trkpt lat="42.67988" lon="2.9349117"><ele>34.0</ele><time>2026-04-05T15:20:11.915Z</time></trkpt><trkpt lat="42.6799933" lon="2.93486"><ele>34.0</ele><time>2026-04-05T15:20:12.915Z</time></trkpt><trkpt lat="42.68011" lon="2.93483"><ele>34.0</ele><time>2026-04-05T15:20:13.915Z</time></trkpt><trkpt lat="42.68022" lon="2.9348067"><ele>34.0</ele><time>2026-04-05T15:20:14.915Z</time></trkpt><trkpt lat="42.6803283" lon="2.9347767"><ele>34.0</ele><time>2026-04-05T15:20:15.915Z</time></trkpt><trkpt lat="42.6804433" lon="2.9347167"><ele>34.0</ele><time>2026-04-05T15:20:16.914Z</time></trkpt><trkpt lat="42.68056" lon="2.93464"><ele>34.0</ele><time>2026-04-05T15:20:17.915Z</time></trkpt><trkpt lat="42.68068" lon="2.9345517"><ele>34.0</ele><time>2026-04-05T15:20:18.914Z</time></trkpt><trkpt lat="42.6807933" lon="2.93446"><ele>34.0</ele><time>2026-04-05T15:20:19.914Z</time></trkpt><trkpt lat="42.680905" lon="2.934375"><ele>34.0</ele><time>2026-04-05T15:20:20.914Z</time></trkpt><trkpt lat="42.68101" lon="2.9343067"><ele>34.0</ele><time>2026-04-05T15:20:21.914Z</time></trkpt><trkpt lat="42.68111" lon="2.9342533"><ele>34.333333333333336</ele><time>2026-04-05T15:20:22.915Z</time></trkpt><trkpt lat="42.681195" lon="2.9342133"><ele>34.66666666666667</ele><time>2026-04-05T15:20:23.915Z</time></trkpt><trkpt lat="42.6812683" lon="2.9341967"><ele>35.0</ele><time>2026-04-05T15:20:24.915Z</time></trkpt><trkpt lat="42.6813367" lon="2.9342083"><ele>35.333333333333336</ele><time>2026-04-05T15:20:25.915Z</time></trkpt><trkpt lat="42.6814" lon="2.9342417"><ele>35.666666666666664</ele><time>2026-04-05T15:20:26.914Z</time></trkpt><trkpt lat="42.6814617" lon="2.934265"><ele>36.0</ele><time>2026-04-05T15:20:27.914Z</time></trkpt><trkpt lat="42.6815683" lon="2.9342283"><ele>36.333333333333336</ele><time>2026-04-05T15:20:29.915Z</time></trkpt><trkpt lat="42.6815967" lon="2.9341417"><ele>36.666666666666664</ele><time>2026-04-05T15:20:30.915Z</time></trkpt><trkpt lat="42.6816" lon="2.9340167"><ele>37.0</ele><time>2026-04-05T15:20:31.915Z</time></trkpt><trkpt lat="42.6816067" lon="2.933895"><ele>37.33333333333333</ele><time>2026-04-05T15:20:32.915Z</time></trkpt><trkpt lat="42.6816317" lon="2.933775"><ele>37.666666666666664</ele><time>2026-04-05T15:20:33.914Z</time></trkpt><trkpt lat="42.6816767" lon="2.9336633"><ele>38.0</ele><time>2026-04-05T15:20:34.915Z</time></trkpt><trkpt lat="42.6817383" lon="2.93355"><ele>39.0</ele><time>2026-04-05T15:20:35.914Z</time></trkpt><trkpt lat="42.6818783" lon="2.9333017"><ele>40.0</ele><time>2026-04-05T15:20:37.915Z</time></trkpt><trkpt lat="42.6819517" lon="2.93317"><ele>41.0</ele><time>2026-04-05T15:20:38.915Z</time></trkpt><trkpt lat="42.6820267" lon="2.9330317"><ele>41.75</ele><time>2026-04-05T15:20:39.915Z</time></trkpt><trkpt lat="42.682105" lon="2.9328867"><ele>42.5</ele><time>2026-04-05T15:20:40.915Z</time></trkpt><trkpt lat="42.6821883" lon="2.9327367"><ele>43.25</ele><time>2026-04-05T15:20:41.915Z</time></trkpt><trkpt lat="42.6822733" lon="2.9325883"><ele>44.0</ele><time>2026-04-05T15:20:42.915Z</time></trkpt><trkpt lat="42.68236" lon="2.9324283"><ele>44.33333333333333</ele><time>2026-04-05T15:20:43.915Z</time></trkpt><trkpt lat="42.6824483" lon="2.932265"><ele>44.666666666666664</ele><time>2026-04-05T15:20:44.915Z</time></trkpt><trkpt lat="42.682535" lon="2.9320933"><ele>45.0</ele><time>2026-04-05T15:20:45.915Z</time></trkpt><trkpt lat="42.6826167" lon="2.931915"><ele>45.0</ele><time>2026-04-05T15:20:46.914Z</time></trkpt><trkpt lat="42.6826917" lon="2.9317317"><ele>45.0</ele><time>2026-04-05T15:20:47.915Z</time></trkpt><trkpt lat="42.6827617" lon="2.9315467"><ele>45.0</ele><time>2026-04-05T15:20:48.915Z</time></trkpt><trkpt lat="42.6828333" lon="2.931365"><ele>44.666666666666664</ele><time>2026-04-05T15:20:49.915Z</time></trkpt><trkpt lat="42.682905" lon="2.9311867"><ele>44.33333333333333</ele><time>2026-04-05T15:20:50.915Z</time></trkpt><trkpt lat="42.6829833" lon="2.9310133"><ele>44.0</ele><time>2026-04-05T15:20:51.914Z</time></trkpt><trkpt lat="42.6830733" lon="2.9308467"><ele>44.0</ele><time>2026-04-05T15:20:52.915Z</time></trkpt><trkpt lat="42.68317" lon="2.9306817"><ele>44.0</ele><time>2026-04-05T15:20:53.915Z</time></trkpt><trkpt lat="42.6833917" lon="2.9303733"><ele>44.0</ele><time>2026-04-05T15:20:55.914Z</time></trkpt><trkpt lat="42.6835067" lon="2.930215"><ele>44.0</ele><time>2026-04-05T15:20:56.915Z</time></trkpt><trkpt lat="42.6836133" lon="2.9300433"><ele>44.0</ele><time>2026-04-05T15:20:57.915Z</time></trkpt><trkpt lat="42.6837133" lon="2.9298567"><ele>41.666666666666664</ele><time>2026-04-05T15:20:58.914Z</time></trkpt><trkpt lat="42.6838083" lon="2.92966"><ele>39.333333333333336</ele><time>2026-04-05T15:20:59.914Z</time></trkpt><trkpt lat="42.6838933" lon="2.9294533"><ele>37.0</ele><time>2026-04-05T15:21:00.915Z</time></trkpt><trkpt lat="42.683965" lon="2.9292367"><ele>37.0</ele><time>2026-04-05T15:21:01.915Z</time></trkpt><trkpt lat="42.6840383" lon="2.929015"><ele>37.0</ele><time>2026-04-05T15:21:02.915Z</time></trkpt><trkpt lat="42.68412" lon="2.9287967"><ele>37.0</ele><time>2026-04-05T15:21:03.915Z</time></trkpt><trkpt lat="42.6842083" lon="2.9285783"><ele>37.333333333333336</ele><time>2026-04-05T15:21:04.915Z</time></trkpt><trkpt lat="42.6843017" lon="2.9283617"><ele>37.666666666666664</ele><time>2026-04-05T15:21:05.915Z</time></trkpt><trkpt lat="42.6843967" lon="2.9281433"><ele>38.0</ele><time>2026-04-05T15:21:06.915Z</time></trkpt><trkpt lat="42.6844917" lon="2.9279233"><ele>37.0</ele><time>2026-04-05T15:21:07.915Z</time></trkpt><trkpt lat="42.6845867" lon="2.9277033"><ele>36.0</ele><time>2026-04-05T15:21:08.915Z</time></trkpt><trkpt lat="42.6846833" lon="2.927485"><ele>35.0</ele><time>2026-04-05T15:21:09.915Z</time></trkpt><trkpt lat="42.68478" lon="2.927265"><ele>35.0</ele><time>2026-04-05T15:21:10.915Z</time></trkpt><trkpt lat="42.6848733" lon="2.9270417"><ele>35.0</ele><time>2026-04-05T15:21:11.915Z</time></trkpt><trkpt lat="42.6849567" lon="2.9268117"><ele>35.0</ele><time>2026-04-05T15:21:12.914Z</time></trkpt><trkpt lat="42.685025" lon="2.9265717"><ele>35.33333333333333</ele><time>2026-04-05T15:21:13.915Z</time></trkpt><trkpt lat="42.6850833" lon="2.9263233"><ele>35.666666666666664</ele><time>2026-04-05T15:21:14.915Z</time></trkpt><trkpt lat="42.6851367" lon="2.92607"><ele>36.0</ele><time>2026-04-05T15:21:15.915Z</time></trkpt><trkpt lat="42.6851883" lon="2.92582"><ele>35.666666666666664</ele><time>2026-04-05T15:21:16.914Z</time></trkpt><trkpt lat="42.68524" lon="2.9255833"><ele>35.33333333333333</ele><time>2026-04-05T15:21:17.915Z</time></trkpt><trkpt lat="42.68529" lon="2.9253517"><ele>35.0</ele><time>2026-04-05T15:21:18.915Z</time></trkpt><trkpt lat="42.6853367" lon="2.925125"><ele>35.666666666666664</ele><time>2026-04-05T15:21:19.914Z</time></trkpt><trkpt lat="42.6853817" lon="2.9248933"><ele>36.333333333333336</ele><time>2026-04-05T15:21:20.914Z</time></trkpt><trkpt lat="42.6854233" lon="2.92466"><ele>37.0</ele><time>2026-04-05T15:21:21.915Z</time></trkpt><trkpt lat="42.6854583" lon="2.9244217"><ele>37.333333333333336</ele><time>2026-04-05T15:21:22.914Z</time></trkpt><trkpt lat="42.6854867" lon="2.9241817"><ele>37.666666666666664</ele><time>2026-04-05T15:21:23.915Z</time></trkpt><trkpt lat="42.6855133" lon="2.9239383"><ele>38.0</ele><time>2026-04-05T15:21:24.915Z</time></trkpt><trkpt lat="42.68555" lon="2.9236983"><ele>38.0</ele><time>2026-04-05T15:21:25.915Z</time></trkpt><trkpt lat="42.6856" lon="2.9234617"><ele>38.0</ele><time>2026-04-05T15:21:26.914Z</time></trkpt><trkpt lat="42.6856567" lon="2.9232317"><ele>38.0</ele><time>2026-04-05T15:21:27.915Z</time></trkpt><trkpt lat="42.6857117" lon="2.9230133"><ele>38.33333333333333</ele><time>2026-04-05T15:21:28.914Z</time></trkpt><trkpt lat="42.685765" lon="2.9228017"><ele>38.666666666666664</ele><time>2026-04-05T15:21:29.915Z</time></trkpt><trkpt lat="42.6858117" lon="2.9225917"><ele>39.0</ele><time>2026-04-05T15:21:30.915Z</time></trkpt><trkpt lat="42.6858533" lon="2.922385"><ele>39.0</ele><time>2026-04-05T15:21:31.914Z</time></trkpt><trkpt lat="42.6858933" lon="2.9221867"><ele>39.0</ele><time>2026-04-05T15:21:32.915Z</time></trkpt><trkpt lat="42.6859383" lon="2.921995"><ele>39.0</ele><time>2026-04-05T15:21:33.915Z</time></trkpt><trkpt lat="42.685985" lon="2.9217983"><ele>38.75</ele><time>2026-04-05T15:21:34.915Z</time></trkpt><trkpt lat="42.68603" lon="2.9216"><ele>38.5</ele><time>2026-04-05T15:21:35.915Z</time></trkpt><trkpt lat="42.68607" lon="2.9214083"><ele>38.25</ele><time>2026-04-05T15:21:36.915Z</time></trkpt><trkpt lat="42.686105" lon="2.9212217"><ele>38.0</ele><time>2026-04-05T15:21:37.915Z</time></trkpt><trkpt lat="42.686135" lon="2.92105"><ele>38.4</ele><time>2026-04-05T15:21:38.915Z</time></trkpt><trkpt lat="42.6861583" lon="2.9208983"><ele>38.8</ele><time>2026-04-05T15:21:39.915Z</time></trkpt><trkpt lat="42.6861783" lon="2.92076"><ele>39.2</ele><time>2026-04-05T15:21:40.915Z</time></trkpt><trkpt lat="42.6862" lon="2.9206333"><ele>39.6</ele><time>2026-04-05T15:21:41.915Z</time></trkpt><trkpt lat="42.6862217" lon="2.9205183"><ele>40.0</ele><time>2026-04-05T15:21:42.915Z</time></trkpt><trkpt lat="42.6862583" lon="2.9204133"><ele>40.0</ele><time>2026-04-05T15:21:43.915Z</time></trkpt><trkpt lat="42.68632" lon="2.920325"><ele>40.0</ele><time>2026-04-05T15:21:44.915Z</time></trkpt><trkpt lat="42.6863883" lon="2.920255"><ele>40.0</ele><time>2026-04-05T15:21:45.914Z</time></trkpt><trkpt lat="42.6864483" lon="2.9201783"><ele>40.0</ele><time>2026-04-05T15:21:46.914Z</time></trkpt><trkpt lat="42.6864883" lon="2.9200833"><ele>40.0</ele><time>2026-04-05T15:21:47.915Z</time></trkpt><trkpt lat="42.6865" lon="2.9199767"><ele>40.0</ele><time>2026-04-05T15:21:48.914Z</time></trkpt><trkpt lat="42.6864867" lon="2.9198667"><ele>40.4</ele><time>2026-04-05T15:21:49.915Z</time></trkpt><trkpt lat="42.68646" lon="2.9197517"><ele>40.8</ele><time>2026-04-05T15:21:50.914Z</time></trkpt><trkpt lat="42.6864467" lon="2.91963"><ele>41.2</ele><time>2026-04-05T15:21:51.915Z</time></trkpt><trkpt lat="42.68645" lon="2.9194983"><ele>41.6</ele><time>2026-04-05T15:21:52.915Z</time></trkpt><trkpt lat="42.686475" lon="2.9193583"><ele>42.0</ele><time>2026-04-05T15:21:53.914Z</time></trkpt><trkpt lat="42.6865967" lon="2.9188967"><ele>42.25</ele><time>2026-04-05T15:21:56.915Z</time></trkpt><trkpt lat="42.6866483" lon="2.9187267"><ele>42.5</ele><time>2026-04-05T15:21:57.915Z</time></trkpt><trkpt lat="42.6867" lon="2.9185583"><ele>42.75</ele><time>2026-04-05T15:21:58.915Z</time></trkpt><trkpt lat="42.6867483" lon="2.918405"><ele>43.0</ele><time>2026-04-05T15:21:59.915Z</time></trkpt><trkpt lat="42.6867883" lon="2.9182567"><ele>43.0</ele><time>2026-04-05T15:22:00.915Z</time></trkpt><trkpt lat="42.6868233" lon="2.918115"><ele>43.0</ele><time>2026-04-05T15:22:01.915Z</time></trkpt><trkpt lat="42.6868633" lon="2.9179867"><ele>43.0</ele><time>2026-04-05T15:22:02.915Z</time></trkpt><trkpt lat="42.6869033" lon="2.9178683"><ele>43.0</ele><time>2026-04-05T15:22:03.914Z</time></trkpt><trkpt lat="42.6869367" lon="2.917765"><ele>43.0</ele><time>2026-04-05T15:22:04.915Z</time></trkpt><trkpt lat="42.6869617" lon="2.9176783"><ele>42.8</ele><time>2026-04-05T15:22:05.915Z</time></trkpt><trkpt lat="42.6870233" lon="2.9175367"><ele>42.599999999999994</ele><time>2026-04-05T15:22:07.915Z</time></trkpt><trkpt lat="42.6870783" lon="2.917485"><ele>42.400000000000006</ele><time>2026-04-05T15:22:08.915Z</time></trkpt><trkpt lat="42.6871517" lon="2.9174567"><ele>42.2</ele><time>2026-04-05T15:22:09.915Z</time></trkpt><trkpt lat="42.6872383" lon="2.91744"><ele>42.0</ele><time>2026-04-05T15:22:10.914Z</time></trkpt><trkpt lat="42.687335" lon="2.9174183"><ele>42.0</ele><time>2026-04-05T15:22:11.915Z</time></trkpt><trkpt lat="42.6874383" lon="2.917395"><ele>42.0</ele><time>2026-04-05T15:22:12.915Z</time></trkpt><trkpt lat="42.68754" lon="2.9173683"><ele>42.0</ele><time>2026-04-05T15:22:13.915Z</time></trkpt><trkpt lat="42.6876383" lon="2.917345"><ele>42.0</ele><time>2026-04-05T15:22:14.915Z</time></trkpt><trkpt lat="42.687735" lon="2.917325"><ele>42.0</ele><time>2026-04-05T15:22:15.914Z</time></trkpt><trkpt lat="42.6878283" lon="2.9173133"><ele>41.5</ele><time>2026-04-05T15:22:16.915Z</time></trkpt><trkpt lat="42.6879167" lon="2.9173083"><ele>41.0</ele><time>2026-04-05T15:22:17.914Z</time></trkpt><trkpt lat="42.688005" lon="2.91731"><ele>40.5</ele><time>2026-04-05T15:22:18.915Z</time></trkpt><trkpt lat="42.6880933" lon="2.917315"><ele>40.0</ele><time>2026-04-05T15:22:19.915Z</time></trkpt><trkpt lat="42.6881783" lon="2.9173217"><ele>39.5</ele><time>2026-04-05T15:22:20.915Z</time></trkpt><trkpt lat="42.6882633" lon="2.9173333"><ele>39.0</ele><time>2026-04-05T15:22:21.915Z</time></trkpt><trkpt lat="42.6883467" lon="2.9173467"><ele>39.0</ele><time>2026-04-05T15:22:22.915Z</time></trkpt><trkpt lat="42.6884217" lon="2.9173633"><ele>39.0</ele><time>2026-04-05T15:22:23.915Z</time></trkpt><trkpt lat="42.6884883" lon="2.9173783"><ele>39.0</ele><time>2026-04-05T15:22:24.914Z</time></trkpt><trkpt lat="42.6885533" lon="2.9173933"><ele>39.0</ele><time>2026-04-05T15:22:25.914Z</time></trkpt><trkpt lat="42.6886717" lon="2.91742"><ele>39.0</ele><time>2026-04-05T15:22:27.914Z</time></trkpt><trkpt lat="42.6887333" lon="2.9174383"><ele>39.0</ele><time>2026-04-05T15:22:28.915Z</time></trkpt><trkpt lat="42.6887967" lon="2.9174633"><ele>38.85714285714286</ele><time>2026-04-05T15:22:29.915Z</time></trkpt><trkpt lat="42.6888633" lon="2.9174917"><ele>38.71428571428571</ele><time>2026-04-05T15:22:30.915Z</time></trkpt><trkpt lat="42.68893" lon="2.9175083"><ele>38.57142857142857</ele><time>2026-04-05T15:22:31.914Z</time></trkpt><trkpt lat="42.6889983" lon="2.9175083"><ele>38.42857142857143</ele><time>2026-04-05T15:22:32.914Z</time></trkpt><trkpt lat="42.6890683" lon="2.9174883"><ele>38.28571428571429</ele><time>2026-04-05T15:22:33.914Z</time></trkpt><trkpt lat="42.68913" lon="2.917455"><ele>38.14285714285714</ele><time>2026-04-05T15:22:34.915Z</time></trkpt><trkpt lat="42.6891917" lon="2.917415"><ele>38.0</ele><time>2026-04-05T15:22:35.914Z</time></trkpt><trkpt lat="42.689245" lon="2.91736"><ele>38.0</ele><time>2026-04-05T15:22:36.915Z</time></trkpt><trkpt lat="42.6892867" lon="2.9172067"><ele>38.0</ele><time>2026-04-05T15:22:38.915Z</time></trkpt><trkpt lat="42.6892717" lon="2.917115"><ele>38.0</ele><time>2026-04-05T15:22:39.914Z</time></trkpt><trkpt lat="42.6892417" lon="2.9170217"><ele>38.0</ele><time>2026-04-05T15:22:40.914Z</time></trkpt><trkpt lat="42.6892083" lon="2.916925"><ele>38.0</ele><time>2026-04-05T15:22:41.915Z</time></trkpt><trkpt lat="42.689175" lon="2.9168233"><ele>38.0</ele><time>2026-04-05T15:22:42.915Z</time></trkpt><trkpt lat="42.6891417" lon="2.9167167"><ele>38.0</ele><time>2026-04-05T15:22:43.915Z</time></trkpt><trkpt lat="42.6891067" lon="2.9166083"><ele>38.0</ele><time>2026-04-05T15:22:44.915Z</time></trkpt><trkpt lat="42.68907" lon="2.9165017"><ele>38.0</ele><time>2026-04-05T15:22:45.915Z</time></trkpt><trkpt lat="42.6890333" lon="2.916395"><ele>38.0</ele><time>2026-04-05T15:22:46.915Z</time></trkpt><trkpt lat="42.6889967" lon="2.916285"><ele>38.0</ele><time>2026-04-05T15:22:47.915Z</time></trkpt><trkpt lat="42.6889583" lon="2.9161717"><ele>38.0</ele><time>2026-04-05T15:22:48.915Z</time></trkpt><trkpt lat="42.68892" lon="2.9160533"><ele>38.0</ele><time>2026-04-05T15:22:49.915Z</time></trkpt><trkpt lat="42.68888" lon="2.91593"><ele>38.0</ele><time>2026-04-05T15:22:50.915Z</time></trkpt><trkpt lat="42.6888367" lon="2.9158033"><ele>38.0</ele><time>2026-04-05T15:22:51.915Z</time></trkpt><trkpt lat="42.6887933" lon="2.91567"><ele>38.0</ele><time>2026-04-05T15:22:52.915Z</time></trkpt><trkpt lat="42.6887483" lon="2.915535"><ele>38.0</ele><time>2026-04-05T15:22:53.914Z</time></trkpt><trkpt lat="42.688705" lon="2.9154"><ele>38.199999999999996</ele><time>2026-04-05T15:22:54.914Z</time></trkpt><trkpt lat="42.6886617" lon="2.9152683"><ele>38.4</ele><time>2026-04-05T15:22:55.915Z</time></trkpt><trkpt lat="42.688615" lon="2.9151383"><ele>38.599999999999994</ele><time>2026-04-05T15:22:56.915Z</time></trkpt><trkpt lat="42.6885733" lon="2.915005"><ele>38.8</ele><time>2026-04-05T15:22:57.915Z</time></trkpt><trkpt lat="42.6885317" lon="2.914875"><ele>39.0</ele><time>2026-04-05T15:22:58.915Z</time></trkpt><trkpt lat="42.688495" lon="2.91475"><ele>39.2</ele><time>2026-04-05T15:22:59.915Z</time></trkpt><trkpt lat="42.6884583" lon="2.9146283"><ele>39.4</ele><time>2026-04-05T15:23:00.915Z</time></trkpt><trkpt lat="42.6884183" lon="2.9145083"><ele>39.6</ele><time>2026-04-05T15:23:01.915Z</time></trkpt><trkpt lat="42.6883783" lon="2.9143883"><ele>39.8</ele><time>2026-04-05T15:23:02.914Z</time></trkpt><trkpt lat="42.6883383" lon="2.9142667"><ele>40.0</ele><time>2026-04-05T15:23:03.915Z</time></trkpt><trkpt lat="42.6883" lon="2.9141383"><ele>40.0</ele><time>2026-04-05T15:23:04.915Z</time></trkpt><trkpt lat="42.6882583" lon="2.9140017"><ele>40.0</ele><time>2026-04-05T15:23:05.914Z</time></trkpt><trkpt lat="42.688215" lon="2.9138533"><ele>40.0</ele><time>2026-04-05T15:23:06.915Z</time></trkpt><trkpt lat="42.6881767" lon="2.9136933"><ele>40.0</ele><time>2026-04-05T15:23:07.915Z</time></trkpt><trkpt lat="42.6881483" lon="2.9135183"><ele>40.0</ele><time>2026-04-05T15:23:08.915Z</time></trkpt><trkpt lat="42.6881283" lon="2.91333"><ele>40.0</ele><time>2026-04-05T15:23:09.915Z</time></trkpt><trkpt lat="42.68812" lon="2.913135"><ele>40.0</ele><time>2026-04-05T15:23:10.915Z</time></trkpt><trkpt lat="42.6881233" lon="2.9129467"><ele>40.0</ele><time>2026-04-05T15:23:11.915Z</time></trkpt><trkpt lat="42.6881317" lon="2.9127717"><ele>40.0</ele><time>2026-04-05T15:23:12.915Z</time></trkpt><trkpt lat="42.6881367" lon="2.9126033"><ele>40.0</ele><time>2026-04-05T15:23:13.915Z</time></trkpt><trkpt lat="42.6881467" lon="2.9124467"><ele>40.0</ele><time>2026-04-05T15:23:14.915Z</time></trkpt><trkpt lat="42.6881583" lon="2.9123017"><ele>40.0</ele><time>2026-04-05T15:23:15.915Z</time></trkpt><trkpt lat="42.6881733" lon="2.912175"><ele>40.0</ele><time>2026-04-05T15:23:16.915Z</time></trkpt><trkpt lat="42.6881883" lon="2.9120633"><ele>40.2</ele><time>2026-04-05T15:23:17.914Z</time></trkpt><trkpt lat="42.6881983" lon="2.9119533"><ele>40.4</ele><time>2026-04-05T15:23:18.915Z</time></trkpt><trkpt lat="42.6882017" lon="2.9118333"><ele>40.599999999999994</ele><time>2026-04-05T15:23:19.914Z</time></trkpt><trkpt lat="42.688205" lon="2.911705"><ele>40.8</ele><time>2026-04-05T15:23:20.915Z</time></trkpt><trkpt lat="42.688205" lon="2.911565"><ele>41.0</ele><time>2026-04-05T15:23:21.915Z</time></trkpt><trkpt lat="42.6882083" lon="2.9114117"><ele>41.0</ele><time>2026-04-05T15:23:22.914Z</time></trkpt><trkpt lat="42.6882133" lon="2.91125"><ele>41.0</ele><time>2026-04-05T15:23:23.915Z</time></trkpt><trkpt lat="42.68822" lon="2.911085"><ele>41.0</ele><time>2026-04-05T15:23:24.914Z</time></trkpt><trkpt lat="42.6882283" lon="2.9109267"><ele>41.0</ele><time>2026-04-05T15:23:25.914Z</time></trkpt><trkpt lat="42.6882433" lon="2.9107767"><ele>41.199999999999996</ele><time>2026-04-05T15:23:26.915Z</time></trkpt><trkpt lat="42.6882567" lon="2.910635"><ele>41.4</ele><time>2026-04-05T15:23:27.915Z</time></trkpt><trkpt lat="42.6882667" lon="2.9105"><ele>41.6</ele><time>2026-04-05T15:23:28.914Z</time></trkpt><trkpt lat="42.6882733" lon="2.9103733"><ele>41.8</ele><time>2026-04-05T15:23:29.915Z</time></trkpt><trkpt lat="42.688275" lon="2.9102533"><ele>42.0</ele><time>2026-04-05T15:23:30.915Z</time></trkpt><trkpt lat="42.6882767" lon="2.910145"><ele>42.166666666666664</ele><time>2026-04-05T15:23:31.915Z</time></trkpt><trkpt lat="42.688275" lon="2.9100433"><ele>42.333333333333336</ele><time>2026-04-05T15:23:32.915Z</time></trkpt><trkpt lat="42.6882683" lon="2.90995"><ele>42.5</ele><time>2026-04-05T15:23:33.915Z</time></trkpt><trkpt lat="42.6882617" lon="2.9098617"><ele>42.66666666666667</ele><time>2026-04-05T15:23:34.915Z</time></trkpt><trkpt lat="42.6882567" lon="2.90974"><ele>42.833333333333336</ele><time>2026-04-05T15:23:36.915Z</time></trkpt><trkpt lat="42.6882533" lon="2.9096133"><ele>43.0</ele><time>2026-04-05T15:23:42.915Z</time></trkpt><trkpt lat="42.6882333" lon="2.9095133"><ele>43.0</ele><time>2026-04-05T15:23:43.915Z</time></trkpt><trkpt lat="42.6882067" lon="2.909395"><ele>43.0</ele><time>2026-04-05T15:23:44.914Z</time></trkpt><trkpt lat="42.6881633" lon="2.9092667"><ele>43.0</ele><time>2026-04-05T15:23:45.915Z</time></trkpt><trkpt lat="42.6881083" lon="2.9091433"><ele>43.0</ele><time>2026-04-05T15:23:46.915Z</time></trkpt><trkpt lat="42.6880517" lon="2.90903"><ele>43.0</ele><time>2026-04-05T15:23:47.915Z</time></trkpt><trkpt lat="42.6880017" lon="2.9089283"><ele>43.0</ele><time>2026-04-05T15:23:48.915Z</time></trkpt><trkpt lat="42.6879533" lon="2.9088333"><ele>43.0</ele><time>2026-04-05T15:23:49.915Z</time></trkpt><trkpt lat="42.6879033" lon="2.9087483"><ele>43.0</ele><time>2026-04-05T15:23:50.915Z</time></trkpt><trkpt lat="42.68786" lon="2.90867"><ele>43.0</ele><time>2026-04-05T15:23:51.915Z</time></trkpt><trkpt lat="42.68784" lon="2.9085767"><ele>43.0</ele><time>2026-04-05T15:23:52.915Z</time></trkpt><trkpt lat="42.6878467" lon="2.90847"><ele>43.0</ele><time>2026-04-05T15:23:53.914Z</time></trkpt><trkpt lat="42.6878717" lon="2.9083517"><ele>42.75</ele><time>2026-04-05T15:23:54.915Z</time></trkpt><trkpt lat="42.6879417" lon="2.9082517"><ele>42.5</ele><time>2026-04-05T15:23:55.915Z</time></trkpt><trkpt lat="42.6880283" lon="2.90814"><ele>42.25</ele><time>2026-04-05T15:23:56.915Z</time></trkpt><trkpt lat="42.688115" lon="2.908025"><ele>42.0</ele><time>2026-04-05T15:23:57.915Z</time></trkpt><trkpt lat="42.6882033" lon="2.9079017"><ele>42.0</ele><time>2026-04-05T15:23:58.915Z</time></trkpt><trkpt lat="42.688295" lon="2.907775"><ele>42.0</ele><time>2026-04-05T15:23:59.914Z</time></trkpt><trkpt lat="42.6883933" lon="2.907645"><ele>42.0</ele><time>2026-04-05T15:24:00.915Z</time></trkpt><trkpt lat="42.688495" lon="2.90751"><ele>42.0</ele><time>2026-04-05T15:24:01.915Z</time></trkpt><trkpt lat="42.6885983" lon="2.9073733"><ele>42.25</ele><time>2026-04-05T15:24:02.915Z</time></trkpt><trkpt lat="42.6886933" lon="2.9072383"><ele>42.5</ele><time>2026-04-05T15:24:03.914Z</time></trkpt><trkpt lat="42.688785" lon="2.9071133"><ele>42.75</ele><time>2026-04-05T15:24:04.915Z</time></trkpt><trkpt lat="42.6888717" lon="2.906995"><ele>43.0</ele><time>2026-04-05T15:24:05.914Z</time></trkpt><trkpt lat="42.6889483" lon="2.9068867"><ele>43.0</ele><time>2026-04-05T15:24:06.915Z</time></trkpt><trkpt lat="42.6890083" lon="2.9067967"><ele>43.0</ele><time>2026-04-05T15:24:07.915Z</time></trkpt><trkpt lat="42.6890533" lon="2.9067333"><ele>43.0</ele><time>2026-04-05T15:24:08.914Z</time></trkpt><trkpt lat="42.6891" lon="2.9066683"><ele>43.0</ele><time>2026-04-05T15:24:10.915Z</time></trkpt><trkpt lat="42.6891933" lon="2.9066017"><ele>43.0</ele><time>2026-04-05T15:24:39.915Z</time></trkpt><trkpt lat="42.6893017" lon="2.9066133"><ele>43.0</ele><time>2026-04-05T15:24:41.914Z</time></trkpt><trkpt lat="42.6893917" lon="2.90673"><ele>43.333333333333336</ele><time>2026-04-05T15:24:43.915Z</time></trkpt><trkpt lat="42.6894283" lon="2.906825"><ele>43.66666666666667</ele><time>2026-04-05T15:24:44.915Z</time></trkpt><trkpt lat="42.6894667" lon="2.9069367"><ele>44.0</ele><time>2026-04-05T15:24:45.914Z</time></trkpt><trkpt lat="42.6895083" lon="2.9070433"><ele>44.333333333333336</ele><time>2026-04-05T15:24:46.915Z</time></trkpt><trkpt lat="42.68955" lon="2.907135"><ele>44.666666666666664</ele><time>2026-04-05T15:24:47.915Z</time></trkpt><trkpt lat="42.68959" lon="2.9072167"><ele>45.0</ele><time>2026-04-05T15:24:48.915Z</time></trkpt><trkpt lat="42.6896283" lon="2.9072883"><ele>45.0</ele><time>2026-04-05T15:24:49.914Z</time></trkpt><trkpt lat="42.6896867" lon="2.9074033"><ele>45.0</ele><time>2026-04-05T15:24:51.915Z</time></trkpt><trkpt lat="42.6897283" lon="2.907475"><ele>45.0</ele><time>2026-04-05T15:24:53.915Z</time></trkpt><trkpt lat="42.689695" lon="2.9075583"><ele>45.0</ele><time>2026-04-05T15:24:57.915Z</time></trkpt></trkseg></trk></gpx>